Darstellungsparameter: Aktuell verwendete Einstellungen:
Skalierung der Graphiken ... ?
xyx+y,   Skalierungsfaktor:      Skalierung: Modus: x, Faktor: 1
Darstellungszeitraum ... ?
Vom - - bis: - -   Zeitraum: 07.07.2003 - 06.01.2004
Min/Max/Avg-Anzeige ... ?
Zeige MMA aktuell
Zeige MMA Monat
Zeige MMA alles
Zeige --A aktuell
Zeige --A Monat
Zeige --A alles
Keine MMA-Anzeige
MMA:
Keine MMA-Graphiken
MMA-Basis: 07.07.2003 - 06.01.2004
Quicknavigation für Darstellung... ?
Tage:      1T, 2T, 3T, 5T -1T -2T -3T -5T +1T +2T +3T +5T
Wochen: 1W, 2W, 3W -1W -2W -3W +1W +2W +3W
Monate: 1M, 3M, 6M -1M -3M -6M +1M +3M +6M
Jahre:    1J, 3J, 5J, 10J -1J -3J -5J -10J +1J +3J +5J +10J
Nutze für die Darstellung ... ?
Originaldaten oder Mittelwerte auf ...
Stundenbasis Tagesbasis Wochenbasis
Monatsbasis Jahresbasis      Datenbasis: Original-Daten
Darstellen als:
Statistik (Auto) Statistik J:M      Darstellung:
Zur Graphik,    zurück zur Übersicht aller Sensoren.
 
Tabellarische Datenbersicht: ?
 
Sensor: Nr:Datum:Temp:Abs-Feuchte:Windchill:Wind:
Aussen-T/F 1 07-07-2003 00:02:01 17.5 C 9.99 g/m*3 17.5 C 0 km/h
2 07-07-2003 00:12:01 17.4 C 9.93 g/m*3 17.4 C 0 km/h
3 07-07-2003 00:22:01 17.3 C 10.02 g/m*3 17.3 C 0 km/h
4 07-07-2003 00:32:01 17.1 C 9.9 g/m*3 17.1 C 0 km/h
5 07-07-2003 00:42:01 17 C 9.98 g/m*3 17 C 0 km/h
6 07-07-2003 00:52:01 17.2 C 9.96 g/m*3 17.2 C 0 km/h
7 07-07-2003 01:02:01 17.2 C 10.25 g/m*3 17.2 C 0 km/h
8 07-07-2003 01:12:01 17 C 10.27 g/m*3 17 C 0 km/h
9 07-07-2003 01:22:01 16.8 C 10.15 g/m*3 16.8 C 0 km/h
10 07-07-2003 01:32:01 16.6 C 10.31 g/m*3 16.6 C 0 km/h
11 07-07-2003 01:42:01 16.5 C 10.25 g/m*3 16.5 C 0 km/h
12 07-07-2003 01:52:01 16.5 C 10.25 g/m*3 16.5 C 0 km/h
13 07-07-2003 02:02:01 16.5 C 10.11 g/m*3 16.5 C 0 km/h
14 07-07-2003 02:12:01 16.2 C 10.07 g/m*3 16.2 C 0 km/h
15 07-07-2003 02:22:01 16.1 C 10.01 g/m*3 16.1 C 0 km/h
16 07-07-2003 02:32:01 15.9 C 10.16 g/m*3 15.9 C 0 km/h
17 07-07-2003 02:42:01 15.8 C 9.96 g/m*3 15.8 C 0 km/h
18 07-07-2003 02:52:01 15.7 C 9.9 g/m*3 15.7 C 0 km/h
19 07-07-2003 03:02:01 15.5 C 9.91 g/m*3 15.5 C 0 km/h
20 07-07-2003 03:12:01 15.7 C 10.03 g/m*3 15.7 C 0 km/h
21 07-07-2003 03:22:01 15.7 C 10.03 g/m*3 15.7 C 0 km/h
22 07-07-2003 03:32:01 15.8 C 9.96 g/m*3 15.8 C 0 km/h
23 07-07-2003 03:42:01 16 C 9.95 g/m*3 16 C 0 km/h
24 07-07-2003 03:52:01 16.2 C 10.07 g/m*3 16.2 C 0 km/h
25 07-07-2003 04:02:01 16.1 C 10.01 g/m*3 16.1 C 0 km/h
Sensor: Nr:Datum:Temp:Abs-Feuchte:Windchill:Wind:
Aussen-T/F 26 07-07-2003 04:12:01 15.8 C 9.96 g/m*3 15.8 C 0 km/h
27 07-07-2003 04:22:01 15.8 C 10.1 g/m*3 15.8 C 0 km/h
28 07-07-2003 04:32:01 15.8 C 10.1 g/m*3 15.8 C 0 km/h
29 07-07-2003 04:42:01 16 C 10.08 g/m*3 16 C 0 km/h
30 07-07-2003 04:52:01 16 C 10.08 g/m*3 16 C 0 km/h
31 07-07-2003 05:02:01 16 C 10.08 g/m*3 16 C 0 km/h
32 07-07-2003 05:12:01 16 C 10.08 g/m*3 16 C 0 km/h
33 07-07-2003 05:22:01 15.8 C 10.23 g/m*3 15.8 C 0 km/h
34 07-07-2003 05:32:01 15.8 C 10.36 g/m*3 15.8 C 0 km/h
35 07-07-2003 05:42:01 15.9 C 10.29 g/m*3 15.9 C 0 km/h
36 07-07-2003 05:52:01 15.6 C 10.11 g/m*3 15.6 C 0 km/h
37 07-07-2003 06:02:01 15.6 C 10.11 g/m*3 15.6 C 0 km/h
38 07-07-2003 06:12:01 15.7 C 10.17 g/m*3 15.7 C 0 km/h
39 07-07-2003 06:22:01 15.7 C 10.17 g/m*3 15.7 C 0 km/h
40 07-07-2003 06:32:01 15.7 C 10.17 g/m*3 15.7 C 0 km/h
41 07-07-2003 06:42:01 15.8 C 10.36 g/m*3 15.8 C 0 km/h
42 07-07-2003 06:52:01 16 C 10.35 g/m*3 16 C 0 km/h
43 07-07-2003 07:02:01 16.1 C 10.42 g/m*3 16.1 C 0 km/h
44 07-07-2003 07:12:01 16.1 C 10.42 g/m*3 16.1 C 0 km/h
45 07-07-2003 07:22:01 16.4 C 10.47 g/m*3 16.4 C 0 km/h
46 07-07-2003 07:32:01 16.7 C 10.23 g/m*3 16.7 C 0 km/h
47 07-07-2003 07:42:01 17 C 9.98 g/m*3 17 C 0 km/h
48 07-07-2003 07:52:01 17.3 C 10.16 g/m*3 17.3 C 0 km/h
49 07-07-2003 08:02:01 17.5 C 10.14 g/m*3 17.5 C 0 km/h
50 07-07-2003 08:12:01 17.6 C 10.35 g/m*3 17.6 C 0 km/h
Sensor: Nr:Datum:Temp:Abs-Feuchte:Windchill:Wind:
Aussen-T/F 51 07-07-2003 08:22:01 17.5 C 10.29 g/m*3 17.5 C 0 km/h
52 07-07-2003 08:32:00 17.4 C 10.52 g/m*3 17.4 C 0 km/h
53 07-07-2003 08:42:00 17.4 C 10.52 g/m*3 17.4 C 0 km/h
54 07-07-2003 08:52:00 17.4 C 10.23 g/m*3 17.4 C 0 km/h
55 07-07-2003 09:02:01 17.6 C 10.2 g/m*3 17.6 C 0 km/h
56 07-07-2003 09:12:01 18.1 C 10.2 g/m*3 18.1 C 0 km/h
57 07-07-2003 09:22:01 18.5 C 10.44 g/m*3 18.5 C 0 km/h
58 07-07-2003 09:32:01 18.9 C 10.37 g/m*3 18.9 C 0 km/h
59 07-07-2003 09:42:01 19.4 C 10.01 g/m*3 19.4 C 0 km/h
60 07-07-2003 09:52:01 19.8 C 10.25 g/m*3 19.8 C 0 km/h
61 07-07-2003 10:02:01 20.4 C 10.26 g/m*3 20.4 C 0 km/h
62 07-07-2003 10:12:01 20.6 C 9.84 g/m*3 20.6 C 0 km/h
63 07-07-2003 10:22:01 21.2 C 9.82 g/m*3 21.2 C 0 km/h
64 07-07-2003 10:32:00 22 C 10.09 g/m*3 22 C 0 km/h
65 07-07-2003 10:42:00 22.5 C 9.99 g/m*3 22.5 C 0 km/h
66 07-07-2003 10:52:00 22.7 C 9.5 g/m*3 22.7 C 0 km/h
67 07-07-2003 11:02:01 23.5 C 9.94 g/m*3 23.5 C 0 km/h
68 07-07-2003 11:12:01 24.1 C 9.41 g/m*3 24.1 C 0 km/h
69 07-07-2003 11:22:01 24.5 C 9.4 g/m*3 24.5 C 0 km/h
70 07-07-2003 11:32:01 24.1 C 8.97 g/m*3 24.1 C 0 km/h
71 07-07-2003 11:42:01 25 C 9.21 g/m*3 25 C 0 km/h
72 07-07-2003 11:52:01 25.6 C 9.52 g/m*3 25.6 C 0 km/h
73 07-07-2003 12:02:01 25.8 C 8.91 g/m*3 25.8 C 0 km/h
74 07-07-2003 12:12:01 26 C 9.01 g/m*3 26 C 0 km/h
75 07-07-2003 12:22:01 26.7 C 8.86 g/m*3 26.7 C 0 km/h
Sensor: Nr:Datum:Temp:Abs-Feuchte:Windchill:Wind:
Aussen-T/F 76 07-07-2003 12:32:01 25.7 C 8.62 g/m*3 25.7 C 0 km/h
77 07-07-2003 12:42:01 25.3 C 8.19 g/m*3 25.3 C 0 km/h
78 07-07-2003 12:52:01 24.8 C 7.97 g/m*3 24.8 C 0 km/h
79 07-07-2003 13:02:03 23.9 C 8 g/m*3 23.9 C 0 km/h
80 07-07-2003 13:12:03 22.9 C 7.56 g/m*3 22.9 C 0 km/h
81 07-07-2003 13:22:03 23.6 C 7.87 g/m*3 23.6 C 0 km/h
82 07-07-2003 13:32:01 26.4 C 7.22 g/m*3 26.4 C 0 km/h
83 07-07-2003 13:42:01 26.3 C 7.43 g/m*3 26.3 C 0 km/h
84 07-07-2003 13:52:01 27 C 7.72 g/m*3 27 C 0 km/h
85 07-07-2003 14:02:01 26.5 C 8.01 g/m*3 26.5 C 0 km/h
86 07-07-2003 14:12:01 26.8 C 8.14 g/m*3 26.8 C 0 km/h
87 07-07-2003 14:22:01 25.6 C 7.38 g/m*3 25.6 C 0 km/h
88 07-07-2003 14:32:01 25.8 C 7.7 g/m*3 25.8 C 0 km/h
89 07-07-2003 14:42:01 25.5 C 7.81 g/m*3 25.5 C 0 km/h
90 07-07-2003 14:52:01 25 C 7.83 g/m*3 25 C 0 km/h
91 07-07-2003 15:02:01 25.8 C 8.19 g/m*3 25.8 C 0 km/h
92 07-07-2003 15:12:01 26.4 C 7.72 g/m*3 26.4 C 0 km/h
93 07-07-2003 15:22:01 27 C 7.72 g/m*3 27 C 0 km/h
94 07-07-2003 15:32:01 26.9 C 7.68 g/m*3 26.9 C 0 km/h
95 07-07-2003 15:42:01 27.3 C 7.85 g/m*3 27.3 C 0 km/h
96 07-07-2003 15:52:01 27.9 C 7.57 g/m*3 27.9 C 0 km/h
97 07-07-2003 16:02:02 26.9 C 7.42 g/m*3 26.9 C 0 km/h
98 07-07-2003 16:12:02 28.2 C 7.42 g/m*3 28.2 C 0 km/h
99 07-07-2003 16:22:02 29.3 C 7.3 g/m*3 29.3 C 0 km/h
100 07-07-2003 16:32:01 29.6 C 7.42 g/m*3 29.6 C 0 km/h
Sensor: Nr:Datum:Temp:Abs-Feuchte:Windchill:Wind:
Aussen-T/F 101 07-07-2003 16:42:01 27.6 C 6.92 g/m*3 27.6 C 0 km/h
102 07-07-2003 16:52:01 28.6 C 7.03 g/m*3 28.6 C 0 km/h
103 07-07-2003 17:02:02 29.6 C 7.12 g/m*3 29.6 C 0 km/h
104 07-07-2003 17:12:02 27.9 C 6.76 g/m*3 27.9 C 0 km/h
105 07-07-2003 17:22:02 29.2 C 7.26 g/m*3 29.2 C 0 km/h
106 07-07-2003 17:32:01 29.3 C 6.72 g/m*3 29.3 C 0 km/h
107 07-07-2003 17:42:01 28.9 C 6.86 g/m*3 28.9 C 0 km/h
108 07-07-2003 17:52:01 28.6 C 6.74 g/m*3 28.6 C 0 km/h
109 07-07-2003 18:02:01 28.5 C 6.99 g/m*3 28.5 C 0 km/h
110 07-07-2003 18:12:01 28.3 C 6.91 g/m*3 28.3 C 0 km/h
111 07-07-2003 18:22:01 28.1 C 6.84 g/m*3 28.1 C 0 km/h
112 07-07-2003 18:32:02 27.6 C 6.65 g/m*3 27.6 C 0 km/h
113 07-07-2003 18:42:02 27.9 C 7.03 g/m*3 27.9 C 0 km/h
114 07-07-2003 18:52:02 28.5 C 6.99 g/m*3 28.5 C 0 km/h
115 07-07-2003 19:02:02 27.9 C 8.38 g/m*3 27.9 C 0 km/h
116 07-07-2003 19:12:02 27.9 C 8.38 g/m*3 27.9 C 0 km/h
117 07-07-2003 19:22:02 28.2 C 8.8 g/m*3 28.2 C 0 km/h
118 07-07-2003 19:32:02 28.3 C 6.91 g/m*3 28.3 C 0 km/h
119 07-07-2003 19:42:02 28.3 C 7.19 g/m*3 28.3 C 0 km/h
120 07-07-2003 19:52:02 28.8 C 7.67 g/m*3 28.8 C 0 km/h
121 07-07-2003 20:02:02 27.8 C 6.99 g/m*3 27.8 C 0 km/h
122 07-07-2003 20:12:02 27.4 C 7.1 g/m*3 27.4 C 0 km/h
123 07-07-2003 20:22:02 27.4 C 7.1 g/m*3 27.4 C 0 km/h
124 07-07-2003 20:32:01 26.9 C 7.68 g/m*3 26.9 C 0 km/h
125 07-07-2003 20:42:01 26.2 C 7.39 g/m*3 26.2 C 0 km/h
Sensor: Nr:Datum:Temp:Abs-Feuchte:Windchill:Wind:
Aussen-T/F 126 07-07-2003 20:52:01 25.3 C 7.49 g/m*3 25.3 C 0 km/h
127 07-07-2003 21:02:01 24.6 C 8.33 g/m*3 24.6 C 0 km/h
128 07-07-2003 21:12:01 23.4 C 8.41 g/m*3 23.4 C 0 km/h
129 07-07-2003 21:22:01 22.5 C 8.39 g/m*3 22.5 C 0 km/h
130 07-07-2003 21:33:02 21.9 C 8.49 g/m*3 21.9 C 0 km/h
131 07-07-2003 21:43:02 21.3 C 8.39 g/m*3 21.3 C 0 km/h
132 07-07-2003 21:53:02 20.8 C 8.33 g/m*3 20.8 C 0 km/h
133 07-07-2003 22:03:02 20.1 C 8.34 g/m*3 20.1 C 0 km/h
134 07-07-2003 22:13:02 20.1 C 8.52 g/m*3 20.1 C 0 km/h
135 07-07-2003 22:23:02 20 C 8.47 g/m*3 20 C 0 km/h
136 07-07-2003 22:33:02 19.8 C 8.54 g/m*3 19.8 C 0 km/h
137 07-07-2003 22:43:02 19.6 C 8.61 g/m*3 19.6 C 0 km/h
138 07-07-2003 22:53:02 19.5 C 8.56 g/m*3 19.5 C 0 km/h
139 07-07-2003 23:03:02 19.2 C 8.74 g/m*3 19.2 C 0 km/h
140 07-07-2003 23:13:02 19.1 C 8.69 g/m*3 19.1 C 0 km/h
141 07-07-2003 23:23:02 18.9 C 8.91 g/m*3 18.9 C 0 km/h
142 07-07-2003 23:33:02 18.6 C 8.59 g/m*3 18.6 C 0 km/h
143 07-07-2003 23:43:02 18.4 C 8.65 g/m*3 18.4 C 0 km/h
144 07-07-2003 23:53:02 18.1 C 8.5 g/m*3 18.1 C 0 km/h
145 08-07-2003 00:03:02 18 C 8.6 g/m*3 18 C 0 km/h
146 08-07-2003 00:13:02 17.7 C 8.6 g/m*3 17.7 C 0 km/h
147 08-07-2003 00:23:02 17.6 C 8.7 g/m*3 17.6 C 0 km/h
148 08-07-2003 00:33:02 17.4 C 8.74 g/m*3 17.4 C 0 km/h
149 08-07-2003 00:43:02 17.3 C 8.69 g/m*3 17.3 C 0 km/h
150 08-07-2003 00:53:02 17.1 C 8.59 g/m*3 17.1 C 0 km/h
Sensor: Nr:Datum:Temp:Abs-Feuchte:Windchill:Wind:
Aussen-T/F 151 08-07-2003 01:03:02 16.9 C 8.77 g/m*3 16.9 C 0 km/h
152 08-07-2003 01:13:02 16.7 C 8.81 g/m*3 16.7 C 0 km/h
153 08-07-2003 01:23:02 16.4 C 8.93 g/m*3 16.4 C 0 km/h
154 08-07-2003 01:33:02 16.1 C 8.77 g/m*3 16.1 C 0 km/h
155 08-07-2003 01:43:02 16.1 C 8.91 g/m*3 16.1 C 0 km/h
156 08-07-2003 01:53:02 15.8 C 9.02 g/m*3 15.8 C 0 km/h
157 08-07-2003 02:03:02 15.8 C 9.02 g/m*3 15.8 C 0 km/h
158 08-07-2003 02:13:02 15.6 C 8.91 g/m*3 15.6 C 0 km/h
159 08-07-2003 02:23:02 15.5 C 8.99 g/m*3 15.5 C 0 km/h
160 08-07-2003 02:33:02 15.3 C 8.88 g/m*3 15.3 C 0 km/h
161 08-07-2003 02:43:02 15.1 C 9.03 g/m*3 15.1 C 0 km/h
162 08-07-2003 02:53:02 14.7 C 8.94 g/m*3 14.7 C 0 km/h
163 08-07-2003 03:03:02 14.7 C 9.07 g/m*3 14.7 C 0 km/h
164 08-07-2003 03:13:02 14.6 C 9.01 g/m*3 14.6 C 0 km/h
165 08-07-2003 03:23:02 14.5 C 9.08 g/m*3 14.5 C 0 km/h
166 08-07-2003 03:33:02 14.4 C 9.02 g/m*3 14.4 C 0 km/h
167 08-07-2003 03:43:02 14.2 C 9.04 g/m*3 14.2 C 0 km/h
168 08-07-2003 03:53:02 14.1 C 9.1 g/m*3 14.1 C 0 km/h
169 08-07-2003 04:03:02 14 C 9.17 g/m*3 14 C 0 km/h
170 08-07-2003 04:13:02 13.9 C 9.11 g/m*3 13.9 C 0 km/h
171 08-07-2003 04:23:02 13.8 C 9.06 g/m*3 13.8 C 0 km/h
172 08-07-2003 04:33:02 13.7 C 9 g/m*3 13.7 C 0 km/h
173 08-07-2003 04:43:02 13.7 C 9.12 g/m*3 13.7 C 0 km/h
174 08-07-2003 04:53:02 13.5 C 9.12 g/m*3 13.5 C 0 km/h
175 08-07-2003 05:03:02 13.3 C 9.13 g/m*3 13.3 C 0 km/h
Sensor: Nr:Datum:Temp:Abs-Feuchte:Windchill:Wind:
Aussen-T/F 176 08-07-2003 05:13:02 13.2 C 8.96 g/m*3 13.2 C 0 km/h
177 08-07-2003 05:23:02 13.2 C 9.07 g/m*3 13.2 C 0 km/h
178 08-07-2003 05:33:02 13.1 C 9.01 g/m*3 13.1 C 0 km/h
179 08-07-2003 05:43:02 13.2 C 9.19 g/m*3 13.2 C 0 km/h
180 08-07-2003 05:53:02 13.3 C 9.24 g/m*3 13.3 C 0 km/h
181 08-07-2003 06:03:02 13.1 C 9.13 g/m*3 13.1 C 0 km/h
182 08-07-2003 06:13:02 13 C 9.07 g/m*3 13 C 0 km/h
183 08-07-2003 06:23:02 13.1 C 9.13 g/m*3 13.1 C 0 km/h
184 08-07-2003 06:33:02 13.3 C 9.24 g/m*3 13.3 C 0 km/h
185 08-07-2003 06:43:02 13.6 C 9.3 g/m*3 13.6 C 0 km/h
186 08-07-2003 06:53:02 13.9 C 9.23 g/m*3 13.9 C 0 km/h
187 08-07-2003 07:03:02 14.1 C 9.34 g/m*3 14.1 C 0 km/h
188 08-07-2003 07:13:02 14.3 C 9.34 g/m*3 14.3 C 0 km/h
189 08-07-2003 07:23:02 14 C 9.17 g/m*3 14 C 0 km/h
190 08-07-2003 07:33:02 14.3 C 9.46 g/m*3 14.3 C 0 km/h
191 08-07-2003 07:43:02 14.3 C 9.46 g/m*3 14.3 C 0 km/h
192 08-07-2003 07:53:02 14.4 C 9.27 g/m*3 14.4 C 0 km/h
193 08-07-2003 08:03:01 14.6 C 9.13 g/m*3 14.6 C 0 km/h
194 08-07-2003 08:13:01 14.9 C 9.18 g/m*3 14.9 C 0 km/h
195 08-07-2003 08:23:01 15 C 9.36 g/m*3 15 C 0 km/h
196 08-07-2003 08:33:01 15.3 C 9.4 g/m*3 15.3 C 0 km/h
197 08-07-2003 08:43:01 15.7 C 9.37 g/m*3 15.7 C 0 km/h
198 08-07-2003 08:53:01 16.1 C 9.05 g/m*3 16.1 C 0 km/h
199 08-07-2003 09:03:01 16.6 C 9.46 g/m*3 16.6 C 0 km/h
200 08-07-2003 09:13:01 16.9 C 9.35 g/m*3 16.9 C 0 km/h
Sensor: Nr:Datum:Temp:Abs-Feuchte:Windchill:Wind:
Aussen-T/F 201 08-07-2003 09:23:01 17.4 C 9.19 g/m*3 17.4 C 0 km/h
202 08-07-2003 09:33:00 18.1 C 9.27 g/m*3 18.1 C 0 km/h
203 08-07-2003 09:43:00 18.6 C 9.39 g/m*3 18.6 C 0 km/h
204 08-07-2003 09:53:00 19.2 C 9.56 g/m*3 19.2 C 0 km/h
205 08-07-2003 10:03:02 19.8 C 9.74 g/m*3 19.8 C 0 km/h
206 08-07-2003 10:13:02 20.8 C 9.96 g/m*3 20.8 C 0 km/h
207 08-07-2003 10:23:02 21.5 C 9.99 g/m*3 21.5 C 0 km/h
208 08-07-2003 10:33:01 22 C 9.7 g/m*3 22 C 0 km/h
209 08-07-2003 10:43:01 22.8 C 9.55 g/m*3 22.8 C 0 km/h
210 08-07-2003 10:53:01 23.3 C 9.41 g/m*3 23.3 C 0 km/h
211 08-07-2003 11:03:01 23.4 C 9.25 g/m*3 23.4 C 0 km/h
212 08-07-2003 11:13:01 24.2 C 9.24 g/m*3 24.2 C 0 km/h
213 08-07-2003 11:23:01 24.5 C 9.18 g/m*3 24.5 C 0 km/h
214 08-07-2003 11:33:01 25.2 C 9.08 g/m*3 25.2 C 0 km/h
215 08-07-2003 11:43:01 25.2 C 9.31 g/m*3 25.2 C 0 km/h
216 08-07-2003 11:53:01 26.1 C 8.81 g/m*3 26.1 C 0 km/h
217 08-07-2003 12:03:01 26.5 C 8.26 g/m*3 26.5 C 0 km/h
218 08-07-2003 12:13:01 26.4 C 7.97 g/m*3 26.4 C 0 km/h
219 08-07-2003 12:23:01 26.2 C 7.88 g/m*3 26.2 C 0 km/h
220 08-07-2003 12:33:01 26.6 C 7.8 g/m*3 26.6 C 0 km/h
221 08-07-2003 12:43:01 26.5 C 7.76 g/m*3 26.5 C 0 km/h
222 08-07-2003 12:53:01 26.4 C 7.47 g/m*3 26.4 C 0 km/h
223 08-07-2003 13:03:01 26.4 C 7.47 g/m*3 26.4 C 0 km/h
224 08-07-2003 13:13:01 25.9 C 7.75 g/m*3 25.9 C 0 km/h
225 08-07-2003 13:23:01 25.8 C 7.94 g/m*3 25.8 C 0 km/h
Sensor: Nr:Datum:Temp:Abs-Feuchte:Windchill:Wind:
Aussen-T/F 226 08-07-2003 13:33:02 26.4 C 7.72 g/m*3 26.4 C 0 km/h
227 08-07-2003 13:43:02 26 C 8.28 g/m*3 26 C 0 km/h
228 08-07-2003 13:53:02 26.5 C 8.01 g/m*3 26.5 C 0 km/h
229 08-07-2003 14:03:02 28.2 C 8.25 g/m*3 28.2 C 0 km/h
230 08-07-2003 14:13:02 27.8 C 7.8 g/m*3 27.8 C 0 km/h
231 08-07-2003 14:23:02 28.6 C 8.15 g/m*3 28.6 C 0 km/h
232 08-07-2003 14:33:01 28.6 C 8.15 g/m*3 28.6 C 0 km/h
233 08-07-2003 14:43:01 27.1 C 8.02 g/m*3 27.1 C 0 km/h
234 08-07-2003 14:53:01 27.5 C 8.2 g/m*3 27.5 C 0 km/h
235 08-07-2003 15:03:01 27.3 C 8.37 g/m*3 27.3 C 0 km/h
236 08-07-2003 15:13:01 27.9 C 8.65 g/m*3 27.9 C 0 km/h
237 08-07-2003 15:23:01 27.4 C 8.16 g/m*3 27.4 C 0 km/h
238 08-07-2003 15:33:01 28.4 C 8.34 g/m*3 28.4 C 0 km/h
239 08-07-2003 15:43:01 28 C 8.16 g/m*3 28 C 0 km/h
240 08-07-2003 15:53:01 28 C 8.16 g/m*3 28 C 0 km/h
241 08-07-2003 16:03:03 27.8 C 8.07 g/m*3 27.8 C 0 km/h
242 08-07-2003 16:13:03 27.7 C 8.29 g/m*3 27.7 C 0 km/h
243 08-07-2003 16:23:03 29.8 C 9 g/m*3 29.8 C 0 km/h
244 08-07-2003 16:33:01 29.7 C 8.06 g/m*3 29.7 C 0 km/h
245 08-07-2003 16:43:01 29.4 C 8.22 g/m*3 29.4 C 0 km/h
246 08-07-2003 16:53:01 30.1 C 7.93 g/m*3 30.1 C 0 km/h
247 08-07-2003 17:03:02 30.4 C 8.06 g/m*3 30.4 C 0 km/h
248 08-07-2003 17:23:02 31.2 C 7.44 g/m*3 31.2 C 0 km/h
249 08-07-2003 17:33:01 31.4 C 7.19 g/m*3 31.4 C 0 km/h
250 08-07-2003 17:43:01 31.7 C 7.31 g/m*3 31.7 C 0 km/h
Sensor: Nr:Datum:Temp:Abs-Feuchte:Windchill:Wind:
Aussen-T/F 251 08-07-2003 17:53:01 31.4 C 6.87 g/m*3 31.4 C 0 km/h
252 08-07-2003 18:03:01 30.5 C 7.79 g/m*3 30.5 C 0 km/h
253 08-07-2003 18:13:01 30.1 C 7.62 g/m*3 30.1 C 0 km/h
254 08-07-2003 18:23:01 30.4 C 7.75 g/m*3 30.4 C 0 km/h
255 08-07-2003 18:33:01 30.9 C 7.32 g/m*3 30.9 C 0 km/h
256 08-07-2003 18:43:01 30.6 C 7.2 g/m*3 30.6 C 0 km/h
257 08-07-2003 18:53:01 29.8 C 7.5 g/m*3 29.8 C 0 km/h
258 08-07-2003 19:03:02 29.5 C 7.38 g/m*3 29.5 C 0 km/h
259 08-07-2003 19:13:02 29.9 C 7.54 g/m*3 29.9 C 0 km/h
260 08-07-2003 19:23:02 29.5 C 7.67 g/m*3 29.5 C 0 km/h
261 08-07-2003 19:33:01 28.3 C 7.46 g/m*3 28.3 C 0 km/h
262 08-07-2003 19:43:01 27.5 C 7.94 g/m*3 27.5 C 0 km/h
263 08-07-2003 19:53:01 26.4 C 8.71 g/m*3 26.4 C 0 km/h
264 08-07-2003 20:03:02 26.3 C 8.91 g/m*3 26.3 C 0 km/h
265 08-07-2003 20:13:02 26.1 C 9.06 g/m*3 26.1 C 0 km/h
266 08-07-2003 20:23:02 26.2 C 9.35 g/m*3 26.2 C 0 km/h
267 08-07-2003 20:33:02 26 C 9.01 g/m*3 26 C 0 km/h
268 08-07-2003 20:43:02 25.5 C 9.23 g/m*3 25.5 C 0 km/h
269 08-07-2003 20:53:02 24.7 C 9.05 g/m*3 24.7 C 0 km/h
270 08-07-2003 21:03:03 24.1 C 8.97 g/m*3 24.1 C 0 km/h
271 08-07-2003 21:13:03 24.2 C 9.46 g/m*3 24.2 C 0 km/h
272 08-07-2003 21:23:03 24 C 9.14 g/m*3 24 C 0 km/h
273 08-07-2003 21:33:01 23.5 C 9.31 g/m*3 23.5 C 0 km/h
274 08-07-2003 21:43:01 23.4 C 9.25 g/m*3 23.4 C 0 km/h
275 08-07-2003 21:53:01 23.2 C 9.36 g/m*3 23.2 C 0 km/h
Sensor: Nr:Datum:Temp:Abs-Feuchte:Windchill:Wind:
Aussen-T/F 276 08-07-2003 22:03:02 22.9 C 9.4 g/m*3 22.9 C 0 km/h
277 08-07-2003 22:13:02 22.7 C 9.5 g/m*3 22.7 C 0 km/h
278 08-07-2003 22:23:02 22.4 C 9.53 g/m*3 22.4 C 0 km/h
279 08-07-2003 22:34:01 22.3 C 9.48 g/m*3 22.3 C 0 km/h
280 08-07-2003 22:44:01 21.9 C 9.65 g/m*3 21.9 C 0 km/h
281 08-07-2003 22:54:01 21.9 C 9.65 g/m*3 21.9 C 0 km/h
282 08-07-2003 23:04:01 21.8 C 9.4 g/m*3 21.8 C 0 km/h
283 08-07-2003 23:14:01 21.8 C 9.4 g/m*3 21.8 C 0 km/h
284 08-07-2003 23:24:01 21.8 C 9.59 g/m*3 21.8 C 0 km/h
285 08-07-2003 23:34:01 21.6 C 9.48 g/m*3 21.6 C 0 km/h
286 08-07-2003 23:44:01 21.4 C 9.37 g/m*3 21.4 C 0 km/h
287 08-07-2003 23:54:01 21.2 C 9.45 g/m*3 21.2 C 0 km/h
288 09-07-2003 00:04:01 21.1 C 9.4 g/m*3 21.1 C 0 km/h
289 09-07-2003 00:14:01 21.1 C 9.4 g/m*3 21.1 C 0 km/h
290 09-07-2003 00:24:01 20.8 C 9.42 g/m*3 20.8 C 0 km/h
291 09-07-2003 00:34:01 20.7 C 9.54 g/m*3 20.7 C 0 km/h
292 09-07-2003 00:44:01 20.3 C 9.5 g/m*3 20.3 C 0 km/h
293 09-07-2003 00:54:01 19.9 C 9.62 g/m*3 19.9 C 0 km/h
294 09-07-2003 01:04:01 19.8 C 9.74 g/m*3 19.8 C 0 km/h
295 09-07-2003 01:14:01 19.7 C 9.68 g/m*3 19.7 C 0 km/h
296 09-07-2003 01:24:01 19.5 C 9.73 g/m*3 19.5 C 0 km/h
297 09-07-2003 01:34:01 19.3 C 9.79 g/m*3 19.3 C 0 km/h
298 09-07-2003 01:44:01 19.3 C 9.79 g/m*3 19.3 C 0 km/h
299 09-07-2003 01:54:01 19.2 C 9.89 g/m*3 19.2 C 0 km/h
300 09-07-2003 02:04:01 19.1 C 10 g/m*3 19.1 C 0 km/h
Sensor: Nr:Datum:Temp:Abs-Feuchte:Windchill:Wind:
Aussen-T/F 301 09-07-2003 02:14:01 19 C 9.78 g/m*3 19 C 0 km/h
302 09-07-2003 02:24:01 18.8 C 9.99 g/m*3 18.8 C 0 km/h
303 09-07-2003 02:34:01 18.7 C 10.09 g/m*3 18.7 C 0 km/h
304 09-07-2003 02:44:01 18.6 C 10.19 g/m*3 18.6 C 0 km/h
305 09-07-2003 02:54:01 18.5 C 10.28 g/m*3 18.5 C 0 km/h
306 09-07-2003 03:04:01 18.4 C 10.22 g/m*3 18.4 C 0 km/h
307 09-07-2003 03:14:01 18 C 10.29 g/m*3 18 C 0 km/h
308 09-07-2003 03:24:01 18 C 10.29 g/m*3 18 C 0 km/h
309 09-07-2003 03:34:01 17.7 C 10.26 g/m*3 17.7 C 0 km/h
310 09-07-2003 03:44:01 17.6 C 10.35 g/m*3 17.6 C 0 km/h
311 09-07-2003 03:54:01 17.5 C 10.29 g/m*3 17.5 C 0 km/h
312 09-07-2003 04:04:01 17.6 C 10.5 g/m*3 17.6 C 0 km/h
313 09-07-2003 04:14:01 17.3 C 10.46 g/m*3 17.3 C 0 km/h
314 09-07-2003 04:24:01 17.2 C 10.4 g/m*3 17.2 C 0 km/h
315 09-07-2003 04:34:01 17.2 C 10.54 g/m*3 17.2 C 0 km/h
316 09-07-2003 04:44:01 17.2 C 10.54 g/m*3 17.2 C 0 km/h
317 09-07-2003 04:54:01 17.1 C 10.48 g/m*3 17.1 C 0 km/h
318 09-07-2003 05:04:01 17 C 10.42 g/m*3 17 C 0 km/h
319 09-07-2003 05:14:01 16.8 C 10.58 g/m*3 16.8 C 0 km/h
320 09-07-2003 05:24:01 16.9 C 10.5 g/m*3 16.9 C 0 km/h
321 09-07-2003 05:34:01 16.8 C 10.58 g/m*3 16.8 C 0 km/h
322 09-07-2003 05:44:01 16.7 C 10.52 g/m*3 16.7 C 0 km/h
323 09-07-2003 05:54:01 16.6 C 10.59 g/m*3 16.6 C 0 km/h
324 09-07-2003 06:04:01 16.7 C 10.66 g/m*3 16.7 C 0 km/h
325 09-07-2003 06:14:01 16.7 C 10.66 g/m*3 16.7 C 0 km/h
Sensor: Nr:Datum:Temp:Abs-Feuchte:Windchill:Wind:
Aussen-T/F 326 09-07-2003 06:24:01 16.8 C 10.72 g/m*3 16.8 C 0 km/h
327 09-07-2003 06:34:01 17 C 10.71 g/m*3 17 C 0 km/h
328 09-07-2003 06:44:01 17.2 C 10.69 g/m*3 17.2 C 0 km/h
329 09-07-2003 06:54:01 17.1 C 10.77 g/m*3 17.1 C 0 km/h
330 09-07-2003 07:04:01 17.3 C 10.75 g/m*3 17.3 C 0 km/h
331 09-07-2003 07:14:01 17.5 C 10.88 g/m*3 17.5 C 0 km/h
332 09-07-2003 07:24:01 17.2 C 10.69 g/m*3 17.2 C 0 km/h
333 09-07-2003 07:34:01 17.5 C 10.88 g/m*3 17.5 C 0 km/h
334 09-07-2003 07:44:01 17.7 C 11.01 g/m*3 17.7 C 0 km/h
335 09-07-2003 07:54:01 17.9 C 10.99 g/m*3 17.9 C 0 km/h
336 09-07-2003 08:04:01 17.9 C 10.99 g/m*3 17.9 C 0 km/h
337 09-07-2003 08:14:01 18.1 C 10.82 g/m*3 18.1 C 0 km/h
338 09-07-2003 08:24:01 18.4 C 11.17 g/m*3 18.4 C 0 km/h
339 09-07-2003 08:34:01 18.5 C 11.08 g/m*3 18.5 C 0 km/h
340 09-07-2003 08:44:01 18.9 C 10.85 g/m*3 18.9 C 0 km/h
341 09-07-2003 08:54:01 19.5 C 10.74 g/m*3 19.5 C 0 km/h
342 09-07-2003 09:04:01 19.7 C 10.53 g/m*3 19.7 C 0 km/h
343 09-07-2003 09:14:01 19.9 C 10.48 g/m*3 19.9 C 0 km/h
344 09-07-2003 09:24:01 19.5 C 10.57 g/m*3 19.5 C 0 km/h
345 09-07-2003 09:34:01 20 C 10.54 g/m*3 20 C 0 km/h
346 09-07-2003 09:44:01 20.1 C 10.43 g/m*3 20.1 C 0 km/h
347 09-07-2003 09:54:01 20.2 C 10.32 g/m*3 20.2 C 0 km/h
348 09-07-2003 10:04:01 20.5 C 10.5 g/m*3 20.5 C 0 km/h
349 09-07-2003 10:14:01 21 C 10.62 g/m*3 21 C 0 km/h
350 09-07-2003 10:24:01 21.1 C 10.5 g/m*3 21.1 C 0 km/h
Sensor: Nr:Datum:Temp:Abs-Feuchte:Windchill:Wind:
Aussen-T/F 351 09-07-2003 10:34:01 22.2 C 10.21 g/m*3 22.2 C 0 km/h
352 09-07-2003 10:44:01 22 C 9.9 g/m*3 22 C 0 km/h
353 09-07-2003 10:54:01 22.5 C 10.39 g/m*3 22.5 C 0 km/h
354 09-07-2003 11:04:01 22.2 C 10.21 g/m*3 22.2 C 0 km/h
355 09-07-2003 11:14:01 21.8 C 10.36 g/m*3 21.8 C 0 km/h
356 09-07-2003 11:24:01 22.9 C 10.63 g/m*3 22.9 C 0 km/h
357 09-07-2003 11:34:02 24 C 10.01 g/m*3 24 C 0 km/h
358 09-07-2003 11:44:02 24.3 C 9.96 g/m*3 24.3 C 0 km/h
359 09-07-2003 11:54:02 25.6 C 10 g/m*3 25.6 C 0 km/h
360 09-07-2003 12:04:02 25.5 C 10.18 g/m*3 25.5 C 0 km/h
361 09-07-2003 12:14:02 24.8 C 10.02 g/m*3 24.8 C 0 km/h
362 09-07-2003 12:24:02 25.4 C 9.65 g/m*3 25.4 C 0 km/h
363 09-07-2003 12:34:01 25.3 C 9.6 g/m*3 25.3 C 0 km/h
364 09-07-2003 12:44:01 24.8 C 10.02 g/m*3 24.8 C 0 km/h
365 09-07-2003 12:54:01 25.4 C 9.89 g/m*3 25.4 C 0 km/h
366 09-07-2003 13:04:01 25.3 C 9.83 g/m*3 25.3 C 0 km/h
367 09-07-2003 13:14:01 26.1 C 10.04 g/m*3 26.1 C 0 km/h
368 09-07-2003 13:24:01 24.8 C 9.79 g/m*3 24.8 C 0 km/h
369 09-07-2003 13:34:01 24.3 C 10.18 g/m*3 24.3 C 0 km/h
370 09-07-2003 13:44:01 24 C 10.01 g/m*3 24 C 0 km/h
371 09-07-2003 13:54:01 24.3 C 10.18 g/m*3 24.3 C 0 km/h
372 09-07-2003 14:04:01 25 C 9.9 g/m*3 25 C 0 km/h
373 09-07-2003 14:14:01 25.3 C 9.83 g/m*3 25.3 C 0 km/h
374 09-07-2003 14:24:01 24.3 C 10.18 g/m*3 24.3 C 0 km/h
375 09-07-2003 14:34:01 24.6 C 10.13 g/m*3 24.6 C 0 km/h
Sensor: Nr:Datum:Temp:Abs-Feuchte:Windchill:Wind:
Aussen-T/F 376 09-07-2003 14:44:01 24 C 10.01 g/m*3 24 C 0 km/h
377 09-07-2003 14:54:01 23.5 C 10.36 g/m*3 23.5 C 0 km/h
378 09-07-2003 15:04:02 23.5 C 10.36 g/m*3 23.5 C 0 km/h
379 09-07-2003 15:14:02 23.6 C 10.42 g/m*3 23.6 C 0 km/h
380 09-07-2003 15:24:02 24.4 C 10.24 g/m*3 24.4 C 0 km/h
381 09-07-2003 15:34:01 24.3 C 10.18 g/m*3 24.3 C 0 km/h
382 09-07-2003 15:44:01 23.7 C 10.48 g/m*3 23.7 C 0 km/h
383 09-07-2003 15:54:01 23.4 C 10.3 g/m*3 23.4 C 0 km/h
384 09-07-2003 16:04:01 23.3 C 10.25 g/m*3 23.3 C 0 km/h
385 09-07-2003 16:14:01 23.7 C 10.27 g/m*3 23.7 C 0 km/h
386 09-07-2003 16:24:01 23.8 C 10.33 g/m*3 23.8 C 0 km/h
387 09-07-2003 16:34:01 23.2 C 9.98 g/m*3 23.2 C 0 km/h
388 09-07-2003 16:44:01 23.1 C 10.13 g/m*3 23.1 C 0 km/h
389 09-07-2003 16:54:01 23.1 C 10.34 g/m*3 23.1 C 0 km/h
390 09-07-2003 17:04:01 22.9 C 10.22 g/m*3 22.9 C 0 km/h
391 09-07-2003 17:14:01 23 C 9.87 g/m*3 23 C 0 km/h
392 09-07-2003 17:24:01 22.9 C 10.22 g/m*3 22.9 C 0 km/h
393 09-07-2003 17:34:02 22.9 C 10.22 g/m*3 22.9 C 0 km/h
394 09-07-2003 17:44:02 23.3 C 10.04 g/m*3 23.3 C 0 km/h
395 09-07-2003 17:54:02 23.2 C 9.98 g/m*3 23.2 C 0 km/h
396 09-07-2003 18:04:02 23.2 C 9.98 g/m*3 23.2 C 0 km/h
397 09-07-2003 18:14:02 23.1 C 10.34 g/m*3 23.1 C 0 km/h
398 09-07-2003 18:24:02 22.9 C 10.42 g/m*3 22.9 C 0 km/h
399 09-07-2003 18:34:02 23 C 10.28 g/m*3 23 C 0 km/h
400 09-07-2003 18:44:02 23 C 10.28 g/m*3 23 C 0 km/h
Sensor: Nr:Datum:Temp:Abs-Feuchte:Windchill:Wind:
Aussen-T/F 401 09-07-2003 18:54:02 22.6 C 10.25 g/m*3 22.6 C 0 km/h
402 09-07-2003 19:04:02 22.8 C 10.16 g/m*3 22.8 C 0 km/h
403 09-07-2003 19:14:02 23.5 C 10.15 g/m*3 23.5 C 0 km/h
404 09-07-2003 19:24:02 23.3 C 9.83 g/m*3 23.3 C 0 km/h
405 09-07-2003 19:44:12 23.4 C 10.09 g/m*3 23.4 C 0 km/h
406 09-07-2003 19:54:12 23.9 C 10.38 g/m*3 23.9 C 0 km/h
407 09-07-2003 20:04:01 23.3 C 10.04 g/m*3 23.3 C 0 km/h
408 09-07-2003 20:14:01 23.2 C 9.98 g/m*3 23.2 C 0 km/h
409 09-07-2003 20:24:01 23 C 10.07 g/m*3 23 C 0 km/h
410 09-07-2003 20:34:01 22.5 C 10.19 g/m*3 22.5 C 0 km/h
411 09-07-2003 20:44:01 22.5 C 10.39 g/m*3 22.5 C 0 km/h
412 09-07-2003 20:54:01 22.1 C 10.54 g/m*3 22.1 C 0 km/h
413 09-07-2003 21:04:01 22 C 10.29 g/m*3 22 C 0 km/h
414 09-07-2003 21:14:01 21.6 C 10.62 g/m*3 21.6 C 0 km/h
415 09-07-2003 21:24:01 21.1 C 10.5 g/m*3 21.1 C 0 km/h
416 09-07-2003 21:34:02 20.5 C 10.5 g/m*3 20.5 C 0 km/h
417 09-07-2003 21:44:02 19.8 C 10.42 g/m*3 19.8 C 0 km/h
418 09-07-2003 21:54:02 19.5 C 10.41 g/m*3 19.5 C 0 km/h
419 09-07-2003 22:04:01 19.3 C 10.45 g/m*3 19.3 C 0 km/h
420 09-07-2003 22:14:01 19.2 C 10.39 g/m*3 19.2 C 0 km/h
421 09-07-2003 22:24:01 19 C 10.43 g/m*3 19 C 0 km/h
422 09-07-2003 22:34:01 18.9 C 10.69 g/m*3 18.9 C 0 km/h
423 09-07-2003 22:44:01 19.1 C 10.98 g/m*3 19.1 C 0 km/h
424 09-07-2003 22:54:01 18.7 C 11.05 g/m*3 18.7 C 0 km/h
425 09-07-2003 23:04:00 18.5 C 10.92 g/m*3 18.5 C 0 km/h
Sensor: Nr:Datum:Temp:Abs-Feuchte:Windchill:Wind:
Aussen-T/F 426 09-07-2003 23:14:00 18.3 C 10.79 g/m*3 18.3 C 0 km/h
427 09-07-2003 23:24:00 18.2 C 10.88 g/m*3 18.2 C 0 km/h
428 09-07-2003 23:34:00 18 C 10.75 g/m*3 18 C 0 km/h
429 09-07-2003 23:44:00 17.8 C 10.93 g/m*3 17.8 C 0 km/h
430 09-07-2003 23:54:00 17.6 C 11.1 g/m*3 17.6 C 0 km/h
431 10-07-2003 00:04:02 17.2 C 10.84 g/m*3 17.2 C 0 km/h
432 10-07-2003 00:14:02 17.1 C 10.92 g/m*3 17.1 C 0 km/h
433 10-07-2003 00:24:02 16.9 C 11.08 g/m*3 16.9 C 0 km/h
434 10-07-2003 00:34:01 16.8 C 11.01 g/m*3 16.8 C 0 km/h
435 10-07-2003 00:44:01 16.5 C 10.95 g/m*3 16.5 C 0 km/h
436 10-07-2003 00:54:01 16.5 C 11.09 g/m*3 16.5 C 0 km/h
437 10-07-2003 01:05:03 16.2 C 10.89 g/m*3 16.2 C 0 km/h
438 10-07-2003 01:15:03 16.2 C 10.89 g/m*3 16.2 C 0 km/h
439 10-07-2003 01:25:03 16 C 10.76 g/m*3 16 C 0 km/h
440 10-07-2003 01:35:03 15.9 C 10.97 g/m*3 15.9 C 0 km/h
441 10-07-2003 01:45:03 15.8 C 10.77 g/m*3 15.8 C 0 km/h
442 10-07-2003 01:55:03 15.5 C 10.71 g/m*3 15.5 C 0 km/h
443 10-07-2003 02:05:03 15.5 C 10.84 g/m*3 15.5 C 0 km/h
444 10-07-2003 02:15:03 15.4 C 10.64 g/m*3 15.4 C 0 km/h
445 10-07-2003 02:25:03 15.3 C 10.71 g/m*3 15.3 C 0 km/h
446 10-07-2003 02:35:03 15.2 C 10.51 g/m*3 15.2 C 0 km/h
447 10-07-2003 02:45:03 15.2 C 10.51 g/m*3 15.2 C 0 km/h
448 10-07-2003 02:55:03 15 C 10.51 g/m*3 15 C 0 km/h
449 10-07-2003 03:05:03 14.9 C 10.58 g/m*3 14.9 C 0 km/h
450 10-07-2003 03:15:03 14.8 C 10.51 g/m*3 14.8 C 0 km/h
Sensor: Nr:Datum:Temp:Abs-Feuchte:Windchill:Wind:
Aussen-T/F 451 10-07-2003 03:25:03 14.7 C 10.58 g/m*3 14.7 C 0 km/h
452 10-07-2003 03:35:03 14.7 C 10.58 g/m*3 14.7 C 0 km/h
453 10-07-2003 03:45:03 14.6 C 10.51 g/m*3 14.6 C 0 km/h
454 10-07-2003 03:55:03 14.4 C 10.38 g/m*3 14.4 C 0 km/h
455 10-07-2003 04:05:03 14.4 C 10.51 g/m*3 14.4 C 0 km/h
456 10-07-2003 04:15:03 14.3 C 10.44 g/m*3 14.3 C 0 km/h
457 10-07-2003 04:25:03 14.2 C 10.38 g/m*3 14.2 C 0 km/h
458 10-07-2003 04:35:03 14.1 C 10.32 g/m*3 14.1 C 0 km/h
459 10-07-2003 04:45:03 14.1 C 10.44 g/m*3 14.1 C 0 km/h
460 10-07-2003 04:55:03 13.9 C 10.31 g/m*3 13.9 C 0 km/h
461 10-07-2003 05:05:03 13.7 C 10.3 g/m*3 13.7 C 0 km/h
462 10-07-2003 05:15:03 13.6 C 10.24 g/m*3 13.6 C 0 km/h
463 10-07-2003 05:25:03 13.5 C 10.18 g/m*3 13.5 C 0 km/h
464 10-07-2003 05:35:03 13.5 C 10.18 g/m*3 13.5 C 0 km/h
465 10-07-2003 05:45:03 13.3 C 10.05 g/m*3 13.3 C 0 km/h
466 10-07-2003 05:55:03 13.2 C 10.1 g/m*3 13.2 C 0 km/h
467 10-07-2003 06:05:03 13.2 C 10.1 g/m*3 13.2 C 0 km/h
468 10-07-2003 06:15:03 13.2 C 10.1 g/m*3 13.2 C 0 km/h
469 10-07-2003 06:25:03 13.2 C 10.1 g/m*3 13.2 C 0 km/h
470 10-07-2003 06:35:03 13.2 C 10.1 g/m*3 13.2 C 0 km/h
471 10-07-2003 06:45:03 13.4 C 10.23 g/m*3 13.4 C 0 km/h
472 10-07-2003 06:55:03 13.4 C 10.23 g/m*3 13.4 C 0 km/h
473 10-07-2003 07:05:03 13.2 C 9.99 g/m*3 13.2 C 0 km/h
474 10-07-2003 07:15:03 13.3 C 10.17 g/m*3 13.3 C 0 km/h
475 10-07-2003 07:25:03 13.4 C 10.23 g/m*3 13.4 C 0 km/h
Sensor: Nr:Datum:Temp:Abs-Feuchte:Windchill:Wind:
Aussen-T/F 476 10-07-2003 07:35:01 13.5 C 10.29 g/m*3 13.5 C 0 km/h
477 10-07-2003 07:45:01 13.6 C 10.36 g/m*3 13.6 C 0 km/h
478 10-07-2003 07:55:01 13.7 C 10.42 g/m*3 13.7 C 0 km/h
479 10-07-2003 08:05:01 13.8 C 10.37 g/m*3 13.8 C 0 km/h
480 10-07-2003 08:15:01 14.3 C 10.44 g/m*3 14.3 C 0 km/h
481 10-07-2003 08:25:01 14.5 C 10.45 g/m*3 14.5 C 0 km/h
482 10-07-2003 08:35:01 14.8 C 10.51 g/m*3 14.8 C 0 km/h
483 10-07-2003 08:45:01 15.3 C 10.45 g/m*3 15.3 C 0 km/h
484 10-07-2003 08:55:01 15.7 C 10.44 g/m*3 15.7 C 0 km/h
485 10-07-2003 09:05:01 16.1 C 10.01 g/m*3 16.1 C 0 km/h
486 10-07-2003 09:15:01 16.5 C 10.25 g/m*3 16.5 C 0 km/h
487 10-07-2003 09:25:01 16.8 C 10.29 g/m*3 16.8 C 0 km/h
488 10-07-2003 09:35:01 17.4 C 10.23 g/m*3 17.4 C 0 km/h
489 10-07-2003 09:45:01 17.9 C 10.23 g/m*3 17.9 C 0 km/h
490 10-07-2003 09:55:01 18.1 C 10.04 g/m*3 18.1 C 0 km/h
491 10-07-2003 10:05:02 18.9 C 10.37 g/m*3 18.9 C 0 km/h
492 10-07-2003 10:15:02 19.8 C 10.42 g/m*3 19.8 C 0 km/h
493 10-07-2003 10:25:02 21.2 C 9.64 g/m*3 21.2 C 0 km/h
494 10-07-2003 10:35:02 21.6 C 10.24 g/m*3 21.6 C 0 km/h
495 10-07-2003 10:45:02 21.6 C 9.67 g/m*3 21.6 C 0 km/h
496 10-07-2003 10:55:02 21.4 C 9 g/m*3 21.4 C 0 km/h
497 10-07-2003 11:05:01 21.9 C 9.26 g/m*3 21.9 C 0 km/h
498 10-07-2003 11:15:01 22.6 C 9.24 g/m*3 22.6 C 0 km/h
499 10-07-2003 11:25:01 22.9 C 8.58 g/m*3 22.9 C 0 km/h
500 10-07-2003 11:35:02 23.3 C 8.36 g/m*3 23.3 C 0 km/h
Sensor: Nr:Datum:Temp:Abs-Feuchte:Windchill:Wind:
Aussen-T/F 501 10-07-2003 11:45:02 24.1 C 8.53 g/m*3 24.1 C 0 km/h
502 10-07-2003 12:05:01 23.9 C 7.57 g/m*3 23.9 C 0 km/h
503 10-07-2003 12:15:01 24.9 C 7.55 g/m*3 24.9 C 0 km/h
504 10-07-2003 12:25:01 24.6 C 6.98 g/m*3 24.6 C 0 km/h
505 10-07-2003 12:35:01 25.1 C 6.71 g/m*3 25.1 C 0 km/h
506 10-07-2003 12:45:01 26.1 C 7.1 g/m*3 26.1 C 0 km/h
507 10-07-2003 12:55:01 26.2 C 6.4 g/m*3 26.2 C 0 km/h
508 10-07-2003 13:05:01 26.9 C 6.4 g/m*3 26.9 C 0 km/h
509 10-07-2003 13:15:01 26.7 C 5.82 g/m*3 26.7 C 0 km/h
510 10-07-2003 13:25:01 27.7 C 6.42 g/m*3 27.7 C 0 km/h
511 10-07-2003 13:35:00 29.1 C 6.35 g/m*3 29.1 C 0 km/h
512 10-07-2003 13:45:00 28.6 C 5.9 g/m*3 28.6 C 0 km/h
513 10-07-2003 13:55:00 28.3 C 6.36 g/m*3 28.3 C 0 km/h
514 10-07-2003 14:05:01 28.7 C 6.78 g/m*3 28.7 C 0 km/h
515 10-07-2003 14:15:01 28.3 C 7.19 g/m*3 28.3 C 0 km/h
516 10-07-2003 14:25:01 28.2 C 6.87 g/m*3 28.2 C 0 km/h
517 10-07-2003 14:35:01 27.8 C 6.19 g/m*3 27.8 C 0 km/h
518 10-07-2003 14:45:01 27.7 C 7.22 g/m*3 27.7 C 0 km/h
519 10-07-2003 14:55:01 28.6 C 7.03 g/m*3 28.6 C 0 km/h
520 10-07-2003 15:05:01 28.9 C 6 g/m*3 28.9 C 0 km/h
521 10-07-2003 15:15:01 29.8 C 6.3 g/m*3 29.8 C 0 km/h
522 10-07-2003 15:25:01 29.6 C 5.94 g/m*3 29.6 C 0 km/h
523 10-07-2003 15:35:01 28.9 C 6.28 g/m*3 28.9 C 0 km/h
524 10-07-2003 15:45:01 29.6 C 6.53 g/m*3 29.6 C 0 km/h
525 10-07-2003 15:55:01 30.3 C 6.47 g/m*3 30.3 C 0 km/h
Sensor: Nr:Datum:Temp:Abs-Feuchte:Windchill:Wind:
Aussen-T/F 526 10-07-2003 16:05:02 30.7 C 6.3 g/m*3 30.7 C 0 km/h
527 10-07-2003 16:15:02 30.6 C 6.26 g/m*3 30.6 C 0 km/h
528 10-07-2003 16:25:02 31 C 6.4 g/m*3 31 C 0 km/h
529 10-07-2003 16:35:01 30.8 C 6.33 g/m*3 30.8 C 0 km/h
530 10-07-2003 16:45:01 30.4 C 6.51 g/m*3 30.4 C 0 km/h
531 10-07-2003 16:55:01 30.6 C 6.26 g/m*3 30.6 C 0 km/h
532 10-07-2003 17:05:01 31 C 6.4 g/m*3 31 C 0 km/h
533 10-07-2003 17:15:01 31 C 6.4 g/m*3 31 C 0 km/h
534 10-07-2003 17:25:01 31 C 6.72 g/m*3 31 C 0 km/h
535 10-07-2003 17:35:02 30.7 C 6.61 g/m*3 30.7 C 0 km/h
536 10-07-2003 17:45:02 31.3 C 6.5 g/m*3 31.3 C 0 km/h
537 10-07-2003 17:55:02 31 C 6.4 g/m*3 31 C 0 km/h
538 10-07-2003 18:05:02 30.6 C 6.58 g/m*3 30.6 C 0 km/h
539 10-07-2003 18:15:02 30.1 C 6.71 g/m*3 30.1 C 0 km/h
540 10-07-2003 18:25:02 30.9 C 6.68 g/m*3 30.9 C 0 km/h
541 10-07-2003 18:35:01 30.9 C 6.68 g/m*3 30.9 C 0 km/h
542 10-07-2003 18:45:01 30.7 C 6.61 g/m*3 30.7 C 0 km/h
543 10-07-2003 18:55:01 31.2 C 6.79 g/m*3 31.2 C 0 km/h
544 10-07-2003 19:05:01 30.6 C 6.89 g/m*3 30.6 C 0 km/h
545 10-07-2003 19:15:01 30.6 C 6.58 g/m*3 30.6 C 0 km/h
546 10-07-2003 19:25:01 30.4 C 7.13 g/m*3 30.4 C 0 km/h
547 10-07-2003 19:35:01 30.6 C 6.89 g/m*3 30.6 C 0 km/h
548 10-07-2003 19:45:01 30.1 C 7.01 g/m*3 30.1 C 0 km/h
549 10-07-2003 19:55:01 29.5 C 7.38 g/m*3 29.5 C 0 km/h
550 10-07-2003 20:05:02 29.7 C 7.46 g/m*3 29.7 C 0 km/h
Sensor: Nr:Datum:Temp:Abs-Feuchte:Windchill:Wind:
Aussen-T/F 551 10-07-2003 20:15:02 29.1 C 7.51 g/m*3 29.1 C 0 km/h
552 10-07-2003 20:25:02 29 C 7.76 g/m*3 29 C 0 km/h
553 10-07-2003 20:35:01 28.9 C 7.71 g/m*3 28.9 C 0 km/h
554 10-07-2003 20:45:01 28.4 C 7.51 g/m*3 28.4 C 0 km/h
555 10-07-2003 20:55:01 27.9 C 7.57 g/m*3 27.9 C 0 km/h
556 10-07-2003 21:05:01 27.6 C 8.25 g/m*3 27.6 C 0 km/h
557 10-07-2003 21:15:01 27.1 C 8.02 g/m*3 27.1 C 0 km/h
558 10-07-2003 21:25:01 26.5 C 8.26 g/m*3 26.5 C 0 km/h
559 10-07-2003 21:35:02 25.2 C 8.38 g/m*3 25.2 C 0 km/h
560 10-07-2003 21:45:02 25.2 C 8.38 g/m*3 25.2 C 0 km/h
561 10-07-2003 21:55:02 24 C 8.27 g/m*3 24 C 0 km/h
562 10-07-2003 22:05:02 24 C 8.27 g/m*3 24 C 0 km/h
563 10-07-2003 22:15:02 24 C 8.27 g/m*3 24 C 0 km/h
564 10-07-2003 22:25:02 23.1 C 8.68 g/m*3 23.1 C 0 km/h
565 10-07-2003 22:35:01 22.5 C 8.79 g/m*3 22.5 C 0 km/h
566 10-07-2003 22:45:01 22.3 C 8.89 g/m*3 22.3 C 0 km/h
567 10-07-2003 22:55:01 22.1 C 8.78 g/m*3 22.1 C 0 km/h
568 10-07-2003 23:06:01 22 C 8.93 g/m*3 22 C 0 km/h
569 10-07-2003 23:16:01 21.9 C 9.07 g/m*3 21.9 C 0 km/h
570 10-07-2003 23:26:01 21.7 C 9.16 g/m*3 21.7 C 0 km/h
571 10-07-2003 23:36:01 21.2 C 9.08 g/m*3 21.2 C 0 km/h
572 10-07-2003 23:46:01 21 C 8.98 g/m*3 21 C 0 km/h
573 10-07-2003 23:56:01 20.7 C 9.18 g/m*3 20.7 C 0 km/h
574 11-07-2003 00:06:01 20.5 C 9.25 g/m*3 20.5 C 0 km/h
575 11-07-2003 00:16:01 20.3 C 9.15 g/m*3 20.3 C 0 km/h
Sensor: Nr:Datum:Temp:Abs-Feuchte:Windchill:Wind:
Aussen-T/F 576 11-07-2003 00:26:01 20 C 9.16 g/m*3 20 C 0 km/h
577 11-07-2003 00:36:01 19.6 C 9.12 g/m*3 19.6 C 0 km/h
578 11-07-2003 00:46:01 19.4 C 9.18 g/m*3 19.4 C 0 km/h
579 11-07-2003 00:56:01 19 C 9.13 g/m*3 19 C 0 km/h
580 11-07-2003 01:06:01 18.9 C 9.4 g/m*3 18.9 C 0 km/h
581 11-07-2003 01:16:01 18.8 C 9.34 g/m*3 18.8 C 0 km/h
582 11-07-2003 01:26:01 18.5 C 9.33 g/m*3 18.5 C 0 km/h
583 11-07-2003 01:36:01 18.5 C 9.33 g/m*3 18.5 C 0 km/h
584 11-07-2003 01:46:01 18.2 C 9.33 g/m*3 18.2 C 0 km/h
585 11-07-2003 01:56:01 18.1 C 9.43 g/m*3 18.1 C 0 km/h
586 11-07-2003 02:06:01 17.9 C 9.47 g/m*3 17.9 C 0 km/h
587 11-07-2003 02:16:01 17.7 C 9.35 g/m*3 17.7 C 0 km/h
588 11-07-2003 02:26:01 17.4 C 9.34 g/m*3 17.4 C 0 km/h
589 11-07-2003 02:36:01 17.3 C 9.28 g/m*3 17.3 C 0 km/h
590 11-07-2003 02:46:01 17.1 C 9.17 g/m*3 17.1 C 0 km/h
591 11-07-2003 02:56:01 16.9 C 9.35 g/m*3 16.9 C 0 km/h
592 11-07-2003 03:06:01 16.7 C 9.38 g/m*3 16.7 C 0 km/h
593 11-07-2003 03:16:01 16.8 C 9.29 g/m*3 16.8 C 0 km/h
594 11-07-2003 03:26:01 16.6 C 9.32 g/m*3 16.6 C 0 km/h
595 11-07-2003 03:36:01 16.6 C 9.32 g/m*3 16.6 C 0 km/h
596 11-07-2003 03:46:01 16.4 C 9.21 g/m*3 16.4 C 0 km/h
597 11-07-2003 03:56:01 16.2 C 9.1 g/m*3 16.2 C 0 km/h
598 11-07-2003 04:06:01 16.1 C 9.05 g/m*3 16.1 C 0 km/h
599 11-07-2003 04:16:01 16 C 9.13 g/m*3 16 C 0 km/h
600 11-07-2003 04:26:01 15.8 C 9.29 g/m*3 15.8 C 0 km/h
Sensor: Nr:Datum:Temp:Abs-Feuchte:Windchill:Wind:
Aussen-T/F 601 11-07-2003 04:36:01 15.7 C 9.1 g/m*3 15.7 C 0 km/h
602 11-07-2003 04:46:01 15.3 C 9.01 g/m*3 15.3 C 0 km/h
603 11-07-2003 04:56:01 15.3 C 9.01 g/m*3 15.3 C 0 km/h
604 11-07-2003 05:06:01 15 C 9.1 g/m*3 15 C 0 km/h
605 11-07-2003 05:16:01 14.9 C 9.3 g/m*3 14.9 C 0 km/h
606 11-07-2003 05:26:01 14.8 C 9.12 g/m*3 14.8 C 0 km/h
607 11-07-2003 05:36:01 14.8 C 9.12 g/m*3 14.8 C 0 km/h
608 11-07-2003 05:46:01 14.6 C 9.26 g/m*3 14.6 C 0 km/h
609 11-07-2003 05:56:01 14.6 C 9.13 g/m*3 14.6 C 0 km/h
610 11-07-2003 06:06:01 14.7 C 9.19 g/m*3 14.7 C 0 km/h
611 11-07-2003 06:16:01 14.6 C 9.13 g/m*3 14.6 C 0 km/h
612 11-07-2003 06:26:01 14.2 C 9.28 g/m*3 14.2 C 0 km/h
613 11-07-2003 06:36:01 14.3 C 9.34 g/m*3 14.3 C 0 km/h
614 11-07-2003 06:46:01 14.5 C 9.45 g/m*3 14.5 C 0 km/h
615 11-07-2003 06:56:01 14.5 C 9.45 g/m*3 14.5 C 0 km/h
616 11-07-2003 07:06:01 14.7 C 9.44 g/m*3 14.7 C 0 km/h
617 11-07-2003 07:16:01 14.8 C 9.5 g/m*3 14.8 C 0 km/h
618 11-07-2003 07:26:01 14.8 C 9.37 g/m*3 14.8 C 0 km/h
619 11-07-2003 07:36:01 15.1 C 9.55 g/m*3 15.1 C 0 km/h
620 11-07-2003 07:46:01 15.4 C 9.59 g/m*3 15.4 C 0 km/h
621 11-07-2003 07:56:01 15.6 C 9.58 g/m*3 15.6 C 0 km/h
622 11-07-2003 08:06:01 15.8 C 9.56 g/m*3 15.8 C 0 km/h
623 11-07-2003 08:16:01 16 C 9.4 g/m*3 16 C 0 km/h
624 11-07-2003 08:26:01 16.2 C 9.52 g/m*3 16.2 C 0 km/h
625 11-07-2003 08:36:01 16.7 C 9.66 g/m*3 16.7 C 0 km/h
Sensor: Nr:Datum:Temp:Abs-Feuchte:Windchill:Wind:
Aussen-T/F 626 11-07-2003 08:46:01 17 C 9.84 g/m*3 17 C 0 km/h
627 11-07-2003 08:56:01 17.7 C 9.96 g/m*3 17.7 C 0 km/h
628 11-07-2003 09:06:02 17.7 C 9.96 g/m*3 17.7 C 0 km/h
629 11-07-2003 09:16:02 18.4 C 9.91 g/m*3 18.4 C 0 km/h
630 11-07-2003 09:26:02 19.2 C 10.06 g/m*3 19.2 C 0 km/h
631 11-07-2003 09:36:01 20 C 10.2 g/m*3 20 C 0 km/h
632 11-07-2003 09:46:01 20.7 C 10.26 g/m*3 20.7 C 0 km/h
633 11-07-2003 09:56:01 21.2 C 10.19 g/m*3 21.2 C 0 km/h
634 11-07-2003 10:06:01 21.9 C 10.42 g/m*3 21.9 C 0 km/h
635 11-07-2003 10:16:01 22.8 C 10.36 g/m*3 22.8 C 0 km/h
636 11-07-2003 10:26:01 23.3 C 10.25 g/m*3 23.3 C 0 km/h
637 11-07-2003 10:36:01 24.2 C 9.46 g/m*3 24.2 C 0 km/h
638 11-07-2003 10:46:01 25.3 C 9.36 g/m*3 25.3 C 0 km/h
639 11-07-2003 10:56:01 25 C 8.98 g/m*3 25 C 0 km/h
640 11-07-2003 11:06:01 25.5 C 9.94 g/m*3 25.5 C 0 km/h
641 11-07-2003 11:16:01 25.9 C 9.2 g/m*3 25.9 C 0 km/h
642 11-07-2003 11:26:01 25.9 C 10.41 g/m*3 25.9 C 0 km/h
643 11-07-2003 11:36:02 27.3 C 9.94 g/m*3 27.3 C 0 km/h
644 11-07-2003 11:46:02 27.3 C 9.42 g/m*3 27.3 C 0 km/h
645 11-07-2003 11:56:02 27.9 C 10.28 g/m*3 27.9 C 0 km/h
646 11-07-2003 12:06:02 28.8 C 9.38 g/m*3 28.8 C 0 km/h
647 11-07-2003 12:16:02 29.3 C 9.34 g/m*3 29.3 C 0 km/h
648 11-07-2003 12:26:02 30 C 9.4 g/m*3 30 C 0 km/h
649 11-07-2003 12:36:01 28.7 C 9.32 g/m*3 28.7 C 0 km/h
650 11-07-2003 12:46:01 28.8 C 9.66 g/m*3 28.8 C 0 km/h
Sensor: Nr:Datum:Temp:Abs-Feuchte:Windchill:Wind:
Aussen-T/F 651 11-07-2003 12:56:01 29.2 C 9.87 g/m*3 29.2 C 0 km/h
652 11-07-2003 13:06:02 28.8 C 10.51 g/m*3 28.8 C 0 km/h
653 11-07-2003 13:16:02 28.5 C 9.78 g/m*3 28.5 C 0 km/h
654 11-07-2003 13:26:02 29.2 C 9.58 g/m*3 29.2 C 0 km/h
655 11-07-2003 13:36:01 29.7 C 10.44 g/m*3 29.7 C 0 km/h
656 11-07-2003 13:46:01 30.1 C 9.45 g/m*3 30.1 C 0 km/h
657 11-07-2003 13:56:01 29.5 C 9.44 g/m*3 29.5 C 0 km/h
658 11-07-2003 14:06:02 30.2 C 9.2 g/m*3 30.2 C 0 km/h
659 11-07-2003 14:16:02 30 C 9.1 g/m*3 30 C 0 km/h
660 11-07-2003 14:26:02 30.2 C 9.81 g/m*3 30.2 C 0 km/h
661 11-07-2003 14:36:01 30.1 C 9.45 g/m*3 30.1 C 0 km/h
662 11-07-2003 14:46:01 30.2 C 9.5 g/m*3 30.2 C 0 km/h
663 11-07-2003 14:56:01 29.6 C 10.09 g/m*3 29.6 C 0 km/h
664 11-07-2003 15:06:01 29.8 C 9 g/m*3 29.8 C 0 km/h
665 11-07-2003 15:16:01 30 C 10.01 g/m*3 30 C 0 km/h
666 11-07-2003 15:26:01 29.3 C 10.51 g/m*3 29.3 C 0 km/h
667 11-07-2003 15:36:00 29.2 C 9.87 g/m*3 29.2 C 0 km/h
668 11-07-2003 15:46:00 28.7 C 11.02 g/m*3 28.7 C 0 km/h
669 11-07-2003 15:56:00 28.6 C 10.96 g/m*3 28.6 C 0 km/h
670 11-07-2003 16:06:00 28.8 C 11.08 g/m*3 28.8 C 0 km/h
671 11-07-2003 16:16:00 28.8 C 11.36 g/m*3 28.8 C 0 km/h
672 11-07-2003 16:26:00 29.8 C 10.5 g/m*3 29.8 C 0 km/h
673 11-07-2003 16:36:01 29.8 C 11.1 g/m*3 29.8 C 0 km/h
674 11-07-2003 16:46:01 28.7 C 11.87 g/m*3 28.7 C 0 km/h
675 11-07-2003 16:56:01 26.6 C 14.1 g/m*3 26.6 C 0 km/h
Sensor: Nr:Datum:Temp:Abs-Feuchte:Windchill:Wind:
Aussen-T/F 676 11-07-2003 17:06:01 26.1 C 12.98 g/m*3 26.1 C 0 km/h
677 11-07-2003 17:16:01 27.3 C 12.82 g/m*3 27.3 C 0 km/h
678 11-07-2003 17:26:01 27.7 C 12.84 g/m*3 27.7 C 0 km/h
679 11-07-2003 17:36:01 28.1 C 12.58 g/m*3 28.1 C 0 km/h
680 11-07-2003 17:46:01 28.7 C 12.72 g/m*3 28.7 C 0 km/h
681 11-07-2003 17:56:01 28.1 C 12.58 g/m*3 28.1 C 0 km/h
682 11-07-2003 18:06:02 27.8 C 12.64 g/m*3 27.8 C 0 km/h
683 11-07-2003 18:16:02 28.3 C 11.06 g/m*3 28.3 C 0 km/h
684 11-07-2003 18:26:02 28.3 C 11.06 g/m*3 28.3 C 0 km/h
685 11-07-2003 18:36:01 28.3 C 11.06 g/m*3 28.3 C 0 km/h
686 11-07-2003 18:46:01 29.5 C 10.03 g/m*3 29.5 C 0 km/h
687 11-07-2003 18:56:01 29.6 C 10.09 g/m*3 29.6 C 0 km/h
688 11-07-2003 19:06:00 29.6 C 10.09 g/m*3 29.6 C 0 km/h
689 11-07-2003 19:16:00 29.8 C 10.2 g/m*3 29.8 C 0 km/h
690 11-07-2003 19:26:00 29.7 C 9.85 g/m*3 29.7 C 0 km/h
691 11-07-2003 19:36:00 29.2 C 10.16 g/m*3 29.2 C 0 km/h
692 11-07-2003 19:46:00 28.6 C 9.84 g/m*3 28.6 C 0 km/h
693 11-07-2003 19:56:00 28.3 C 9.68 g/m*3 28.3 C 0 km/h
694 11-07-2003 20:06:01 28.4 C 10.01 g/m*3 28.4 C 0 km/h
695 11-07-2003 20:16:01 28.6 C 10.4 g/m*3 28.6 C 0 km/h
696 11-07-2003 20:26:01 28.3 C 10.51 g/m*3 28.3 C 0 km/h
697 11-07-2003 20:36:01 27.6 C 10.64 g/m*3 27.6 C 0 km/h
698 11-07-2003 20:46:01 27.4 C 10.79 g/m*3 27.4 C 0 km/h
699 11-07-2003 20:56:01 26.8 C 10.94 g/m*3 26.8 C 0 km/h
700 11-07-2003 21:06:01 26.4 C 10.95 g/m*3 26.4 C 0 km/h
Sensor: Nr:Datum:Temp:Abs-Feuchte:Windchill:Wind:
Aussen-T/F 701 11-07-2003 21:16:01 26.2 C 10.83 g/m*3 26.2 C 0 km/h
702 11-07-2003 21:26:01 26 C 11.2 g/m*3 26 C 0 km/h
703 11-07-2003 21:36:01 25.8 C 11.32 g/m*3 25.8 C 0 km/h
704 11-07-2003 21:46:01 25.4 C 11.54 g/m*3 25.4 C 0 km/h
705 11-07-2003 21:56:01 25.1 C 11.57 g/m*3 25.1 C 0 km/h
706 11-07-2003 22:06:01 24.7 C 12.22 g/m*3 24.7 C 0 km/h
707 11-07-2003 22:16:01 24.3 C 12.39 g/m*3 24.3 C 0 km/h
708 11-07-2003 22:26:01 24.2 C 12.54 g/m*3 24.2 C 0 km/h
709 11-07-2003 22:37:02 23.8 C 12.69 g/m*3 23.8 C 0 km/h
710 11-07-2003 22:47:02 23.7 C 12.62 g/m*3 23.7 C 0 km/h
711 11-07-2003 22:57:02 23.5 C 12.48 g/m*3 23.5 C 0 km/h
712 11-07-2003 23:07:02 23.4 C 12.2 g/m*3 23.4 C 0 km/h
713 11-07-2003 23:17:02 23.4 C 11.99 g/m*3 23.4 C 0 km/h
714 11-07-2003 23:27:02 22.9 C 11.65 g/m*3 22.9 C 0 km/h
715 11-07-2003 23:37:02 22.7 C 11.52 g/m*3 22.7 C 0 km/h
716 11-07-2003 23:47:02 22.5 C 11.19 g/m*3 22.5 C 0 km/h
717 11-07-2003 23:57:02 22 C 11.06 g/m*3 22 C 0 km/h
718 12-07-2003 00:07:02 21.9 C 11.19 g/m*3 21.9 C 0 km/h
719 12-07-2003 00:17:02 21.7 C 11.06 g/m*3 21.7 C 0 km/h
720 12-07-2003 00:27:02 21.4 C 11.06 g/m*3 21.4 C 0 km/h
721 12-07-2003 00:37:02 21.8 C 11.13 g/m*3 21.8 C 0 km/h
722 12-07-2003 00:47:02 21.2 C 10.19 g/m*3 21.2 C 0 km/h
723 12-07-2003 00:57:02 21.1 C 10.32 g/m*3 21.1 C 0 km/h
724 12-07-2003 01:07:02 20.9 C 10.38 g/m*3 20.9 C 0 km/h
725 12-07-2003 01:17:02 20.7 C 10.26 g/m*3 20.7 C 0 km/h
Sensor: Nr:Datum:Temp:Abs-Feuchte:Windchill:Wind:
Aussen-T/F 726 12-07-2003 01:27:02 20.3 C 10.2 g/m*3 20.3 C 0 km/h
727 12-07-2003 01:37:02 19.7 C 10.19 g/m*3 19.7 C 0 km/h
728 12-07-2003 01:47:02 19.5 C 10.24 g/m*3 19.5 C 0 km/h
729 12-07-2003 01:57:02 19.2 C 10.06 g/m*3 19.2 C 0 km/h
730 12-07-2003 02:07:02 19 C 9.94 g/m*3 19 C 0 km/h
731 12-07-2003 02:17:02 18.7 C 10.09 g/m*3 18.7 C 0 km/h
732 12-07-2003 02:27:02 18.5 C 9.65 g/m*3 18.5 C 0 km/h
733 12-07-2003 02:37:02 18.3 C 9.54 g/m*3 18.3 C 0 km/h
734 12-07-2003 02:47:02 18.2 C 9.48 g/m*3 18.2 C 0 km/h
735 12-07-2003 02:57:02 18 C 9.37 g/m*3 18 C 0 km/h
736 12-07-2003 03:07:02 17.9 C 9.47 g/m*3 17.9 C 0 km/h
737 12-07-2003 03:17:02 17.7 C 9.35 g/m*3 17.7 C 0 km/h
738 12-07-2003 03:27:02 17.5 C 9.24 g/m*3 17.5 C 0 km/h
739 12-07-2003 03:37:02 17.3 C 9.13 g/m*3 17.3 C 0 km/h
740 12-07-2003 03:47:02 17.1 C 9.03 g/m*3 17.1 C 0 km/h
741 12-07-2003 03:57:02 16.8 C 9.15 g/m*3 16.8 C 0 km/h
742 12-07-2003 04:07:02 16.7 C 9.1 g/m*3 16.7 C 0 km/h
743 12-07-2003 04:17:02 16.6 C 9.18 g/m*3 16.6 C 0 km/h
744 12-07-2003 04:27:02 16.6 C 9.18 g/m*3 16.6 C 0 km/h
745 12-07-2003 04:37:02 16.4 C 9.07 g/m*3 16.4 C 0 km/h
746 12-07-2003 04:47:02 16.3 C 9.16 g/m*3 16.3 C 0 km/h
747 12-07-2003 04:57:02 16.2 C 9.1 g/m*3 16.2 C 0 km/h
748 12-07-2003 05:07:02 16.1 C 9.05 g/m*3 16.1 C 0 km/h
749 12-07-2003 05:17:02 16 C 9.13 g/m*3 16 C 0 km/h
750 12-07-2003 05:27:02 15.9 C 9.21 g/m*3 15.9 C 0 km/h
Sensor: Nr:Datum:Temp:Abs-Feuchte:Windchill:Wind:
Aussen-T/F 751 12-07-2003 05:37:02 16 C 9.13 g/m*3 16 C 0 km/h
752 12-07-2003 05:47:02 15.9 C 9.21 g/m*3 15.9 C 0 km/h
753 12-07-2003 05:57:02 15.9 C 9.21 g/m*3 15.9 C 0 km/h
754 12-07-2003 06:07:02 15.9 C 9.21 g/m*3 15.9 C 0 km/h
755 12-07-2003 06:17:02 15.7 C 9.1 g/m*3 15.7 C 0 km/h
756 12-07-2003 06:27:02 15.7 C 9.1 g/m*3 15.7 C 0 km/h
757 12-07-2003 06:47:02 15.7 C 9.1 g/m*3 15.7 C 0 km/h
758 12-07-2003 06:57:02 15.9 C 9.21 g/m*3 15.9 C 0 km/h
759 12-07-2003 07:07:02 16.1 C 9.05 g/m*3 16.1 C 0 km/h
760 12-07-2003 07:17:02 16 C 8.86 g/m*3 16 C 0 km/h
761 12-07-2003 07:27:02 16.3 C 8.88 g/m*3 16.3 C 0 km/h
762 12-07-2003 07:37:02 16.7 C 8.95 g/m*3 16.7 C 0 km/h
763 12-07-2003 07:47:02 16.9 C 9.21 g/m*3 16.9 C 0 km/h
764 12-07-2003 07:57:02 17.1 C 8.73 g/m*3 17.1 C 0 km/h
765 12-07-2003 08:07:02 17 C 8.54 g/m*3 17 C 0 km/h
766 12-07-2003 08:17:02 17.2 C 8.79 g/m*3 17.2 C 0 km/h
767 12-07-2003 08:27:02 17.7 C 8.9 g/m*3 17.7 C 0 km/h
768 12-07-2003 08:37:02 17.7 C 8.6 g/m*3 17.7 C 0 km/h
769 12-07-2003 08:47:02 17.8 C 8.2 g/m*3 17.8 C 0 km/h
770 12-07-2003 08:57:02 17.7 C 8.15 g/m*3 17.7 C 0 km/h
771 12-07-2003 09:07:02 17.8 C 8.2 g/m*3 17.8 C 0 km/h
772 12-07-2003 09:17:02 17.7 C 8.15 g/m*3 17.7 C 0 km/h
773 12-07-2003 09:27:02 17.6 C 8.1 g/m*3 17.6 C 0 km/h
774 12-07-2003 09:37:02 18.1 C 8.03 g/m*3 18.1 C 0 km/h
775 12-07-2003 09:47:02 17.8 C 8.2 g/m*3 17.8 C 0 km/h
Sensor: Nr:Datum:Temp:Abs-Feuchte:Windchill:Wind:
Aussen-T/F 776 12-07-2003 09:57:02 18.5 C 8.07 g/m*3 18.5 C 0 km/h
777 12-07-2003 10:07:01 19.1 C 8.03 g/m*3 19.1 C 0 km/h
778 12-07-2003 10:17:01 20.4 C 8.14 g/m*3 20.4 C 0 km/h
779 12-07-2003 10:27:01 20.9 C 8.01 g/m*3 20.9 C 0 km/h
780 12-07-2003 10:37:01 19.7 C 7.64 g/m*3 19.7 C 0 km/h
781 12-07-2003 10:47:01 20.4 C 7.96 g/m*3 20.4 C 0 km/h
782 12-07-2003 10:57:01 20.6 C 7.52 g/m*3 20.6 C 0 km/h
783 12-07-2003 11:07:01 20.8 C 7.42 g/m*3 20.8 C 0 km/h
784 12-07-2003 11:17:01 21 C 7.33 g/m*3 21 C 0 km/h
785 12-07-2003 11:27:01 20.8 C 7.6 g/m*3 20.8 C 0 km/h
786 12-07-2003 11:37:01 21.7 C 7.82 g/m*3 21.7 C 0 km/h
787 12-07-2003 11:47:01 22 C 7.18 g/m*3 22 C 0 km/h
788 12-07-2003 11:57:01 22.9 C 7.56 g/m*3 22.9 C 0 km/h
789 12-07-2003 12:07:02 23.5 C 7.19 g/m*3 23.5 C 0 km/h
790 12-07-2003 12:17:02 24 C 6.96 g/m*3 24 C 0 km/h
791 12-07-2003 12:27:02 24 C 6.74 g/m*3 24 C 0 km/h
792 12-07-2003 12:37:01 23.5 C 6.77 g/m*3 23.5 C 0 km/h
793 12-07-2003 12:47:01 24.2 C 6.82 g/m*3 24.2 C 0 km/h
794 12-07-2003 12:57:01 24.7 C 6.34 g/m*3 24.7 C 0 km/h
795 12-07-2003 13:07:01 25.5 C 6.39 g/m*3 25.5 C 0 km/h
796 12-07-2003 13:17:01 26 C 6.33 g/m*3 26 C 0 km/h
797 12-07-2003 13:27:01 25.5 C 6.16 g/m*3 25.5 C 0 km/h
798 12-07-2003 13:37:01 27 C 6.69 g/m*3 27 C 0 km/h
799 12-07-2003 13:47:01 27.5 C 6.08 g/m*3 27.5 C 0 km/h
800 12-07-2003 13:57:01 26.1 C 6.12 g/m*3 26.1 C 0 km/h
Sensor: Nr:Datum:Temp:Abs-Feuchte:Windchill:Wind:
Aussen-T/F 801 12-07-2003 14:07:01 25.8 C 6.02 g/m*3 25.8 C 0 km/h
802 12-07-2003 14:17:01 26.5 C 6.51 g/m*3 26.5 C 0 km/h
803 12-07-2003 14:27:01 27.4 C 7.1 g/m*3 27.4 C 0 km/h
804 12-07-2003 14:37:02 27.1 C 6.47 g/m*3 27.1 C 0 km/h
805 12-07-2003 14:47:02 27.9 C 6.76 g/m*3 27.9 C 0 km/h
806 12-07-2003 14:57:02 27.8 C 6.72 g/m*3 27.8 C 0 km/h
807 12-07-2003 15:07:02 27.6 C 6.65 g/m*3 27.6 C 0 km/h
808 12-07-2003 15:17:02 27 C 6.69 g/m*3 27 C 0 km/h
809 12-07-2003 15:27:02 27.7 C 6.95 g/m*3 27.7 C 0 km/h
810 12-07-2003 15:37:01 27.6 C 6.65 g/m*3 27.6 C 0 km/h
811 12-07-2003 15:47:01 27.5 C 6.61 g/m*3 27.5 C 0 km/h
812 12-07-2003 15:57:01 28.2 C 6.6 g/m*3 28.2 C 0 km/h
813 12-07-2003 16:07:01 28.4 C 6.12 g/m*3 28.4 C 0 km/h
814 12-07-2003 16:17:01 27.9 C 6.76 g/m*3 27.9 C 0 km/h
815 12-07-2003 16:27:01 28.1 C 6.56 g/m*3 28.1 C 0 km/h
816 12-07-2003 16:37:01 28 C 6.53 g/m*3 28 C 0 km/h
817 12-07-2003 16:47:01 28.8 C 6.53 g/m*3 28.8 C 0 km/h
818 12-07-2003 16:57:01 29.1 C 6.93 g/m*3 29.1 C 0 km/h
819 12-07-2003 17:07:02 27 C 6.43 g/m*3 27 C 0 km/h
820 12-07-2003 17:17:02 27.8 C 6.72 g/m*3 27.8 C 0 km/h
821 12-07-2003 17:27:02 27 C 6.43 g/m*3 27 C 0 km/h
822 12-07-2003 17:37:01 27.6 C 6.65 g/m*3 27.6 C 0 km/h
823 12-07-2003 17:47:01 27.7 C 6.69 g/m*3 27.7 C 0 km/h
824 12-07-2003 17:57:01 28.1 C 6.56 g/m*3 28.1 C 0 km/h
825 12-07-2003 18:07:01 28.3 C 6.36 g/m*3 28.3 C 0 km/h
Sensor: Nr:Datum:Temp:Abs-Feuchte:Windchill:Wind:
Aussen-T/F 826 12-07-2003 18:17:01 27.9 C 6.76 g/m*3 27.9 C 0 km/h
827 12-07-2003 18:27:01 28.4 C 6.67 g/m*3 28.4 C 0 km/h
828 12-07-2003 18:37:01 28 C 6.53 g/m*3 28 C 0 km/h
829 12-07-2003 18:47:01 28.2 C 6.87 g/m*3 28.2 C 0 km/h
830 12-07-2003 18:57:01 27 C 6.43 g/m*3 27 C 0 km/h
831 12-07-2003 19:07:00 27 C 6.69 g/m*3 27 C 0 km/h
832 12-07-2003 19:17:00 27.2 C 6.51 g/m*3 27.2 C 0 km/h
833 12-07-2003 19:27:00 26.6 C 6.54 g/m*3 26.6 C 0 km/h
834 12-07-2003 19:37:01 26 C 6.57 g/m*3 26 C 0 km/h
835 12-07-2003 19:47:01 26.1 C 6.85 g/m*3 26.1 C 0 km/h
836 12-07-2003 19:57:01 26.3 C 6.93 g/m*3 26.3 C 0 km/h
837 12-07-2003 20:07:02 26 C 6.82 g/m*3 26 C 0 km/h
838 12-07-2003 20:17:02 25.9 C 7.02 g/m*3 25.9 C 0 km/h
839 12-07-2003 20:27:02 26.1 C 6.85 g/m*3 26.1 C 0 km/h
840 12-07-2003 20:37:01 25.7 C 7.18 g/m*3 25.7 C 0 km/h
841 12-07-2003 20:47:01 24.4 C 6.9 g/m*3 24.4 C 0 km/h
842 12-07-2003 20:57:01 23.6 C 7.02 g/m*3 23.6 C 0 km/h
843 12-07-2003 21:07:02 22.9 C 7.36 g/m*3 22.9 C 0 km/h
844 12-07-2003 21:17:02 22.8 C 7.32 g/m*3 22.8 C 0 km/h
845 12-07-2003 21:27:02 22.7 C 7.48 g/m*3 22.7 C 0 km/h
846 12-07-2003 21:37:01 22.6 C 7.83 g/m*3 22.6 C 0 km/h
847 12-07-2003 21:47:01 22.1 C 7.81 g/m*3 22.1 C 0 km/h
848 12-07-2003 21:57:01 21.8 C 7.87 g/m*3 21.8 C 0 km/h
849 12-07-2003 22:07:01 21.4 C 7.87 g/m*3 21.4 C 0 km/h
850 12-07-2003 22:17:01 21.1 C 7.74 g/m*3 21.1 C 0 km/h
Sensor: Nr:Datum:Temp:Abs-Feuchte:Windchill:Wind:
Aussen-T/F 851 12-07-2003 22:27:01 20.9 C 8.01 g/m*3 20.9 C 0 km/h
852 12-07-2003 22:38:01 20.6 C 8.05 g/m*3 20.6 C 0 km/h
853 12-07-2003 22:48:01 19.9 C 8.08 g/m*3 19.9 C 0 km/h
854 12-07-2003 22:58:01 19.5 C 8.06 g/m*3 19.5 C 0 km/h
855 12-07-2003 23:08:01 19.4 C 8.18 g/m*3 19.4 C 0 km/h
856 12-07-2003 23:18:01 19.3 C 8.13 g/m*3 19.3 C 0 km/h
857 12-07-2003 23:28:01 19.3 C 7.96 g/m*3 19.3 C 0 km/h
858 12-07-2003 23:38:01 19.1 C 7.87 g/m*3 19.1 C 0 km/h
859 12-07-2003 23:48:01 18.9 C 8.1 g/m*3 18.9 C 0 km/h
860 12-07-2003 23:58:01 18.7 C 8.17 g/m*3 18.7 C 0 km/h
861 13-07-2003 00:08:01 18.3 C 8.13 g/m*3 18.3 C 0 km/h
862 13-07-2003 00:18:01 18.2 C 8.08 g/m*3 18.2 C 0 km/h
863 13-07-2003 00:28:01 18 C 8.14 g/m*3 18 C 0 km/h
864 13-07-2003 00:38:01 17.9 C 8.24 g/m*3 17.9 C 0 km/h
865 13-07-2003 00:48:01 17.8 C 8.2 g/m*3 17.8 C 0 km/h
866 13-07-2003 00:58:01 17.6 C 8.25 g/m*3 17.6 C 0 km/h
867 13-07-2003 01:08:01 17.4 C 8.15 g/m*3 17.4 C 0 km/h
868 13-07-2003 01:18:01 17.2 C 8.2 g/m*3 17.2 C 0 km/h
869 13-07-2003 01:28:01 16.9 C 8.49 g/m*3 16.9 C 0 km/h
870 13-07-2003 01:38:01 16.7 C 8.53 g/m*3 16.7 C 0 km/h
871 13-07-2003 01:48:01 16.6 C 8.48 g/m*3 16.6 C 0 km/h
872 13-07-2003 01:58:01 16.3 C 8.46 g/m*3 16.3 C 0 km/h
873 13-07-2003 02:08:01 16 C 8.58 g/m*3 16 C 0 km/h
874 13-07-2003 02:18:01 15.8 C 8.62 g/m*3 15.8 C 0 km/h
875 13-07-2003 02:28:01 15.7 C 8.56 g/m*3 15.7 C 0 km/h
Sensor: Nr:Datum:Temp:Abs-Feuchte:Windchill:Wind:
Aussen-T/F 876 13-07-2003 02:38:01 15.7 C 8.56 g/m*3 15.7 C 0 km/h
877 13-07-2003 02:48:01 15.5 C 8.59 g/m*3 15.5 C 0 km/h
878 13-07-2003 02:58:01 15.2 C 8.57 g/m*3 15.2 C 0 km/h
879 13-07-2003 03:08:01 15 C 8.46 g/m*3 15 C 0 km/h
880 13-07-2003 03:18:01 15 C 8.46 g/m*3 15 C 0 km/h
881 13-07-2003 03:28:01 14.8 C 8.61 g/m*3 14.8 C 0 km/h
882 13-07-2003 03:38:01 14.7 C 8.56 g/m*3 14.7 C 0 km/h
883 13-07-2003 03:48:01 14.5 C 8.58 g/m*3 14.5 C 0 km/h
884 13-07-2003 03:58:01 14.3 C 8.6 g/m*3 14.3 C 0 km/h
885 13-07-2003 04:08:01 14.2 C 8.55 g/m*3 14.2 C 0 km/h
886 13-07-2003 04:18:01 13.8 C 8.7 g/m*3 13.8 C 0 km/h
887 13-07-2003 04:28:01 13.7 C 8.64 g/m*3 13.7 C 0 km/h
888 13-07-2003 04:38:01 13.7 C 8.64 g/m*3 13.7 C 0 km/h
889 13-07-2003 04:48:01 13.6 C 8.71 g/m*3 13.6 C 0 km/h
890 13-07-2003 04:58:01 13.5 C 8.54 g/m*3 13.5 C 0 km/h
891 13-07-2003 05:08:01 13.5 C 8.66 g/m*3 13.5 C 0 km/h
892 13-07-2003 05:18:01 13.4 C 8.6 g/m*3 13.4 C 0 km/h
893 13-07-2003 05:28:01 13.2 C 8.5 g/m*3 13.2 C 0 km/h
894 13-07-2003 05:38:01 13.3 C 8.55 g/m*3 13.3 C 0 km/h
895 13-07-2003 05:48:01 13.2 C 8.61 g/m*3 13.2 C 0 km/h
896 13-07-2003 05:58:01 13 C 8.62 g/m*3 13 C 0 km/h
897 13-07-2003 06:08:01 13 C 8.62 g/m*3 13 C 0 km/h
898 13-07-2003 06:18:01 12.8 C 8.74 g/m*3 12.8 C 0 km/h
899 13-07-2003 06:28:01 12.8 C 8.85 g/m*3 12.8 C 0 km/h
900 13-07-2003 06:38:01 12.7 C 8.79 g/m*3 12.7 C 0 km/h
Sensor: Nr:Datum:Temp:Abs-Feuchte:Windchill:Wind:
Aussen-T/F 901 13-07-2003 06:48:01 12.7 C 8.79 g/m*3 12.7 C 0 km/h
902 13-07-2003 06:58:01 13 C 8.85 g/m*3 13 C 0 km/h
903 13-07-2003 07:08:01 13.1 C 8.9 g/m*3 13.1 C 0 km/h
904 13-07-2003 07:18:01 13.2 C 8.84 g/m*3 13.2 C 0 km/h
905 13-07-2003 07:28:01 13.4 C 8.95 g/m*3 13.4 C 0 km/h
906 13-07-2003 07:38:01 13.7 C 9 g/m*3 13.7 C 0 km/h
907 13-07-2003 07:48:01 13.8 C 8.82 g/m*3 13.8 C 0 km/h
908 13-07-2003 07:58:01 14 C 8.81 g/m*3 14 C 0 km/h
909 13-07-2003 08:08:01 14.4 C 9.02 g/m*3 14.4 C 0 km/h
910 13-07-2003 08:18:01 14.7 C 9.07 g/m*3 14.7 C 0 km/h
911 13-07-2003 08:28:01 14.8 C 9.12 g/m*3 14.8 C 0 km/h
912 13-07-2003 08:38:01 15.1 C 9.03 g/m*3 15.1 C 0 km/h
913 13-07-2003 08:48:01 15.6 C 9.31 g/m*3 15.6 C 0 km/h
914 13-07-2003 08:58:01 16.2 C 9.38 g/m*3 16.2 C 0 km/h
915 13-07-2003 09:08:01 16.6 C 9.32 g/m*3 16.6 C 0 km/h
916 13-07-2003 09:18:01 17 C 9.26 g/m*3 17 C 0 km/h
917 13-07-2003 09:28:01 17.7 C 9.51 g/m*3 17.7 C 0 km/h
918 13-07-2003 09:38:01 18 C 9.37 g/m*3 18 C 0 km/h
919 13-07-2003 09:48:01 18.7 C 9.45 g/m*3 18.7 C 0 km/h
920 13-07-2003 09:58:01 19.4 C 9.68 g/m*3 19.4 C 0 km/h
921 13-07-2003 10:08:01 20.1 C 9.73 g/m*3 20.1 C 0 km/h
922 13-07-2003 10:18:01 20.8 C 9.42 g/m*3 20.8 C 0 km/h
923 13-07-2003 10:28:01 21.1 C 9.03 g/m*3 21.1 C 0 km/h
924 13-07-2003 10:38:01 21.7 C 9.16 g/m*3 21.7 C 0 km/h
925 13-07-2003 10:48:01 22.2 C 8.83 g/m*3 22.2 C 0 km/h
Sensor: Nr:Datum:Temp:Abs-Feuchte:Windchill:Wind:
Aussen-T/F 926 13-07-2003 10:58:01 22.5 C 8.79 g/m*3 22.5 C 0 km/h
927 13-07-2003 11:08:02 22.7 C 8.89 g/m*3 22.7 C 0 km/h
928 13-07-2003 11:18:02 22.9 C 8.79 g/m*3 22.9 C 0 km/h
929 13-07-2003 11:28:02 23.3 C 8.78 g/m*3 23.3 C 0 km/h
930 13-07-2003 11:38:02 23 C 8.43 g/m*3 23 C 0 km/h
931 13-07-2003 11:48:02 23.2 C 8.11 g/m*3 23.2 C 0 km/h
932 13-07-2003 11:58:02 24.1 C 8.31 g/m*3 24.1 C 0 km/h
933 13-07-2003 12:08:03 24.6 C 7.88 g/m*3 24.6 C 0 km/h
934 13-07-2003 12:18:03 25.6 C 7.62 g/m*3 25.6 C 0 km/h
935 13-07-2003 12:28:03 25.8 C 7.22 g/m*3 25.8 C 0 km/h
936 13-07-2003 12:38:01 26.6 C 7.3 g/m*3 26.6 C 0 km/h
937 13-07-2003 12:48:01 27.6 C 6.92 g/m*3 27.6 C 0 km/h
938 13-07-2003 12:58:01 27.6 C 6.92 g/m*3 27.6 C 0 km/h
939 13-07-2003 13:08:02 27.6 C 6.12 g/m*3 27.6 C 0 km/h
940 13-07-2003 13:18:02 29 C 6.61 g/m*3 29 C 0 km/h
941 13-07-2003 13:28:02 28.7 C 5.65 g/m*3 28.7 C 0 km/h
942 13-07-2003 13:38:01 29.8 C 6 g/m*3 29.8 C 0 km/h
943 13-07-2003 13:48:01 30.3 C 6.16 g/m*3 30.3 C 0 km/h
944 13-07-2003 13:58:01 30 C 6.06 g/m*3 30 C 0 km/h
945 13-07-2003 14:08:01 30 C 6.06 g/m*3 30 C 0 km/h
946 13-07-2003 14:18:01 29.9 C 6.03 g/m*3 29.9 C 0 km/h
947 13-07-2003 14:28:01 29.7 C 6.27 g/m*3 29.7 C 0 km/h
948 13-07-2003 14:38:02 30.2 C 6.13 g/m*3 30.2 C 0 km/h
949 13-07-2003 14:48:02 29.7 C 5.97 g/m*3 29.7 C 0 km/h
950 13-07-2003 14:58:02 30 C 6.06 g/m*3 30 C 0 km/h
Sensor: Nr:Datum:Temp:Abs-Feuchte:Windchill:Wind:
Aussen-T/F 951 13-07-2003 15:08:02 30.3 C 6.16 g/m*3 30.3 C 0 km/h
952 13-07-2003 15:18:02 30.6 C 6.26 g/m*3 30.6 C 0 km/h
953 13-07-2003 15:28:02 31 C 6.4 g/m*3 31 C 0 km/h
954 13-07-2003 15:38:02 31 C 6.4 g/m*3 31 C 0 km/h
955 13-07-2003 15:48:02 30.6 C 6.58 g/m*3 30.6 C 0 km/h
956 13-07-2003 15:58:02 30.7 C 7.87 g/m*3 30.7 C 0 km/h
957 13-07-2003 16:08:01 30.6 C 6.89 g/m*3 30.6 C 0 km/h
958 13-07-2003 16:18:01 31.3 C 7.15 g/m*3 31.3 C 0 km/h
959 13-07-2003 16:28:01 31.4 C 6.54 g/m*3 31.4 C 0 km/h
960 13-07-2003 16:38:01 31.5 C 6.57 g/m*3 31.5 C 0 km/h
961 13-07-2003 16:48:01 31.9 C 6.72 g/m*3 31.9 C 0 km/h
962 13-07-2003 16:58:01 32 C 6.75 g/m*3 32 C 0 km/h
963 13-07-2003 17:08:00 31.7 C 6.64 g/m*3 31.7 C 0 km/h
964 13-07-2003 17:18:00 31.6 C 6.61 g/m*3 31.6 C 0 km/h
965 13-07-2003 17:28:00 31.8 C 6.68 g/m*3 31.8 C 0 km/h
966 13-07-2003 17:38:02 31.2 C 6.47 g/m*3 31.2 C 0 km/h
967 13-07-2003 17:48:02 31.5 C 6.57 g/m*3 31.5 C 0 km/h
968 13-07-2003 17:58:02 32.3 C 6.86 g/m*3 32.3 C 0 km/h
969 13-07-2003 18:08:01 32.1 C 6.79 g/m*3 32.1 C 0 km/h
970 13-07-2003 18:18:01 31.9 C 6.72 g/m*3 31.9 C 0 km/h
971 13-07-2003 18:28:01 32 C 6.75 g/m*3 32 C 0 km/h
972 13-07-2003 18:38:01 32.2 C 6.82 g/m*3 32.2 C 0 km/h
973 13-07-2003 18:48:01 32.5 C 6.93 g/m*3 32.5 C 0 km/h
974 13-07-2003 18:58:01 32.6 C 6.97 g/m*3 32.6 C 0 km/h
975 13-07-2003 19:08:01 32.6 C 6.97 g/m*3 32.6 C 0 km/h
Sensor: Nr:Datum:Temp:Abs-Feuchte:Windchill:Wind:
Aussen-T/F 976 13-07-2003 19:18:01 32.6 C 6.97 g/m*3 32.6 C 0 km/h
977 13-07-2003 19:28:01 32.4 C 6.9 g/m*3 32.4 C 0 km/h
978 13-07-2003 19:38:01 32 C 6.75 g/m*3 32 C 0 km/h
979 13-07-2003 19:48:01 32 C 6.75 g/m*3 32 C 0 km/h
980 13-07-2003 19:58:01 31.8 C 7.01 g/m*3 31.8 C 0 km/h
981 13-07-2003 20:08:01 31.3 C 6.83 g/m*3 31.3 C 0 km/h
982 13-07-2003 20:18:01 31 C 7.04 g/m*3 31 C 0 km/h
983 13-07-2003 20:28:01 30.9 C 7.32 g/m*3 30.9 C 0 km/h
984 13-07-2003 20:38:01 30.6 C 7.52 g/m*3 30.6 C 0 km/h
985 13-07-2003 20:48:01 30.3 C 8.01 g/m*3 30.3 C 0 km/h
986 13-07-2003 20:58:01 29.5 C 8.26 g/m*3 29.5 C 0 km/h
987 13-07-2003 21:08:01 28.6 C 8.43 g/m*3 28.6 C 0 km/h
988 13-07-2003 21:18:01 27.5 C 8.47 g/m*3 27.5 C 0 km/h
989 13-07-2003 21:28:01 26.4 C 8.46 g/m*3 26.4 C 0 km/h
990 13-07-2003 21:38:00 25.9 C 8.47 g/m*3 25.9 C 0 km/h
991 13-07-2003 21:48:00 25.2 C 8.38 g/m*3 25.2 C 0 km/h
992 13-07-2003 21:58:00 24.7 C 8.37 g/m*3 24.7 C 0 km/h
993 13-07-2003 22:08:02 24.2 C 8.14 g/m*3 24.2 C 0 km/h
994 13-07-2003 22:18:02 23.8 C 8.39 g/m*3 23.8 C 0 km/h
995 13-07-2003 22:28:02 23.7 C 8.34 g/m*3 23.7 C 0 km/h
996 13-07-2003 22:39:01 23.5 C 8.25 g/m*3 23.5 C 0 km/h
997 13-07-2003 22:49:01 23.3 C 7.95 g/m*3 23.3 C 0 km/h
998 13-07-2003 22:59:01 23 C 7.81 g/m*3 23 C 0 km/h
999 13-07-2003 23:09:01 22.9 C 8.17 g/m*3 22.9 C 0 km/h
1000 13-07-2003 23:19:01 22.8 C 8.13 g/m*3 22.8 C 0 km/h
Sensor: Nr:Datum:Temp:Abs-Feuchte:Windchill:Wind:
Aussen-T/F 1001 13-07-2003 23:29:01 22.6 C 7.83 g/m*3 22.6 C 0 km/h
1002 13-07-2003 23:39:01 22.5 C 7.79 g/m*3 22.5 C 0 km/h
1003 13-07-2003 23:49:01 22.4 C 7.75 g/m*3 22.4 C 0 km/h
1004 13-07-2003 23:59:01 22.1 C 7.61 g/m*3 22.1 C 0 km/h
1005 14-07-2003 00:09:01 22 C 7.76 g/m*3 22 C 0 km/h
1006 14-07-2003 00:19:01 21.8 C 7.87 g/m*3 21.8 C 0 km/h
1007 14-07-2003 00:29:01 21.7 C 7.82 g/m*3 21.7 C 0 km/h
1008 14-07-2003 00:39:01 21.5 C 7.73 g/m*3 21.5 C 0 km/h
1009 14-07-2003 00:49:01 21.2 C 7.78 g/m*3 21.2 C 0 km/h
1010 14-07-2003 00:59:01 21 C 7.88 g/m*3 21 C 0 km/h
1011 14-07-2003 01:09:01 20.7 C 8.1 g/m*3 20.7 C 0 km/h
1012 14-07-2003 01:29:01 20.4 C 7.96 g/m*3 20.4 C 0 km/h
1013 14-07-2003 01:39:01 20.3 C 7.91 g/m*3 20.3 C 0 km/h
1014 14-07-2003 01:49:01 20.2 C 8.04 g/m*3 20.2 C 0 km/h
1015 14-07-2003 01:59:01 20 C 7.95 g/m*3 20 C 0 km/h
1016 14-07-2003 02:09:01 19.8 C 8.03 g/m*3 19.8 C 0 km/h
1017 14-07-2003 02:19:01 19.6 C 8.1 g/m*3 19.6 C 0 km/h
1018 14-07-2003 02:29:01 19.5 C 7.89 g/m*3 19.5 C 0 km/h
1019 14-07-2003 02:39:01 19.2 C 7.91 g/m*3 19.2 C 0 km/h
1020 14-07-2003 02:49:01 19 C 7.99 g/m*3 19 C 0 km/h
1021 14-07-2003 02:59:01 19 C 8.15 g/m*3 19 C 0 km/h
1022 14-07-2003 03:09:01 18.6 C 8.12 g/m*3 18.6 C 0 km/h
1023 14-07-2003 03:19:01 18.3 C 8.13 g/m*3 18.3 C 0 km/h
1024 14-07-2003 03:29:01 18 C 8.14 g/m*3 18 C 0 km/h
1025 14-07-2003 03:39:01 17.7 C 8.15 g/m*3 17.7 C 0 km/h
Sensor: Nr:Datum:Temp:Abs-Feuchte:Windchill:Wind:
Aussen-T/F 1026 14-07-2003 03:49:01 17.5 C 8.2 g/m*3 17.5 C 0 km/h
1027 14-07-2003 03:59:01 17.4 C 8.15 g/m*3 17.4 C 0 km/h
1028 14-07-2003 04:09:01 17.1 C 8.01 g/m*3 17.1 C 0 km/h
1029 14-07-2003 04:19:01 17 C 7.96 g/m*3 17 C 0 km/h
1030 14-07-2003 04:29:01 16.7 C 8.1 g/m*3 16.7 C 0 km/h
1031 14-07-2003 04:39:01 16.4 C 8.1 g/m*3 16.4 C 0 km/h
1032 14-07-2003 04:49:01 16.3 C 8.19 g/m*3 16.3 C 0 km/h
1033 14-07-2003 04:59:01 16.2 C 8.14 g/m*3 16.2 C 0 km/h
1034 14-07-2003 05:09:01 16 C 8.17 g/m*3 16 C 0 km/h
1035 14-07-2003 05:19:01 16 C 8.17 g/m*3 16 C 0 km/h
1036 14-07-2003 05:29:01 15.8 C 8.35 g/m*3 15.8 C 0 km/h
1037 14-07-2003 05:39:01 15.6 C 8.25 g/m*3 15.6 C 0 km/h
1038 14-07-2003 05:49:01 15.6 C 8.25 g/m*3 15.6 C 0 km/h
1039 14-07-2003 05:59:01 15.7 C 8.3 g/m*3 15.7 C 0 km/h
1040 14-07-2003 06:09:01 15.7 C 8.16 g/m*3 15.7 C 0 km/h
1041 14-07-2003 06:19:01 15.8 C 8.21 g/m*3 15.8 C 0 km/h
1042 14-07-2003 06:29:01 15.9 C 8.13 g/m*3 15.9 C 0 km/h
1043 14-07-2003 06:39:01 16.1 C 8.36 g/m*3 16.1 C 0 km/h
1044 14-07-2003 06:49:01 16 C 8.31 g/m*3 16 C 0 km/h
1045 14-07-2003 06:59:01 16 C 8.45 g/m*3 16 C 0 km/h
1046 14-07-2003 07:09:01 16.2 C 8.69 g/m*3 16.2 C 0 km/h
1047 14-07-2003 07:19:01 16.3 C 8.6 g/m*3 16.3 C 0 km/h
1048 14-07-2003 07:29:01 16.4 C 8.65 g/m*3 16.4 C 0 km/h
1049 14-07-2003 07:39:01 16.7 C 8.67 g/m*3 16.7 C 0 km/h
1050 14-07-2003 07:49:01 16.8 C 8.44 g/m*3 16.8 C 0 km/h
Sensor: Nr:Datum:Temp:Abs-Feuchte:Windchill:Wind:
Aussen-T/F 1051 14-07-2003 07:59:01 17.2 C 8.2 g/m*3 17.2 C 0 km/h
1052 14-07-2003 08:09:00 17.4 C 8.15 g/m*3 17.4 C 0 km/h
1053 14-07-2003 08:19:00 17.6 C 8.55 g/m*3 17.6 C 0 km/h
1054 14-07-2003 08:29:00 17.8 C 8.35 g/m*3 17.8 C 0 km/h
1055 14-07-2003 08:39:01 18.2 C 8.24 g/m*3 18.2 C 0 km/h
1056 14-07-2003 08:49:01 18.6 C 8.28 g/m*3 18.6 C 0 km/h
1057 14-07-2003 08:59:01 19 C 8.15 g/m*3 19 C 0 km/h
1058 14-07-2003 09:09:01 19.3 C 8.13 g/m*3 19.3 C 0 km/h
1059 14-07-2003 09:19:01 19.7 C 7.98 g/m*3 19.7 C 0 km/h
1060 14-07-2003 09:29:01 20.1 C 8 g/m*3 20.1 C 0 km/h
1061 14-07-2003 09:39:00 20.7 C 8.1 g/m*3 20.7 C 0 km/h
1062 14-07-2003 09:49:00 21.2 C 8.15 g/m*3 21.2 C 0 km/h
1063 14-07-2003 09:59:00 21.7 C 8.2 g/m*3 21.7 C 0 km/h
1064 14-07-2003 10:09:01 21.9 C 8.1 g/m*3 21.9 C 0 km/h
1065 14-07-2003 10:19:01 22.3 C 8.1 g/m*3 22.3 C 0 km/h
1066 14-07-2003 10:29:01 23.3 C 8.15 g/m*3 23.3 C 0 km/h
1067 14-07-2003 10:39:08 23.4 C 7.78 g/m*3 23.4 C 0 km/h
1068 14-07-2003 10:49:08 23.9 C 8 g/m*3 23.9 C 0 km/h
1069 14-07-2003 10:59:08 24.5 C 8.06 g/m*3 24.5 C 0 km/h
1070 14-07-2003 11:09:02 24.7 C 7.7 g/m*3 24.7 C 0 km/h
1071 14-07-2003 11:19:02 24.8 C 7.97 g/m*3 24.8 C 0 km/h
1072 14-07-2003 11:29:02 25.5 C 7.81 g/m*3 25.5 C 0 km/h
1073 14-07-2003 11:39:01 25.6 C 7.38 g/m*3 25.6 C 0 km/h
1074 14-07-2003 11:49:01 26.2 C 7.39 g/m*3 26.2 C 0 km/h
1075 14-07-2003 11:59:01 26.7 C 7.59 g/m*3 26.7 C 0 km/h
Sensor: Nr:Datum:Temp:Abs-Feuchte:Windchill:Wind:
Aussen-T/F 1076 14-07-2003 12:09:01 26.5 C 7.01 g/m*3 26.5 C 0 km/h
1077 14-07-2003 12:19:01 27.5 C 7.14 g/m*3 27.5 C 0 km/h
1078 14-07-2003 12:29:01 28.3 C 6.91 g/m*3 28.3 C 0 km/h
1079 14-07-2003 12:39:01 28.4 C 6.39 g/m*3 28.4 C 0 km/h
1080 14-07-2003 12:49:01 28.8 C 6.25 g/m*3 28.8 C 0 km/h
1081 14-07-2003 12:59:01 28.9 C 6 g/m*3 28.9 C 0 km/h
1082 14-07-2003 13:09:02 29.7 C 6.27 g/m*3 29.7 C 0 km/h
1083 14-07-2003 13:19:02 30 C 6.37 g/m*3 30 C 0 km/h
1084 14-07-2003 13:29:02 30.4 C 6.51 g/m*3 30.4 C 0 km/h
1085 14-07-2003 13:39:01 30.6 C 6.26 g/m*3 30.6 C 0 km/h
1086 14-07-2003 13:49:01 30.5 C 6.23 g/m*3 30.5 C 0 km/h
1087 14-07-2003 13:59:01 30.4 C 6.2 g/m*3 30.4 C 0 km/h
1088 14-07-2003 14:09:02 30.6 C 6.26 g/m*3 30.6 C 0 km/h
1089 14-07-2003 14:19:02 30.6 C 6.26 g/m*3 30.6 C 0 km/h
1090 14-07-2003 14:29:02 30.4 C 6.51 g/m*3 30.4 C 0 km/h
1091 14-07-2003 14:39:01 30.6 C 6.26 g/m*3 30.6 C 0 km/h
1092 14-07-2003 14:49:01 31.1 C 6.43 g/m*3 31.1 C 0 km/h
1093 14-07-2003 14:59:01 31 C 6.4 g/m*3 31 C 0 km/h
1094 14-07-2003 15:09:01 31.3 C 6.5 g/m*3 31.3 C 0 km/h
1095 14-07-2003 15:19:01 31.3 C 6.5 g/m*3 31.3 C 0 km/h
1096 14-07-2003 15:29:01 31.4 C 6.54 g/m*3 31.4 C 0 km/h
1097 14-07-2003 15:39:01 31.7 C 6.64 g/m*3 31.7 C 0 km/h
1098 14-07-2003 15:49:01 31.8 C 6.68 g/m*3 31.8 C 0 km/h
1099 14-07-2003 15:59:01 31.8 C 6.68 g/m*3 31.8 C 0 km/h
1100 14-07-2003 16:09:02 31.6 C 6.61 g/m*3 31.6 C 0 km/h
Sensor: Nr:Datum:Temp:Abs-Feuchte:Windchill:Wind:
Aussen-T/F 1101 14-07-2003 16:19:02 31.6 C 6.61 g/m*3 31.6 C 0 km/h
1102 14-07-2003 16:29:02 31.8 C 6.68 g/m*3 31.8 C 0 km/h
1103 14-07-2003 16:39:01 32.2 C 6.82 g/m*3 32.2 C 0 km/h
1104 14-07-2003 16:49:01 31.9 C 6.72 g/m*3 31.9 C 0 km/h
1105 14-07-2003 16:59:01 32.4 C 6.9 g/m*3 32.4 C 0 km/h
1106 14-07-2003 17:09:02 32.9 C 7.08 g/m*3 32.9 C 0 km/h
1107 14-07-2003 17:19:02 33 C 7.12 g/m*3 33 C 0 km/h
1108 14-07-2003 17:29:02 33.1 C 7.16 g/m*3 33.1 C 0 km/h
1109 14-07-2003 17:39:02 33.2 C 7.2 g/m*3 33.2 C 0 km/h
1110 14-07-2003 17:49:02 33.1 C 7.16 g/m*3 33.1 C 0 km/h
1111 14-07-2003 17:59:02 33 C 7.12 g/m*3 33 C 0 km/h
1112 14-07-2003 18:09:01 33.1 C 7.16 g/m*3 33.1 C 0 km/h
1113 14-07-2003 18:19:01 33.1 C 7.16 g/m*3 33.1 C 0 km/h
1114 14-07-2003 18:29:01 32.9 C 7.08 g/m*3 32.9 C 0 km/h
1115 14-07-2003 18:39:01 33 C 7.12 g/m*3 33 C 0 km/h
1116 14-07-2003 18:49:01 33 C 7.12 g/m*3 33 C 0 km/h
1117 14-07-2003 18:59:01 32.9 C 7.08 g/m*3 32.9 C 0 km/h
1118 14-07-2003 19:09:01 32.7 C 7.01 g/m*3 32.7 C 0 km/h
1119 14-07-2003 19:19:01 32.7 C 7.01 g/m*3 32.7 C 0 km/h
1120 14-07-2003 19:29:01 32.5 C 6.93 g/m*3 32.5 C 0 km/h
1121 14-07-2003 19:39:01 32.6 C 6.97 g/m*3 32.6 C 0 km/h
1122 14-07-2003 19:49:01 32 C 6.75 g/m*3 32 C 0 km/h
1123 14-07-2003 19:59:01 32 C 6.75 g/m*3 32 C 0 km/h
1124 14-07-2003 20:09:01 31.9 C 6.72 g/m*3 31.9 C 0 km/h
1125 14-07-2003 20:19:01 31.8 C 6.68 g/m*3 31.8 C 0 km/h
Sensor: Nr:Datum:Temp:Abs-Feuchte:Windchill:Wind:
Aussen-T/F 1126 14-07-2003 20:29:01 31.4 C 6.54 g/m*3 31.4 C 0 km/h
1127 14-07-2003 20:39:01 31.4 C 6.54 g/m*3 31.4 C 0 km/h
1128 14-07-2003 20:49:01 30.8 C 6.65 g/m*3 30.8 C 0 km/h
1129 14-07-2003 20:59:01 30.3 C 6.78 g/m*3 30.3 C 0 km/h
1130 14-07-2003 21:09:01 29 C 7.18 g/m*3 29 C 0 km/h
1131 14-07-2003 21:19:01 27.5 C 6.88 g/m*3 27.5 C 0 km/h
1132 14-07-2003 21:29:01 26.6 C 7.05 g/m*3 26.6 C 0 km/h
1133 14-07-2003 21:39:01 26.1 C 6.85 g/m*3 26.1 C 0 km/h
1134 14-07-2003 21:49:01 25.7 C 6.94 g/m*3 25.7 C 0 km/h
1135 14-07-2003 21:59:01 25.3 C 6.79 g/m*3 25.3 C 0 km/h
1136 14-07-2003 22:10:01 24.7 C 6.79 g/m*3 24.7 C 0 km/h
1137 14-07-2003 22:20:01 24.4 C 6.9 g/m*3 24.4 C 0 km/h
1138 14-07-2003 22:30:01 24.1 C 6.78 g/m*3 24.1 C 0 km/h
1139 14-07-2003 22:40:01 23.9 C 6.92 g/m*3 23.9 C 0 km/h
1140 14-07-2003 22:50:01 23.7 C 7.06 g/m*3 23.7 C 0 km/h
1141 14-07-2003 23:00:01 23.2 C 7.48 g/m*3 23.2 C 0 km/h
1142 14-07-2003 23:10:01 23.1 C 7.23 g/m*3 23.1 C 0 km/h
1143 14-07-2003 23:20:01 22.8 C 7.72 g/m*3 22.8 C 0 km/h
1144 14-07-2003 23:30:01 22.6 C 7.43 g/m*3 22.6 C 0 km/h
1145 14-07-2003 23:40:01 22.3 C 7.31 g/m*3 22.3 C 0 km/h
1146 14-07-2003 23:50:01 22 C 7.96 g/m*3 22 C 0 km/h
1147 15-07-2003 00:00:01 21.7 C 7.82 g/m*3 21.7 C 0 km/h
1148 15-07-2003 00:10:01 21.6 C 7.97 g/m*3 21.6 C 0 km/h
1149 15-07-2003 00:20:01 21.4 C 8.06 g/m*3 21.4 C 0 km/h
1150 15-07-2003 00:30:01 20.9 C 8.2 g/m*3 20.9 C 0 km/h
Sensor: Nr:Datum:Temp:Abs-Feuchte:Windchill:Wind:
Aussen-T/F 1151 15-07-2003 00:40:01 20.8 C 8.33 g/m*3 20.8 C 0 km/h
1152 15-07-2003 00:50:01 20.7 C 8.46 g/m*3 20.7 C 0 km/h
1153 15-07-2003 01:00:01 20.7 C 8.46 g/m*3 20.7 C 0 km/h
1154 15-07-2003 01:10:01 20.5 C 8.36 g/m*3 20.5 C 0 km/h
1155 15-07-2003 01:20:01 20.6 C 8.41 g/m*3 20.6 C 0 km/h
1156 15-07-2003 01:30:01 20.6 C 8.41 g/m*3 20.6 C 0 km/h
1157 15-07-2003 01:40:01 20.6 C 8.41 g/m*3 20.6 C 0 km/h
1158 15-07-2003 01:50:01 20.4 C 8.31 g/m*3 20.4 C 0 km/h
1159 15-07-2003 02:00:01 20.4 C 8.31 g/m*3 20.4 C 0 km/h
1160 15-07-2003 02:10:01 20.3 C 8.27 g/m*3 20.3 C 0 km/h
1161 15-07-2003 02:20:01 20.1 C 8.17 g/m*3 20.1 C 0 km/h
1162 15-07-2003 02:30:01 19.9 C 8.25 g/m*3 19.9 C 0 km/h
1163 15-07-2003 02:40:01 19.9 C 8.25 g/m*3 19.9 C 0 km/h
1164 15-07-2003 02:50:01 19.6 C 8.27 g/m*3 19.6 C 0 km/h
1165 15-07-2003 03:00:01 19.4 C 8.18 g/m*3 19.4 C 0 km/h
1166 15-07-2003 03:10:01 19 C 8.15 g/m*3 19 C 0 km/h
1167 15-07-2003 03:20:01 18.7 C 8.17 g/m*3 18.7 C 0 km/h
1168 15-07-2003 03:30:01 18.8 C 8.21 g/m*3 18.8 C 0 km/h
1169 15-07-2003 03:40:01 18.7 C 8.17 g/m*3 18.7 C 0 km/h
1170 15-07-2003 03:50:01 18.6 C 8.12 g/m*3 18.6 C 0 km/h
1171 15-07-2003 04:00:01 18.5 C 8.23 g/m*3 18.5 C 0 km/h
1172 15-07-2003 04:10:01 18.4 C 8.18 g/m*3 18.4 C 0 km/h
1173 15-07-2003 04:20:01 18.3 C 8.13 g/m*3 18.3 C 0 km/h
1174 15-07-2003 04:30:01 18.2 C 8.08 g/m*3 18.2 C 0 km/h
1175 15-07-2003 04:40:01 18.2 C 8.08 g/m*3 18.2 C 0 km/h
Sensor: Nr:Datum:Temp:Abs-Feuchte:Windchill:Wind:
Aussen-T/F 1176 15-07-2003 04:50:01 18.1 C 8.19 g/m*3 18.1 C 0 km/h
1177 15-07-2003 05:00:01 17.9 C 8.24 g/m*3 17.9 C 0 km/h
1178 15-07-2003 05:10:01 17.7 C 8.45 g/m*3 17.7 C 0 km/h
1179 15-07-2003 05:20:01 17.3 C 8.1 g/m*3 17.3 C 0 km/h
1180 15-07-2003 05:30:01 17.3 C 8.4 g/m*3 17.3 C 0 km/h
1181 15-07-2003 05:40:01 17 C 8.39 g/m*3 17 C 0 km/h
1182 15-07-2003 05:50:01 16.8 C 8.58 g/m*3 16.8 C 0 km/h
1183 15-07-2003 06:00:01 16.6 C 8.76 g/m*3 16.6 C 0 km/h
1184 15-07-2003 06:10:01 16.4 C 8.65 g/m*3 16.4 C 0 km/h
1185 15-07-2003 06:20:01 16.4 C 8.79 g/m*3 16.4 C 0 km/h
1186 15-07-2003 06:30:01 16.4 C 8.93 g/m*3 16.4 C 0 km/h
1187 15-07-2003 06:40:01 16.3 C 9.02 g/m*3 16.3 C 0 km/h
1188 15-07-2003 06:50:01 16.3 C 9.02 g/m*3 16.3 C 0 km/h
1189 15-07-2003 07:00:01 16.8 C 9.44 g/m*3 16.8 C 0 km/h
1190 15-07-2003 07:10:01 16.4 C 9.21 g/m*3 16.4 C 0 km/h
1191 15-07-2003 07:20:01 16.6 C 9.18 g/m*3 16.6 C 0 km/h
1192 15-07-2003 07:30:01 16.6 C 9.18 g/m*3 16.6 C 0 km/h
1193 15-07-2003 07:40:01 16.9 C 9.35 g/m*3 16.9 C 0 km/h
1194 15-07-2003 07:50:01 17.2 C 9.37 g/m*3 17.2 C 0 km/h
1195 15-07-2003 08:00:01 17.5 C 9.39 g/m*3 17.5 C 0 km/h
1196 15-07-2003 08:10:00 17.9 C 9.62 g/m*3 17.9 C 0 km/h
1197 15-07-2003 08:20:00 18.3 C 9.38 g/m*3 18.3 C 0 km/h
1198 15-07-2003 08:30:00 18.6 C 9.39 g/m*3 18.6 C 0 km/h
1199 15-07-2003 08:40:02 18.8 C 9.34 g/m*3 18.8 C 0 km/h
1200 15-07-2003 08:50:02 19.4 C 9.18 g/m*3 19.4 C 0 km/h
Sensor: Nr:Datum:Temp:Abs-Feuchte:Windchill:Wind:
Aussen-T/F 1201 15-07-2003 09:00:02 19.9 C 8.76 g/m*3 19.9 C 0 km/h
1202 15-07-2003 09:10:03 20.7 C 8.64 g/m*3 20.7 C 0 km/h
1203 15-07-2003 09:20:03 21.2 C 8.52 g/m*3 21.2 C 0 km/h
1204 15-07-2003 09:30:03 21.9 C 8.68 g/m*3 21.9 C 0 km/h
1205 15-07-2003 09:40:01 22.3 C 8.69 g/m*3 22.3 C 0 km/h
1206 15-07-2003 09:50:01 22.9 C 8.79 g/m*3 22.9 C 0 km/h
1207 15-07-2003 10:00:01 23.6 C 8.51 g/m*3 23.6 C 0 km/h
1208 15-07-2003 10:10:01 24 C 8.49 g/m*3 24 C 0 km/h
1209 15-07-2003 10:20:01 24.8 C 8.65 g/m*3 24.8 C 0 km/h
1210 15-07-2003 10:30:01 25.3 C 8.43 g/m*3 25.3 C 0 km/h
1211 15-07-2003 10:40:01 26 C 8.28 g/m*3 26 C 0 km/h
1212 15-07-2003 10:50:01 26.6 C 8.05 g/m*3 26.6 C 0 km/h
1213 15-07-2003 11:00:01 26.7 C 7.59 g/m*3 26.7 C 0 km/h
1214 15-07-2003 11:10:01 27.4 C 7.37 g/m*3 27.4 C 0 km/h
1215 15-07-2003 11:20:01 27.8 C 6.99 g/m*3 27.8 C 0 km/h
1216 15-07-2003 11:30:01 28.3 C 6.91 g/m*3 28.3 C 0 km/h
1217 15-07-2003 11:40:01 28.4 C 6.95 g/m*3 28.4 C 0 km/h
1218 15-07-2003 11:50:01 29 C 6.89 g/m*3 29 C 0 km/h
1219 15-07-2003 12:00:01 29.5 C 7.08 g/m*3 29.5 C 0 km/h
1220 15-07-2003 12:10:01 29.7 C 6.56 g/m*3 29.7 C 0 km/h
1221 15-07-2003 12:20:01 29.9 C 6.33 g/m*3 29.9 C 0 km/h
1222 15-07-2003 12:30:01 30.3 C 6.16 g/m*3 30.3 C 0 km/h
1223 15-07-2003 12:40:00 30.6 C 6.26 g/m*3 30.6 C 0 km/h
1224 15-07-2003 12:50:00 30.6 C 6.26 g/m*3 30.6 C 0 km/h
1225 15-07-2003 13:00:00 30.9 C 6.37 g/m*3 30.9 C 0 km/h
Sensor: Nr:Datum:Temp:Abs-Feuchte:Windchill:Wind:
Aussen-T/F 1226 15-07-2003 13:10:01 31.3 C 6.5 g/m*3 31.3 C 0 km/h
1227 15-07-2003 13:20:01 31.9 C 6.72 g/m*3 31.9 C 0 km/h
1228 15-07-2003 13:30:01 32.3 C 6.86 g/m*3 32.3 C 0 km/h
1229 15-07-2003 13:40:01 32.3 C 6.86 g/m*3 32.3 C 0 km/h
1230 15-07-2003 13:50:01 32.4 C 6.9 g/m*3 32.4 C 0 km/h
1231 15-07-2003 14:00:01 32.3 C 6.86 g/m*3 32.3 C 0 km/h
1232 15-07-2003 14:10:02 32.1 C 6.79 g/m*3 32.1 C 0 km/h
1233 15-07-2003 14:20:02 32.2 C 6.82 g/m*3 32.2 C 0 km/h
1234 15-07-2003 14:30:02 32.1 C 6.79 g/m*3 32.1 C 0 km/h
1235 15-07-2003 14:40:01 32.1 C 6.79 g/m*3 32.1 C 0 km/h
1236 15-07-2003 14:50:01 32.4 C 6.9 g/m*3 32.4 C 0 km/h
1237 15-07-2003 15:00:01 32.7 C 7.01 g/m*3 32.7 C 0 km/h
1238 15-07-2003 15:10:01 32.5 C 6.93 g/m*3 32.5 C 0 km/h
1239 15-07-2003 15:20:01 32.8 C 7.04 g/m*3 32.8 C 0 km/h
1240 15-07-2003 15:30:01 32.8 C 7.04 g/m*3 32.8 C 0 km/h
1241 15-07-2003 15:40:02 33.1 C 7.16 g/m*3 33.1 C 0 km/h
1242 15-07-2003 15:50:02 33.2 C 7.2 g/m*3 33.2 C 0 km/h
1243 15-07-2003 16:00:02 33.3 C 7.23 g/m*3 33.3 C 0 km/h
1244 15-07-2003 16:10:00 33.5 C 7.31 g/m*3 33.5 C 0 km/h
1245 15-07-2003 16:20:00 33.7 C 7.39 g/m*3 33.7 C 0 km/h
1246 15-07-2003 16:30:00 33.4 C 7.27 g/m*3 33.4 C 0 km/h
1247 15-07-2003 16:40:01 33.8 C 7.43 g/m*3 33.8 C 0 km/h
1248 15-07-2003 16:50:01 34.1 C 7.54 g/m*3 34.1 C 0 km/h
1249 15-07-2003 17:00:01 34.4 C 7.66 g/m*3 34.4 C 0 km/h
1250 15-07-2003 17:10:02 34.4 C 7.66 g/m*3 34.4 C 0 km/h
Sensor: Nr:Datum:Temp:Abs-Feuchte:Windchill:Wind:
Aussen-T/F 1251 15-07-2003 17:20:02 34.4 C 7.66 g/m*3 34.4 C 0 km/h
1252 15-07-2003 17:30:02 34.6 C 7.74 g/m*3 34.6 C 0 km/h
1253 15-07-2003 17:40:01 34.4 C 7.66 g/m*3 34.4 C 0 km/h
1254 15-07-2003 17:50:01 34.2 C 7.58 g/m*3 34.2 C 0 km/h
1255 15-07-2003 18:00:01 34.3 C 7.62 g/m*3 34.3 C 0 km/h
1256 15-07-2003 18:10:01 34.5 C 7.7 g/m*3 34.5 C 0 km/h
1257 15-07-2003 18:20:01 34.5 C 7.7 g/m*3 34.5 C 0 km/h
1258 15-07-2003 18:30:01 34.6 C 7.74 g/m*3 34.6 C 0 km/h
1259 15-07-2003 18:40:01 34.6 C 7.74 g/m*3 34.6 C 0 km/h
1260 15-07-2003 18:50:01 34.4 C 7.66 g/m*3 34.4 C 0 km/h
1261 15-07-2003 19:00:01 34.4 C 7.66 g/m*3 34.4 C 0 km/h
1262 15-07-2003 19:10:01 34.4 C 7.66 g/m*3 34.4 C 0 km/h
1263 15-07-2003 19:20:01 34.4 C 7.66 g/m*3 34.4 C 0 km/h
1264 15-07-2003 19:30:01 34.3 C 7.62 g/m*3 34.3 C 0 km/h
1265 15-07-2003 19:40:01 34.3 C 7.62 g/m*3 34.3 C 0 km/h
1266 15-07-2003 19:50:01 34.2 C 7.58 g/m*3 34.2 C 0 km/h
1267 15-07-2003 20:10:01 33.8 C 7.43 g/m*3 33.8 C 0 km/h
1268 15-07-2003 20:20:01 33.5 C 7.31 g/m*3 33.5 C 0 km/h
1269 15-07-2003 20:30:01 33.2 C 7.2 g/m*3 33.2 C 0 km/h
1270 15-07-2003 20:40:02 32.3 C 6.86 g/m*3 32.3 C 0 km/h
1271 15-07-2003 20:50:02 31.7 C 6.64 g/m*3 31.7 C 0 km/h
1272 15-07-2003 21:00:02 30.9 C 7.32 g/m*3 30.9 C 0 km/h
1273 15-07-2003 21:10:02 30.3 C 7.4 g/m*3 30.3 C 0 km/h
1274 15-07-2003 21:20:02 29.7 C 7.46 g/m*3 29.7 C 0 km/h
1275 15-07-2003 21:30:02 29.2 C 7.26 g/m*3 29.2 C 0 km/h
Sensor: Nr:Datum:Temp:Abs-Feuchte:Windchill:Wind:
Aussen-T/F 1276 15-07-2003 21:40:02 28.8 C 7.1 g/m*3 28.8 C 0 km/h
1277 15-07-2003 21:50:02 28.3 C 7.19 g/m*3 28.3 C 0 km/h
1278 15-07-2003 22:00:02 27.9 C 7.3 g/m*3 27.9 C 0 km/h
1279 15-07-2003 22:10:01 27.6 C 7.45 g/m*3 27.6 C 0 km/h
1280 15-07-2003 22:20:01 26.9 C 7.68 g/m*3 26.9 C 0 km/h
1281 15-07-2003 22:30:01 26.7 C 7.59 g/m*3 26.7 C 0 km/h
1282 15-07-2003 22:40:01 26.5 C 7.51 g/m*3 26.5 C 0 km/h
1283 15-07-2003 22:50:01 26.2 C 7.39 g/m*3 26.2 C 0 km/h
1284 15-07-2003 23:00:01 25.9 C 7.99 g/m*3 25.9 C 0 km/h
1285 15-07-2003 23:11:02 25.6 C 7.86 g/m*3 25.6 C 0 km/h
1286 15-07-2003 23:21:02 25.4 C 8 g/m*3 25.4 C 0 km/h
1287 15-07-2003 23:31:02 25.4 C 7.77 g/m*3 25.4 C 0 km/h
1288 15-07-2003 23:41:02 25.2 C 7.92 g/m*3 25.2 C 0 km/h
1289 15-07-2003 23:51:02 24.6 C 8.1 g/m*3 24.6 C 0 km/h
1290 16-07-2003 00:01:02 24.3 C 8.19 g/m*3 24.3 C 0 km/h
1291 16-07-2003 00:11:02 24.2 C 8.14 g/m*3 24.2 C 0 km/h
1292 16-07-2003 00:21:02 24.2 C 8.14 g/m*3 24.2 C 0 km/h
1293 16-07-2003 00:31:02 24 C 8.27 g/m*3 24 C 0 km/h
1294 16-07-2003 00:41:02 23.8 C 8.39 g/m*3 23.8 C 0 km/h
1295 16-07-2003 00:51:02 23.6 C 8.51 g/m*3 23.6 C 0 km/h
1296 16-07-2003 01:01:02 23.3 C 8.57 g/m*3 23.3 C 0 km/h
1297 16-07-2003 01:11:02 23.2 C 8.52 g/m*3 23.2 C 0 km/h
1298 16-07-2003 01:21:02 22.8 C 8.94 g/m*3 22.8 C 0 km/h
1299 16-07-2003 01:31:02 22.4 C 8.54 g/m*3 22.4 C 0 km/h
1300 16-07-2003 01:41:02 22.3 C 8.69 g/m*3 22.3 C 0 km/h
Sensor: Nr:Datum:Temp:Abs-Feuchte:Windchill:Wind:
Aussen-T/F 1301 16-07-2003 01:51:02 22.1 C 8.39 g/m*3 22.1 C 0 km/h
1302 16-07-2003 02:01:02 22.2 C 8.64 g/m*3 22.2 C 0 km/h
1303 16-07-2003 02:11:02 21.9 C 8.68 g/m*3 21.9 C 0 km/h
1304 16-07-2003 02:21:02 21.7 C 8.97 g/m*3 21.7 C 0 km/h
1305 16-07-2003 02:31:02 21.5 C 8.86 g/m*3 21.5 C 0 km/h
1306 16-07-2003 02:41:02 21.3 C 8.76 g/m*3 21.3 C 0 km/h
1307 16-07-2003 02:51:02 21.2 C 8.71 g/m*3 21.2 C 0 km/h
1308 16-07-2003 03:01:02 21 C 8.79 g/m*3 21 C 0 km/h
1309 16-07-2003 03:11:02 20.7 C 9 g/m*3 20.7 C 0 km/h
1310 16-07-2003 03:21:02 20.5 C 9.07 g/m*3 20.5 C 0 km/h
1311 16-07-2003 03:31:02 20.3 C 9.15 g/m*3 20.3 C 0 km/h
1312 16-07-2003 03:41:02 20.2 C 9.09 g/m*3 20.2 C 0 km/h
1313 16-07-2003 03:51:02 20.1 C 9.04 g/m*3 20.1 C 0 km/h
1314 16-07-2003 04:01:02 19.9 C 9.28 g/m*3 19.9 C 0 km/h
1315 16-07-2003 04:11:02 19.6 C 9.28 g/m*3 19.6 C 0 km/h
1316 16-07-2003 04:21:02 19.5 C 9.23 g/m*3 19.5 C 0 km/h
1317 16-07-2003 04:31:02 19.5 C 9.23 g/m*3 19.5 C 0 km/h
1318 16-07-2003 04:41:02 19.4 C 9.34 g/m*3 19.4 C 0 km/h
1319 16-07-2003 04:51:02 19.3 C 9.12 g/m*3 19.3 C 0 km/h
1320 16-07-2003 05:01:02 19.2 C 9.23 g/m*3 19.2 C 0 km/h
1321 16-07-2003 05:11:02 19.1 C 9.34 g/m*3 19.1 C 0 km/h
1322 16-07-2003 05:21:02 18.9 C 9.4 g/m*3 18.9 C 0 km/h
1323 16-07-2003 05:31:02 18.8 C 9.5 g/m*3 18.8 C 0 km/h
1324 16-07-2003 05:41:02 18.7 C 9.45 g/m*3 18.7 C 0 km/h
1325 16-07-2003 05:51:02 18.6 C 9.55 g/m*3 18.6 C 0 km/h
Sensor: Nr:Datum:Temp:Abs-Feuchte:Windchill:Wind:
Aussen-T/F 1326 16-07-2003 06:01:02 18.7 C 9.61 g/m*3 18.7 C 0 km/h
1327 16-07-2003 06:11:02 18.7 C 9.77 g/m*3 18.7 C 0 km/h
1328 16-07-2003 06:21:02 18.8 C 9.82 g/m*3 18.8 C 0 km/h
1329 16-07-2003 06:31:02 19 C 9.78 g/m*3 19 C 0 km/h
1330 16-07-2003 06:41:02 19.2 C 9.89 g/m*3 19.2 C 0 km/h
1331 16-07-2003 06:51:02 19.3 C 9.79 g/m*3 19.3 C 0 km/h
1332 16-07-2003 07:01:02 19.7 C 9.85 g/m*3 19.7 C 0 km/h
1333 16-07-2003 07:11:02 20.1 C 9.91 g/m*3 20.1 C 0 km/h
1334 16-07-2003 07:21:02 20.4 C 10.08 g/m*3 20.4 C 0 km/h
1335 16-07-2003 07:31:02 20.7 C 10.08 g/m*3 20.7 C 0 km/h
1336 16-07-2003 07:41:02 21 C 10.26 g/m*3 21 C 0 km/h
1337 16-07-2003 07:51:02 21.1 C 10.32 g/m*3 21.1 C 0 km/h
1338 16-07-2003 08:01:02 21.3 C 10.25 g/m*3 21.3 C 0 km/h
1339 16-07-2003 08:11:01 21.5 C 10.37 g/m*3 21.5 C 0 km/h
1340 16-07-2003 08:21:01 21.8 C 10.17 g/m*3 21.8 C 0 km/h
1341 16-07-2003 08:31:01 22 C 10.09 g/m*3 22 C 0 km/h
1342 16-07-2003 08:41:01 22.2 C 10.21 g/m*3 22.2 C 0 km/h
1343 16-07-2003 08:51:01 22.5 C 9.79 g/m*3 22.5 C 0 km/h
1344 16-07-2003 09:01:01 22.9 C 9.81 g/m*3 22.9 C 0 km/h
1345 16-07-2003 09:11:01 23.2 C 9.15 g/m*3 23.2 C 0 km/h
1346 16-07-2003 09:21:01 23.7 C 9.41 g/m*3 23.7 C 0 km/h
1347 16-07-2003 09:31:01 24.1 C 9.19 g/m*3 24.1 C 0 km/h
1348 16-07-2003 09:41:01 24.4 C 9.12 g/m*3 24.4 C 0 km/h
1349 16-07-2003 09:51:01 24.8 C 9.33 g/m*3 24.8 C 0 km/h
1350 16-07-2003 10:01:01 25.4 C 9.42 g/m*3 25.4 C 0 km/h
Sensor: Nr:Datum:Temp:Abs-Feuchte:Windchill:Wind:
Aussen-T/F 1351 16-07-2003 10:11:01 26.2 C 9.6 g/m*3 26.2 C 0 km/h
1352 16-07-2003 10:21:01 26.9 C 9.47 g/m*3 26.9 C 0 km/h
1353 16-07-2003 10:31:01 27.6 C 9.31 g/m*3 27.6 C 0 km/h
1354 16-07-2003 10:41:01 28 C 8.97 g/m*3 28 C 0 km/h
1355 16-07-2003 10:51:01 28 C 8.97 g/m*3 28 C 0 km/h
1356 16-07-2003 11:01:01 28.8 C 9.09 g/m*3 28.8 C 0 km/h
1357 16-07-2003 11:11:02 29.1 C 8.95 g/m*3 29.1 C 0 km/h
1358 16-07-2003 11:21:02 29.8 C 9.3 g/m*3 29.8 C 0 km/h
1359 16-07-2003 11:31:02 30.3 C 9.25 g/m*3 30.3 C 0 km/h
1360 16-07-2003 11:41:01 30.4 C 8.99 g/m*3 30.4 C 0 km/h
1361 16-07-2003 11:51:01 31 C 8.64 g/m*3 31 C 0 km/h
1362 16-07-2003 12:01:01 31.2 C 8.41 g/m*3 31.2 C 0 km/h
1363 16-07-2003 12:11:02 31.6 C 8.26 g/m*3 31.6 C 0 km/h
1364 16-07-2003 12:21:02 31.8 C 7.35 g/m*3 31.8 C 0 km/h
1365 16-07-2003 12:31:02 31.8 C 7.35 g/m*3 31.8 C 0 km/h
1366 16-07-2003 12:41:01 31.8 C 7.68 g/m*3 31.8 C 0 km/h
1367 16-07-2003 12:51:01 32.1 C 7.47 g/m*3 32.1 C 0 km/h
1368 16-07-2003 13:01:01 32.3 C 7.2 g/m*3 32.3 C 0 km/h
1369 16-07-2003 13:11:01 32.9 C 7.08 g/m*3 32.9 C 0 km/h
1370 16-07-2003 13:21:01 33.3 C 7.23 g/m*3 33.3 C 0 km/h
1371 16-07-2003 13:31:01 33.3 C 7.23 g/m*3 33.3 C 0 km/h
1372 16-07-2003 13:41:01 33.7 C 7.39 g/m*3 33.7 C 0 km/h
1373 16-07-2003 13:51:01 33.9 C 7.46 g/m*3 33.9 C 0 km/h
1374 16-07-2003 14:01:01 33.6 C 7.35 g/m*3 33.6 C 0 km/h
1375 16-07-2003 14:11:01 33.8 C 7.43 g/m*3 33.8 C 0 km/h
Sensor: Nr:Datum:Temp:Abs-Feuchte:Windchill:Wind:
Aussen-T/F 1376 16-07-2003 14:21:01 33.8 C 7.43 g/m*3 33.8 C 0 km/h
1377 16-07-2003 14:31:01 34 C 7.5 g/m*3 34 C 0 km/h
1378 16-07-2003 14:41:01 33.8 C 7.43 g/m*3 33.8 C 0 km/h
1379 16-07-2003 14:51:01 33.5 C 7.31 g/m*3 33.5 C 0 km/h
1380 16-07-2003 15:01:01 33.7 C 7.39 g/m*3 33.7 C 0 km/h
1381 16-07-2003 15:11:01 33.8 C 7.43 g/m*3 33.8 C 0 km/h
1382 16-07-2003 15:21:01 33.9 C 7.46 g/m*3 33.9 C 0 km/h
1383 16-07-2003 15:31:01 34.2 C 7.58 g/m*3 34.2 C 0 km/h
1384 16-07-2003 15:41:01 34.4 C 7.66 g/m*3 34.4 C 0 km/h
1385 16-07-2003 15:51:01 33.8 C 7.43 g/m*3 33.8 C 0 km/h
1386 16-07-2003 16:01:01 33.9 C 7.46 g/m*3 33.9 C 0 km/h
1387 16-07-2003 16:11:01 33.9 C 7.46 g/m*3 33.9 C 0 km/h
1388 16-07-2003 16:21:01 33.8 C 7.43 g/m*3 33.8 C 0 km/h
1389 16-07-2003 16:31:01 33.8 C 7.43 g/m*3 33.8 C 0 km/h
1390 16-07-2003 16:41:01 33.8 C 7.43 g/m*3 33.8 C 0 km/h
1391 16-07-2003 16:51:01 34 C 7.5 g/m*3 34 C 0 km/h
1392 16-07-2003 17:01:01 33.9 C 7.46 g/m*3 33.9 C 0 km/h
1393 16-07-2003 17:11:02 34 C 7.5 g/m*3 34 C 0 km/h
1394 16-07-2003 17:21:02 33.7 C 7.39 g/m*3 33.7 C 0 km/h
1395 16-07-2003 17:31:02 33.5 C 7.31 g/m*3 33.5 C 0 km/h
1396 16-07-2003 17:41:01 33.5 C 7.31 g/m*3 33.5 C 0 km/h
1397 16-07-2003 17:51:01 33.7 C 7.39 g/m*3 33.7 C 0 km/h
1398 16-07-2003 18:01:01 33.4 C 7.27 g/m*3 33.4 C 0 km/h
1399 16-07-2003 18:11:01 33 C 7.12 g/m*3 33 C 0 km/h
1400 16-07-2003 18:21:01 32.7 C 7.71 g/m*3 32.7 C 0 km/h
Sensor: Nr:Datum:Temp:Abs-Feuchte:Windchill:Wind:
Aussen-T/F 1401 16-07-2003 18:31:01 32.4 C 7.59 g/m*3 32.4 C 0 km/h
1402 16-07-2003 18:41:01 32.3 C 8.23 g/m*3 32.3 C 0 km/h
1403 16-07-2003 18:51:01 32.3 C 8.23 g/m*3 32.3 C 0 km/h
1404 16-07-2003 19:01:01 32.1 C 8.48 g/m*3 32.1 C 0 km/h
1405 16-07-2003 19:11:01 32.2 C 8.87 g/m*3 32.2 C 0 km/h
1406 16-07-2003 19:21:01 31.9 C 8.39 g/m*3 31.9 C 0 km/h
1407 16-07-2003 19:31:01 31.8 C 8.35 g/m*3 31.8 C 0 km/h
1408 16-07-2003 19:41:01 31.8 C 8.68 g/m*3 31.8 C 0 km/h
1409 16-07-2003 19:51:01 31.3 C 8.46 g/m*3 31.3 C 0 km/h
1410 16-07-2003 20:01:01 31.2 C 8.41 g/m*3 31.2 C 0 km/h
1411 16-07-2003 20:11:02 31.2 C 8.73 g/m*3 31.2 C 0 km/h
1412 16-07-2003 20:21:02 31 C 8.96 g/m*3 31 C 0 km/h
1413 16-07-2003 20:31:02 30.9 C 9.23 g/m*3 30.9 C 0 km/h
1414 16-07-2003 20:41:00 30.7 C 9.13 g/m*3 30.7 C 0 km/h
1415 16-07-2003 20:51:00 30.4 C 9.3 g/m*3 30.4 C 0 km/h
1416 16-07-2003 21:01:00 30.4 C 9.61 g/m*3 30.4 C 0 km/h
1417 16-07-2003 21:11:01 30.3 C 9.55 g/m*3 30.3 C 0 km/h
1418 16-07-2003 21:21:01 30 C 9.1 g/m*3 30 C 0 km/h
1419 16-07-2003 21:31:01 29.6 C 9.2 g/m*3 29.6 C 0 km/h
1420 16-07-2003 21:41:02 28.1 C 10.12 g/m*3 28.1 C 0 km/h
1421 16-07-2003 21:51:02 27 C 10.29 g/m*3 27 C 0 km/h
1422 16-07-2003 22:01:02 26.5 C 10.26 g/m*3 26.5 C 0 km/h
1423 16-07-2003 22:11:02 26.3 C 10.4 g/m*3 26.3 C 0 km/h
1424 16-07-2003 22:21:02 26 C 10.47 g/m*3 26 C 0 km/h
1425 16-07-2003 22:31:02 26.1 C 10.53 g/m*3 26.1 C 0 km/h
Sensor: Nr:Datum:Temp:Abs-Feuchte:Windchill:Wind:
Aussen-T/F 1426 16-07-2003 22:41:02 26.2 C 10.59 g/m*3 26.2 C 0 km/h
1427 16-07-2003 22:51:02 26.1 C 10.77 g/m*3 26.1 C 0 km/h
1428 16-07-2003 23:01:02 25.8 C 11.07 g/m*3 25.8 C 0 km/h
1429 16-07-2003 23:12:01 25.6 C 11.19 g/m*3 25.6 C 0 km/h
1430 16-07-2003 23:22:01 25.4 C 11.06 g/m*3 25.4 C 0 km/h
1431 16-07-2003 23:32:01 25.4 C 11.06 g/m*3 25.4 C 0 km/h
1432 16-07-2003 23:42:01 25.3 C 11.24 g/m*3 25.3 C 0 km/h
1433 16-07-2003 23:52:01 25.3 C 11.24 g/m*3 25.3 C 0 km/h
1434 17-07-2003 00:02:01 25.3 C 11 g/m*3 25.3 C 0 km/h
1435 17-07-2003 00:12:01 25.2 C 10.94 g/m*3 25.2 C 0 km/h
1436 17-07-2003 00:22:01 24.9 C 11.22 g/m*3 24.9 C 0 km/h
1437 17-07-2003 00:32:01 24.8 C 11.38 g/m*3 24.8 C 0 km/h
1438 17-07-2003 00:42:01 24.6 C 11.48 g/m*3 24.6 C 0 km/h
1439 17-07-2003 00:52:01 24.4 C 11.57 g/m*3 24.4 C 0 km/h
1440 17-07-2003 01:02:01 24.3 C 11.73 g/m*3 24.3 C 0 km/h
1441 17-07-2003 01:12:01 23.7 C 11.76 g/m*3 23.7 C 0 km/h
1442 17-07-2003 01:22:01 23.4 C 11.99 g/m*3 23.4 C 0 km/h
1443 17-07-2003 01:32:01 23 C 11.92 g/m*3 23 C 0 km/h
1444 17-07-2003 01:42:01 22.8 C 12.19 g/m*3 22.8 C 0 km/h
1445 17-07-2003 01:52:01 22.6 C 12.25 g/m*3 22.6 C 0 km/h
1446 17-07-2003 02:02:01 22.4 C 12.31 g/m*3 22.4 C 0 km/h
1447 17-07-2003 02:12:01 22.3 C 12.24 g/m*3 22.3 C 0 km/h
1448 17-07-2003 02:22:01 22.2 C 12.37 g/m*3 22.2 C 0 km/h
1449 17-07-2003 02:32:01 21.9 C 12.54 g/m*3 21.9 C 0 km/h
1450 17-07-2003 02:42:01 21.7 C 12.59 g/m*3 21.7 C 0 km/h
Sensor: Nr:Datum:Temp:Abs-Feuchte:Windchill:Wind:
Aussen-T/F 1451 17-07-2003 02:52:01 21.5 C 12.63 g/m*3 21.5 C 0 km/h
1452 17-07-2003 03:02:01 21.4 C 12.56 g/m*3 21.4 C 0 km/h
1453 17-07-2003 03:12:01 21.2 C 12.6 g/m*3 21.2 C 0 km/h
1454 17-07-2003 03:22:01 21 C 12.46 g/m*3 21 C 0 km/h
1455 17-07-2003 03:32:01 20.9 C 12.57 g/m*3 20.9 C 0 km/h
1456 17-07-2003 03:42:01 20.8 C 12.49 g/m*3 20.8 C 0 km/h
1457 17-07-2003 03:52:01 20.5 C 12.46 g/m*3 20.5 C 0 km/h
1458 17-07-2003 04:02:01 20.4 C 12.38 g/m*3 20.4 C 0 km/h
1459 17-07-2003 04:12:01 20.3 C 12.31 g/m*3 20.3 C 0 km/h
1460 17-07-2003 04:22:01 20.3 C 12.31 g/m*3 20.3 C 0 km/h
1461 17-07-2003 04:32:01 20.1 C 12.34 g/m*3 20.1 C 0 km/h
1462 17-07-2003 04:42:01 20 C 12.27 g/m*3 20 C 0 km/h
1463 17-07-2003 04:52:01 20 C 12.1 g/m*3 20 C 0 km/h
1464 17-07-2003 05:02:01 20 C 12.1 g/m*3 20 C 0 km/h
1465 17-07-2003 05:12:01 20 C 11.75 g/m*3 20 C 0 km/h
1466 17-07-2003 05:22:01 20.2 C 11.19 g/m*3 20.2 C 0 km/h
1467 17-07-2003 05:32:01 20.4 C 11.14 g/m*3 20.4 C 0 km/h
1468 17-07-2003 05:42:01 20.3 C 11.08 g/m*3 20.3 C 0 km/h
1469 17-07-2003 05:52:01 20.2 C 11.19 g/m*3 20.2 C 0 km/h
1470 17-07-2003 06:02:01 20.1 C 11.3 g/m*3 20.1 C 0 km/h
1471 17-07-2003 06:12:01 20 C 11.06 g/m*3 20 C 0 km/h
1472 17-07-2003 06:22:01 20 C 11.06 g/m*3 20 C 0 km/h
1473 17-07-2003 06:32:01 20 C 11.06 g/m*3 20 C 0 km/h
1474 17-07-2003 06:42:01 19.9 C 11.17 g/m*3 19.9 C 0 km/h
1475 17-07-2003 06:52:01 20 C 11.06 g/m*3 20 C 0 km/h
Sensor: Nr:Datum:Temp:Abs-Feuchte:Windchill:Wind:
Aussen-T/F 1476 17-07-2003 07:02:01 20 C 11.06 g/m*3 20 C 0 km/h
1477 17-07-2003 07:12:01 20 C 11.06 g/m*3 20 C 0 km/h
1478 17-07-2003 07:22:01 20 C 10.89 g/m*3 20 C 0 km/h
1479 17-07-2003 07:32:01 20 C 10.89 g/m*3 20 C 0 km/h
1480 17-07-2003 07:42:01 20.2 C 11.02 g/m*3 20.2 C 0 km/h
1481 17-07-2003 07:52:01 20.3 C 11.08 g/m*3 20.3 C 0 km/h
1482 17-07-2003 08:02:02 20.4 C 11.14 g/m*3 20.4 C 0 km/h
1483 17-07-2003 08:12:02 20.4 C 10.97 g/m*3 20.4 C 0 km/h
1484 17-07-2003 08:22:02 20.6 C 10.92 g/m*3 20.6 C 0 km/h
1485 17-07-2003 08:32:01 20.8 C 10.68 g/m*3 20.8 C 0 km/h
1486 17-07-2003 08:42:01 21 C 10.44 g/m*3 21 C 0 km/h
1487 17-07-2003 08:52:01 20.9 C 10.56 g/m*3 20.9 C 0 km/h
1488 17-07-2003 09:02:01 21.1 C 10.5 g/m*3 21.1 C 0 km/h
1489 17-07-2003 09:12:01 21.3 C 10.44 g/m*3 21.3 C 0 km/h
1490 17-07-2003 09:22:01 21.3 C 10.25 g/m*3 21.3 C 0 km/h
1491 17-07-2003 09:32:01 21.6 C 10.43 g/m*3 21.6 C 0 km/h
1492 17-07-2003 09:42:01 21.6 C 10.24 g/m*3 21.6 C 0 km/h
1493 17-07-2003 09:52:01 21.7 C 10.11 g/m*3 21.7 C 0 km/h
1494 17-07-2003 10:02:01 22.5 C 10.19 g/m*3 22.5 C 0 km/h
1495 17-07-2003 10:12:01 22.9 C 10.01 g/m*3 22.9 C 0 km/h
1496 17-07-2003 10:22:01 22.9 C 10.01 g/m*3 22.9 C 0 km/h
1497 17-07-2003 10:32:01 22.6 C 9.64 g/m*3 22.6 C 0 km/h
1498 17-07-2003 10:42:01 22.6 C 9.64 g/m*3 22.6 C 0 km/h
1499 17-07-2003 10:52:01 23.1 C 9.51 g/m*3 23.1 C 0 km/h
1500 17-07-2003 11:02:02 23.8 C 9.25 g/m*3 23.8 C 0 km/h
Sensor: Nr:Datum:Temp:Abs-Feuchte:Windchill:Wind:
Aussen-T/F 1501 17-07-2003 11:12:02 23.2 C 8.94 g/m*3 23.2 C 0 km/h
1502 17-07-2003 11:22:02 22.7 C 9.29 g/m*3 22.7 C 0 km/h
1503 17-07-2003 11:32:02 23.2 C 9.36 g/m*3 23.2 C 0 km/h
1504 17-07-2003 11:42:02 23.1 C 8.89 g/m*3 23.1 C 0 km/h
1505 17-07-2003 11:52:02 22.8 C 9.35 g/m*3 22.8 C 0 km/h
1506 17-07-2003 12:02:01 22.9 C 9.4 g/m*3 22.9 C 0 km/h
1507 17-07-2003 12:12:01 22.5 C 9.39 g/m*3 22.5 C 0 km/h
1508 17-07-2003 12:22:01 22.4 C 9.33 g/m*3 22.4 C 0 km/h
1509 17-07-2003 12:32:01 22.5 C 9.39 g/m*3 22.5 C 0 km/h
1510 17-07-2003 12:42:01 22.2 C 9.23 g/m*3 22.2 C 0 km/h
1511 17-07-2003 12:52:01 22.6 C 9.64 g/m*3 22.6 C 0 km/h
1512 17-07-2003 13:02:01 22.5 C 9.39 g/m*3 22.5 C 0 km/h
1513 17-07-2003 13:12:01 23.2 C 9.36 g/m*3 23.2 C 0 km/h
1514 17-07-2003 13:22:01 23.3 C 8.99 g/m*3 23.3 C 0 km/h
1515 17-07-2003 13:32:01 23.6 C 9.36 g/m*3 23.6 C 0 km/h
1516 17-07-2003 13:42:01 24.8 C 8.88 g/m*3 24.8 C 0 km/h
1517 17-07-2003 13:52:01 23.9 C 8.87 g/m*3 23.9 C 0 km/h
1518 17-07-2003 14:02:02 23.1 C 9.1 g/m*3 23.1 C 0 km/h
1519 17-07-2003 14:12:02 23.2 C 8.94 g/m*3 23.2 C 0 km/h
1520 17-07-2003 14:22:02 23.3 C 8.99 g/m*3 23.3 C 0 km/h
1521 17-07-2003 14:32:01 23.6 C 9.15 g/m*3 23.6 C 0 km/h
1522 17-07-2003 14:52:01 23 C 8.84 g/m*3 23 C 0 km/h
1523 17-07-2003 15:02:01 23 C 8.63 g/m*3 23 C 0 km/h
1524 17-07-2003 15:12:01 22.6 C 8.44 g/m*3 22.6 C 0 km/h
1525 17-07-2003 15:22:01 22.5 C 8.59 g/m*3 22.5 C 0 km/h
Sensor: Nr:Datum:Temp:Abs-Feuchte:Windchill:Wind:
Aussen-T/F 1526 17-07-2003 15:32:00 22.2 C 8.64 g/m*3 22.2 C 0 km/h
1527 17-07-2003 15:42:00 22.2 C 8.44 g/m*3 22.2 C 0 km/h
1528 17-07-2003 15:52:00 22.2 C 8.64 g/m*3 22.2 C 0 km/h
1529 17-07-2003 16:02:01 22.3 C 8.49 g/m*3 22.3 C 0 km/h
1530 17-07-2003 16:12:01 22.2 C 8.05 g/m*3 22.2 C 0 km/h
1531 17-07-2003 16:22:01 22.3 C 8.1 g/m*3 22.3 C 0 km/h
1532 17-07-2003 16:32:01 22.1 C 8 g/m*3 22.1 C 0 km/h
1533 17-07-2003 16:42:01 22.8 C 8.33 g/m*3 22.8 C 0 km/h
1534 17-07-2003 16:52:01 23.7 C 8.56 g/m*3 23.7 C 0 km/h
1535 17-07-2003 17:02:01 24.5 C 8.06 g/m*3 24.5 C 0 km/h
1536 17-07-2003 17:12:01 23.6 C 8.29 g/m*3 23.6 C 0 km/h
1537 17-07-2003 17:22:01 23.4 C 8.41 g/m*3 23.4 C 0 km/h
1538 17-07-2003 17:32:02 24.3 C 8.19 g/m*3 24.3 C 0 km/h
1539 17-07-2003 17:42:02 24.4 C 8.23 g/m*3 24.4 C 0 km/h
1540 17-07-2003 17:52:02 24.4 C 8.23 g/m*3 24.4 C 0 km/h
1541 17-07-2003 18:02:01 24.5 C 8.28 g/m*3 24.5 C 0 km/h
1542 17-07-2003 18:12:01 23.6 C 8.51 g/m*3 23.6 C 0 km/h
1543 17-07-2003 18:22:01 23.1 C 8.68 g/m*3 23.1 C 0 km/h
1544 17-07-2003 18:32:01 22.1 C 8.59 g/m*3 22.1 C 0 km/h
1545 17-07-2003 18:42:01 21.8 C 8.83 g/m*3 21.8 C 0 km/h
1546 17-07-2003 18:52:01 21.8 C 8.83 g/m*3 21.8 C 0 km/h
1547 17-07-2003 19:02:02 21.9 C 8.68 g/m*3 21.9 C 0 km/h
1548 17-07-2003 19:12:02 21.7 C 8.58 g/m*3 21.7 C 0 km/h
1549 17-07-2003 19:22:02 21.5 C 8.67 g/m*3 21.5 C 0 km/h
1550 17-07-2003 19:32:01 21.5 C 8.67 g/m*3 21.5 C 0 km/h
Sensor: Nr:Datum:Temp:Abs-Feuchte:Windchill:Wind:
Aussen-T/F 1551 17-07-2003 19:42:01 21.5 C 8.67 g/m*3 21.5 C 0 km/h
1552 17-07-2003 19:52:01 21.4 C 8.25 g/m*3 21.4 C 0 km/h
1553 17-07-2003 20:02:00 21.3 C 8.2 g/m*3 21.3 C 0 km/h
1554 17-07-2003 20:12:00 21.3 C 8.02 g/m*3 21.3 C 0 km/h
1555 17-07-2003 20:22:00 21.2 C 8.15 g/m*3 21.2 C 0 km/h
1556 17-07-2003 20:32:02 21.1 C 8.11 g/m*3 21.1 C 0 km/h
1557 17-07-2003 20:42:02 20.8 C 8.33 g/m*3 20.8 C 0 km/h
1558 17-07-2003 20:52:02 20.7 C 8.28 g/m*3 20.7 C 0 km/h
1559 17-07-2003 21:02:00 20.5 C 8.19 g/m*3 20.5 C 0 km/h
1560 17-07-2003 21:12:00 20.4 C 8.31 g/m*3 20.4 C 0 km/h
1561 17-07-2003 21:22:00 20.2 C 8.22 g/m*3 20.2 C 0 km/h
1562 17-07-2003 21:32:01 20.2 C 8.39 g/m*3 20.2 C 0 km/h
1563 17-07-2003 21:42:01 20.1 C 8.34 g/m*3 20.1 C 0 km/h
1564 17-07-2003 21:52:01 20 C 8.3 g/m*3 20 C 0 km/h
1565 17-07-2003 22:03:03 19.8 C 8.54 g/m*3 19.8 C 0 km/h
1566 17-07-2003 22:13:03 19.6 C 8.44 g/m*3 19.6 C 0 km/h
1567 17-07-2003 22:23:03 19.3 C 8.46 g/m*3 19.3 C 0 km/h
1568 17-07-2003 22:33:03 19.4 C 8.51 g/m*3 19.4 C 0 km/h
1569 17-07-2003 22:43:03 19.3 C 8.63 g/m*3 19.3 C 0 km/h
1570 17-07-2003 22:53:03 19.2 C 8.57 g/m*3 19.2 C 0 km/h
1571 17-07-2003 23:03:03 19.2 C 8.57 g/m*3 19.2 C 0 km/h
1572 17-07-2003 23:13:03 19.1 C 8.52 g/m*3 19.1 C 0 km/h
1573 17-07-2003 23:23:03 18.8 C 8.54 g/m*3 18.8 C 0 km/h
1574 17-07-2003 23:33:03 18.5 C 8.7 g/m*3 18.5 C 0 km/h
1575 17-07-2003 23:43:03 18.2 C 8.55 g/m*3 18.2 C 0 km/h
Sensor: Nr:Datum:Temp:Abs-Feuchte:Windchill:Wind:
Aussen-T/F 1576 17-07-2003 23:53:03 18.1 C 8.65 g/m*3 18.1 C 0 km/h
1577 18-07-2003 00:03:03 17.8 C 8.65 g/m*3 17.8 C 0 km/h
1578 18-07-2003 00:13:03 17.7 C 8.75 g/m*3 17.7 C 0 km/h
1579 18-07-2003 00:23:03 17.5 C 8.8 g/m*3 17.5 C 0 km/h
1580 18-07-2003 00:33:03 17.7 C 8.9 g/m*3 17.7 C 0 km/h
1581 18-07-2003 00:43:03 17.7 C 8.9 g/m*3 17.7 C 0 km/h
1582 18-07-2003 00:53:03 17.8 C 8.95 g/m*3 17.8 C 0 km/h
1583 18-07-2003 01:03:03 17.8 C 9.11 g/m*3 17.8 C 0 km/h
1584 18-07-2003 01:13:03 17.8 C 9.11 g/m*3 17.8 C 0 km/h
1585 18-07-2003 01:23:03 17.8 C 9.11 g/m*3 17.8 C 0 km/h
1586 18-07-2003 01:33:03 17.9 C 9.01 g/m*3 17.9 C 0 km/h
1587 18-07-2003 01:43:03 17.8 C 9.11 g/m*3 17.8 C 0 km/h
1588 18-07-2003 01:53:03 17.7 C 9.2 g/m*3 17.7 C 0 km/h
1589 18-07-2003 02:03:03 17.5 C 9.09 g/m*3 17.5 C 0 km/h
1590 18-07-2003 02:13:03 17.4 C 9.19 g/m*3 17.4 C 0 km/h
1591 18-07-2003 02:23:03 17.5 C 9.24 g/m*3 17.5 C 0 km/h
1592 18-07-2003 02:33:03 17.6 C 9.15 g/m*3 17.6 C 0 km/h
1593 18-07-2003 02:43:03 17.5 C 8.95 g/m*3 17.5 C 0 km/h
1594 18-07-2003 02:53:03 17.5 C 8.95 g/m*3 17.5 C 0 km/h
1595 18-07-2003 03:03:03 17.3 C 8.99 g/m*3 17.3 C 0 km/h
1596 18-07-2003 03:13:03 17.2 C 8.93 g/m*3 17.2 C 0 km/h
1597 18-07-2003 03:23:03 17.2 C 8.93 g/m*3 17.2 C 0 km/h
1598 18-07-2003 03:33:03 17.1 C 8.88 g/m*3 17.1 C 0 km/h
1599 18-07-2003 03:43:03 17.1 C 9.03 g/m*3 17.1 C 0 km/h
1600 18-07-2003 03:53:03 16.9 C 9.21 g/m*3 16.9 C 0 km/h
Sensor: Nr:Datum:Temp:Abs-Feuchte:Windchill:Wind:
Aussen-T/F 1601 18-07-2003 04:03:03 16.9 C 9.21 g/m*3 16.9 C 0 km/h
1602 18-07-2003 04:13:03 16.9 C 9.21 g/m*3 16.9 C 0 km/h
1603 18-07-2003 04:23:03 16.8 C 9.29 g/m*3 16.8 C 0 km/h
1604 18-07-2003 04:33:03 16.7 C 9.24 g/m*3 16.7 C 0 km/h
1605 18-07-2003 04:43:03 16.8 C 9.29 g/m*3 16.8 C 0 km/h
1606 18-07-2003 04:53:03 16.8 C 9.29 g/m*3 16.8 C 0 km/h
1607 18-07-2003 05:03:03 16.7 C 9.24 g/m*3 16.7 C 0 km/h
1608 18-07-2003 05:13:03 16.8 C 9.29 g/m*3 16.8 C 0 km/h
1609 18-07-2003 05:23:03 16.8 C 9.29 g/m*3 16.8 C 0 km/h
1610 18-07-2003 05:33:03 16.7 C 9.1 g/m*3 16.7 C 0 km/h
1611 18-07-2003 05:43:03 16.8 C 9.15 g/m*3 16.8 C 0 km/h
1612 18-07-2003 05:53:03 16.7 C 9.1 g/m*3 16.7 C 0 km/h
1613 18-07-2003 06:03:03 16.8 C 9.15 g/m*3 16.8 C 0 km/h
1614 18-07-2003 06:13:03 16.6 C 9.04 g/m*3 16.6 C 0 km/h
1615 18-07-2003 06:23:03 17 C 9.26 g/m*3 17 C 0 km/h
1616 18-07-2003 06:33:03 16.5 C 9.13 g/m*3 16.5 C 0 km/h
1617 18-07-2003 06:43:03 16.6 C 9.18 g/m*3 16.6 C 0 km/h
1618 18-07-2003 06:53:03 16.8 C 9.29 g/m*3 16.8 C 0 km/h
1619 18-07-2003 07:03:03 16.7 C 9.24 g/m*3 16.7 C 0 km/h
1620 18-07-2003 07:13:03 16.8 C 9.29 g/m*3 16.8 C 0 km/h
1621 18-07-2003 07:23:03 16.9 C 9.35 g/m*3 16.9 C 0 km/h
1622 18-07-2003 07:33:03 16.9 C 9.49 g/m*3 16.9 C 0 km/h
1623 18-07-2003 07:43:03 16.6 C 9.75 g/m*3 16.6 C 0 km/h
1624 18-07-2003 07:53:03 16.6 C 9.75 g/m*3 16.6 C 0 km/h
1625 18-07-2003 08:03:02 16.8 C 9.44 g/m*3 16.8 C 0 km/h
Sensor: Nr:Datum:Temp:Abs-Feuchte:Windchill:Wind:
Aussen-T/F 1626 18-07-2003 08:13:02 17.1 C 9.46 g/m*3 17.1 C 0 km/h
1627 18-07-2003 08:23:02 17.2 C 9.52 g/m*3 17.2 C 0 km/h
1628 18-07-2003 08:33:02 17.6 C 9.6 g/m*3 17.6 C 0 km/h
1629 18-07-2003 08:43:02 18.1 C 9.43 g/m*3 18.1 C 0 km/h
1630 18-07-2003 08:53:02 18.3 C 9.38 g/m*3 18.3 C 0 km/h
1631 18-07-2003 09:03:01 18.9 C 9.23 g/m*3 18.9 C 0 km/h
1632 18-07-2003 09:13:01 19.3 C 9.12 g/m*3 19.3 C 0 km/h
1633 18-07-2003 09:23:01 19.8 C 9.39 g/m*3 19.8 C 0 km/h
1634 18-07-2003 09:33:01 20.4 C 9.38 g/m*3 20.4 C 0 km/h
1635 18-07-2003 09:43:01 21 C 9.53 g/m*3 21 C 0 km/h
1636 18-07-2003 09:53:01 21.3 C 9.51 g/m*3 21.3 C 0 km/h
1637 18-07-2003 10:03:00 21.6 C 9.67 g/m*3 21.6 C 0 km/h
1638 18-07-2003 10:13:00 21.7 C 9.54 g/m*3 21.7 C 0 km/h
1639 18-07-2003 10:23:00 22.1 C 9.37 g/m*3 22.1 C 0 km/h
1640 18-07-2003 10:33:01 22.8 C 9.55 g/m*3 22.8 C 0 km/h
1641 18-07-2003 10:43:01 23.3 C 9.2 g/m*3 23.3 C 0 km/h
1642 18-07-2003 10:53:01 23.4 C 9.04 g/m*3 23.4 C 0 km/h
1643 18-07-2003 11:03:00 23.7 C 9.2 g/m*3 23.7 C 0 km/h
1644 18-07-2003 11:13:00 24.2 C 8.8 g/m*3 24.2 C 0 km/h
1645 18-07-2003 11:23:00 24.6 C 8.78 g/m*3 24.6 C 0 km/h
1646 18-07-2003 11:33:02 24.9 C 8.7 g/m*3 24.9 C 0 km/h
1647 18-07-2003 11:43:02 25.1 C 8.57 g/m*3 25.1 C 0 km/h
1648 18-07-2003 11:53:02 24.9 C 8.7 g/m*3 24.9 C 0 km/h
1649 18-07-2003 12:03:02 25.8 C 8.67 g/m*3 25.8 C 0 km/h
1650 18-07-2003 12:13:02 25.2 C 8.38 g/m*3 25.2 C 0 km/h
Sensor: Nr:Datum:Temp:Abs-Feuchte:Windchill:Wind:
Aussen-T/F 1651 18-07-2003 12:23:02 25 C 8.75 g/m*3 25 C 0 km/h
1652 18-07-2003 12:33:02 26.1 C 8.57 g/m*3 26.1 C 0 km/h
1653 18-07-2003 12:43:02 27.1 C 8.02 g/m*3 27.1 C 0 km/h
1654 18-07-2003 12:53:02 27.7 C 7.76 g/m*3 27.7 C 0 km/h
1655 18-07-2003 13:03:02 28 C 7.07 g/m*3 28 C 0 km/h
1656 18-07-2003 13:13:02 28.6 C 7.03 g/m*3 28.6 C 0 km/h
1657 18-07-2003 13:23:02 28.4 C 6.39 g/m*3 28.4 C 0 km/h
1658 18-07-2003 13:33:02 28.2 C 6.32 g/m*3 28.2 C 0 km/h
1659 18-07-2003 13:43:02 28.5 C 6.99 g/m*3 28.5 C 0 km/h
1660 18-07-2003 13:53:02 28.7 C 7.06 g/m*3 28.7 C 0 km/h
1661 18-07-2003 14:03:03 28.9 C 7.14 g/m*3 28.9 C 0 km/h
1662 18-07-2003 14:13:03 28 C 6.8 g/m*3 28 C 0 km/h
1663 18-07-2003 14:23:03 28.5 C 6.99 g/m*3 28.5 C 0 km/h
1664 18-07-2003 14:33:01 27.9 C 7.03 g/m*3 27.9 C 0 km/h
1665 18-07-2003 14:43:01 27.7 C 7.22 g/m*3 27.7 C 0 km/h
1666 18-07-2003 14:53:01 28.3 C 7.19 g/m*3 28.3 C 0 km/h
1667 18-07-2003 15:03:01 30 C 6.97 g/m*3 30 C 0 km/h
1668 18-07-2003 15:13:01 30 C 6.97 g/m*3 30 C 0 km/h
1669 18-07-2003 15:23:01 29.2 C 7.26 g/m*3 29.2 C 0 km/h
1670 18-07-2003 15:33:01 28.9 C 7.14 g/m*3 28.9 C 0 km/h
1671 18-07-2003 15:43:01 29 C 7.18 g/m*3 29 C 0 km/h
1672 18-07-2003 15:53:01 29.5 C 7.38 g/m*3 29.5 C 0 km/h
1673 18-07-2003 16:03:01 29.5 C 7.38 g/m*3 29.5 C 0 km/h
1674 18-07-2003 16:13:01 29.3 C 7.3 g/m*3 29.3 C 0 km/h
1675 18-07-2003 16:23:01 30 C 7.58 g/m*3 30 C 0 km/h
Sensor: Nr:Datum:Temp:Abs-Feuchte:Windchill:Wind:
Aussen-T/F 1676 18-07-2003 16:33:01 30.1 C 7.32 g/m*3 30.1 C 0 km/h
1677 18-07-2003 16:43:01 30.6 C 7.2 g/m*3 30.6 C 0 km/h
1678 18-07-2003 16:53:01 31.4 C 6.87 g/m*3 31.4 C 0 km/h
1679 18-07-2003 17:03:01 31 C 7.36 g/m*3 31 C 0 km/h
1680 18-07-2003 17:13:01 31.2 C 6.79 g/m*3 31.2 C 0 km/h
1681 18-07-2003 17:23:01 31.4 C 6.54 g/m*3 31.4 C 0 km/h
1682 18-07-2003 17:33:01 31 C 6.72 g/m*3 31 C 0 km/h
1683 18-07-2003 17:43:01 30.8 C 6.97 g/m*3 30.8 C 0 km/h
1684 18-07-2003 17:53:01 30.6 C 6.89 g/m*3 30.6 C 0 km/h
1685 18-07-2003 18:03:01 30.3 C 8.32 g/m*3 30.3 C 0 km/h
1686 18-07-2003 18:13:01 30.1 C 9.15 g/m*3 30.1 C 0 km/h
1687 18-07-2003 18:23:01 29.9 C 9.65 g/m*3 29.9 C 0 km/h
1688 18-07-2003 18:33:02 30.1 C 8.84 g/m*3 30.1 C 0 km/h
1689 18-07-2003 18:43:02 30.7 C 7.56 g/m*3 30.7 C 0 km/h
1690 18-07-2003 18:53:02 30.5 C 8.72 g/m*3 30.5 C 0 km/h
1691 18-07-2003 19:03:02 30.9 C 8.91 g/m*3 30.9 C 0 km/h
1692 18-07-2003 19:13:02 31.2 C 6.79 g/m*3 31.2 C 0 km/h
1693 18-07-2003 19:23:02 31.2 C 8.09 g/m*3 31.2 C 0 km/h
1694 18-07-2003 19:33:01 30.7 C 8.19 g/m*3 30.7 C 0 km/h
1695 18-07-2003 19:43:01 30 C 8.79 g/m*3 30 C 0 km/h
1696 18-07-2003 19:53:01 29.1 C 8.66 g/m*3 29.1 C 0 km/h
1697 18-07-2003 20:03:01 29.5 C 8.85 g/m*3 29.5 C 0 km/h
1698 18-07-2003 20:13:01 29.7 C 8.95 g/m*3 29.7 C 0 km/h
1699 18-07-2003 20:23:01 29.9 C 9.05 g/m*3 29.9 C 0 km/h
1700 18-07-2003 20:33:01 29.5 C 8.85 g/m*3 29.5 C 0 km/h
Sensor: Nr:Datum:Temp:Abs-Feuchte:Windchill:Wind:
Aussen-T/F 1701 18-07-2003 20:43:01 28.8 C 8.81 g/m*3 28.8 C 0 km/h
1702 18-07-2003 20:53:01 28 C 8.7 g/m*3 28 C 0 km/h
1703 18-07-2003 21:03:01 26.8 C 8.4 g/m*3 26.8 C 0 km/h
1704 18-07-2003 21:13:01 26.1 C 8.32 g/m*3 26.1 C 0 km/h
1705 18-07-2003 21:23:01 25.4 C 8.71 g/m*3 25.4 C 0 km/h
1706 18-07-2003 21:33:01 25.1 C 8.57 g/m*3 25.1 C 0 km/h
1707 18-07-2003 21:43:01 24.8 C 8.65 g/m*3 24.8 C 0 km/h
1708 18-07-2003 21:53:01 24.5 C 8.5 g/m*3 24.5 C 0 km/h
1709 18-07-2003 22:03:01 24.3 C 8.41 g/m*3 24.3 C 0 km/h
1710 18-07-2003 22:13:01 24 C 8.49 g/m*3 24 C 0 km/h
1711 18-07-2003 22:23:01 23.6 C 8.72 g/m*3 23.6 C 0 km/h
1712 18-07-2003 22:34:02 23.4 C 8.83 g/m*3 23.4 C 0 km/h
1713 18-07-2003 22:44:02 23.2 C 8.73 g/m*3 23.2 C 0 km/h
1714 18-07-2003 22:54:02 22.9 C 8.99 g/m*3 22.9 C 0 km/h
1715 18-07-2003 23:04:02 22.5 C 8.79 g/m*3 22.5 C 0 km/h
1716 18-07-2003 23:14:02 22.3 C 9.08 g/m*3 22.3 C 0 km/h
1717 18-07-2003 23:24:02 22.1 C 8.98 g/m*3 22.1 C 0 km/h
1718 18-07-2003 23:34:02 21.8 C 9.21 g/m*3 21.8 C 0 km/h
1719 18-07-2003 23:44:02 21.6 C 9.29 g/m*3 21.6 C 0 km/h
1720 18-07-2003 23:54:02 21.3 C 9.51 g/m*3 21.3 C 0 km/h
1721 19-07-2003 00:04:02 21.1 C 9.4 g/m*3 21.1 C 0 km/h
1722 19-07-2003 00:14:02 20.8 C 9.42 g/m*3 20.8 C 0 km/h
1723 19-07-2003 00:24:02 20.6 C 9.66 g/m*3 20.6 C 0 km/h
1724 19-07-2003 00:34:02 20.5 C 9.79 g/m*3 20.5 C 0 km/h
1725 19-07-2003 00:44:02 20.4 C 9.73 g/m*3 20.4 C 0 km/h
Sensor: Nr:Datum:Temp:Abs-Feuchte:Windchill:Wind:
Aussen-T/F 1726 19-07-2003 00:54:02 19.8 C 9.22 g/m*3 19.8 C 0 km/h
1727 19-07-2003 01:04:02 19.7 C 9 g/m*3 19.7 C 0 km/h
1728 19-07-2003 01:14:02 19.5 C 8.89 g/m*3 19.5 C 0 km/h
1729 19-07-2003 01:24:02 19.4 C 9.18 g/m*3 19.4 C 0 km/h
1730 19-07-2003 01:34:02 19.4 C 9.01 g/m*3 19.4 C 0 km/h
1731 19-07-2003 01:44:02 19.2 C 9.07 g/m*3 19.2 C 0 km/h
1732 19-07-2003 01:54:02 19 C 9.13 g/m*3 19 C 0 km/h
1733 19-07-2003 02:04:02 18.8 C 9.02 g/m*3 18.8 C 0 km/h
1734 19-07-2003 02:14:02 18.6 C 8.91 g/m*3 18.6 C 0 km/h
1735 19-07-2003 02:24:02 18.5 C 9.02 g/m*3 18.5 C 0 km/h
1736 19-07-2003 02:34:02 18.5 C 9.02 g/m*3 18.5 C 0 km/h
1737 19-07-2003 02:44:02 18.3 C 8.91 g/m*3 18.3 C 0 km/h
1738 19-07-2003 02:54:02 18.3 C 9.07 g/m*3 18.3 C 0 km/h
1739 19-07-2003 03:04:02 18.2 C 9.01 g/m*3 18.2 C 0 km/h
1740 19-07-2003 03:14:02 17.8 C 9.11 g/m*3 17.8 C 0 km/h
1741 19-07-2003 03:24:02 17.7 C 9.05 g/m*3 17.7 C 0 km/h
1742 19-07-2003 03:34:02 17.5 C 8.95 g/m*3 17.5 C 0 km/h
1743 19-07-2003 03:44:02 17.3 C 8.99 g/m*3 17.3 C 0 km/h
1744 19-07-2003 03:54:02 17.2 C 9.08 g/m*3 17.2 C 0 km/h
1745 19-07-2003 04:04:02 17.1 C 9.03 g/m*3 17.1 C 0 km/h
1746 19-07-2003 04:14:02 17 C 9.12 g/m*3 17 C 0 km/h
1747 19-07-2003 04:24:02 16.8 C 9.44 g/m*3 16.8 C 0 km/h
1748 19-07-2003 04:34:02 16.6 C 9.32 g/m*3 16.6 C 0 km/h
1749 19-07-2003 04:44:02 16.4 C 9.35 g/m*3 16.4 C 0 km/h
1750 19-07-2003 04:54:02 16.3 C 9.3 g/m*3 16.3 C 0 km/h
Sensor: Nr:Datum:Temp:Abs-Feuchte:Windchill:Wind:
Aussen-T/F 1751 19-07-2003 05:04:02 16.1 C 9.46 g/m*3 16.1 C 0 km/h
1752 19-07-2003 05:14:02 16 C 9.26 g/m*3 16 C 0 km/h
1753 19-07-2003 05:24:02 15.9 C 9.34 g/m*3 15.9 C 0 km/h
1754 19-07-2003 05:34:02 15.7 C 9.23 g/m*3 15.7 C 0 km/h
1755 19-07-2003 05:44:02 15.7 C 9.23 g/m*3 15.7 C 0 km/h
1756 19-07-2003 05:54:02 15.6 C 9.18 g/m*3 15.6 C 0 km/h
1757 19-07-2003 06:04:02 15.5 C 9.25 g/m*3 15.5 C 0 km/h
1758 19-07-2003 06:14:02 15.6 C 9.44 g/m*3 15.6 C 0 km/h
1759 19-07-2003 06:24:02 15.6 C 9.44 g/m*3 15.6 C 0 km/h
1760 19-07-2003 06:34:02 15.6 C 9.44 g/m*3 15.6 C 0 km/h
1761 19-07-2003 06:44:02 15.7 C 9.5 g/m*3 15.7 C 0 km/h
1762 19-07-2003 06:54:02 15.8 C 9.56 g/m*3 15.8 C 0 km/h
1763 19-07-2003 07:04:02 15.9 C 9.62 g/m*3 15.9 C 0 km/h
1764 19-07-2003 07:14:02 16 C 9.67 g/m*3 16 C 0 km/h
1765 19-07-2003 07:24:02 15.9 C 9.75 g/m*3 15.9 C 0 km/h
1766 19-07-2003 07:34:02 16.1 C 9.73 g/m*3 16.1 C 0 km/h
1767 19-07-2003 07:44:02 16.3 C 9.85 g/m*3 16.3 C 0 km/h
1768 19-07-2003 07:54:02 16.5 C 9.83 g/m*3 16.5 C 0 km/h
1769 19-07-2003 08:04:02 16.7 C 9.81 g/m*3 16.7 C 0 km/h
1770 19-07-2003 08:14:02 16.9 C 9.92 g/m*3 16.9 C 0 km/h
1771 19-07-2003 08:24:02 17.1 C 9.75 g/m*3 17.1 C 0 km/h
1772 19-07-2003 08:34:02 17.4 C 9.93 g/m*3 17.4 C 0 km/h
1773 19-07-2003 08:44:02 17.7 C 9.96 g/m*3 17.7 C 0 km/h
1774 19-07-2003 08:54:02 18.2 C 10.1 g/m*3 18.2 C 0 km/h
1775 19-07-2003 09:04:01 18.7 C 10.25 g/m*3 18.7 C 0 km/h
Sensor: Nr:Datum:Temp:Abs-Feuchte:Windchill:Wind:
Aussen-T/F 1776 19-07-2003 09:14:01 19.5 C 10.41 g/m*3 19.5 C 0 km/h
1777 19-07-2003 09:34:01 20.9 C 10.75 g/m*3 20.9 C 0 km/h
1778 19-07-2003 09:44:01 21.7 C 10.87 g/m*3 21.7 C 0 km/h
1779 19-07-2003 09:54:01 22.2 C 10.8 g/m*3 22.2 C 0 km/h
1780 19-07-2003 10:04:02 23.1 C 10.54 g/m*3 23.1 C 0 km/h
1781 19-07-2003 10:14:02 23.8 C 10.54 g/m*3 23.8 C 0 km/h
1782 19-07-2003 10:24:02 24.3 C 9.52 g/m*3 24.3 C 0 km/h
1783 19-07-2003 10:34:01 25.2 C 9.08 g/m*3 25.2 C 0 km/h
1784 19-07-2003 10:44:01 25.7 C 8.62 g/m*3 25.7 C 0 km/h
1785 19-07-2003 10:54:01 26.3 C 8.66 g/m*3 26.3 C 0 km/h
1786 19-07-2003 11:04:01 26.8 C 8.65 g/m*3 26.8 C 0 km/h
1787 19-07-2003 11:14:01 27.1 C 8.28 g/m*3 27.1 C 0 km/h
1788 19-07-2003 11:24:01 27.5 C 8.2 g/m*3 27.5 C 0 km/h
1789 19-07-2003 11:34:01 28.1 C 8.48 g/m*3 28.1 C 0 km/h
1790 19-07-2003 11:44:01 27.9 C 8.11 g/m*3 27.9 C 0 km/h
1791 19-07-2003 11:54:01 28.6 C 8.15 g/m*3 28.6 C 0 km/h
1792 19-07-2003 12:04:01 29 C 7.76 g/m*3 29 C 0 km/h
1793 19-07-2003 12:14:01 29.4 C 7.63 g/m*3 29.4 C 0 km/h
1794 19-07-2003 12:24:01 29.9 C 7.54 g/m*3 29.9 C 0 km/h
1795 19-07-2003 12:34:01 30.3 C 7.7 g/m*3 30.3 C 0 km/h
1796 19-07-2003 12:44:01 30.3 C 7.4 g/m*3 30.3 C 0 km/h
1797 19-07-2003 12:54:01 30.3 C 7.4 g/m*3 30.3 C 0 km/h
1798 19-07-2003 13:04:01 30.7 C 6.93 g/m*3 30.7 C 0 km/h
1799 19-07-2003 13:14:01 30.7 C 7.24 g/m*3 30.7 C 0 km/h
1800 19-07-2003 13:24:01 31.2 C 6.79 g/m*3 31.2 C 0 km/h
Sensor: Nr:Datum:Temp:Abs-Feuchte:Windchill:Wind:
Aussen-T/F 1801 19-07-2003 13:34:01 31.8 C 6.68 g/m*3 31.8 C 0 km/h
1802 19-07-2003 13:44:01 31.9 C 6.72 g/m*3 31.9 C 0 km/h
1803 19-07-2003 13:54:01 32.1 C 6.79 g/m*3 32.1 C 0 km/h
1804 19-07-2003 14:04:02 31.8 C 6.68 g/m*3 31.8 C 0 km/h
1805 19-07-2003 14:14:02 31.2 C 6.47 g/m*3 31.2 C 0 km/h
1806 19-07-2003 14:24:02 30.9 C 6.68 g/m*3 30.9 C 0 km/h
1807 19-07-2003 14:34:01 31.5 C 6.9 g/m*3 31.5 C 0 km/h
1808 19-07-2003 14:44:01 32 C 6.75 g/m*3 32 C 0 km/h
1809 19-07-2003 14:54:01 32 C 6.75 g/m*3 32 C 0 km/h
1810 19-07-2003 15:04:02 32.4 C 6.9 g/m*3 32.4 C 0 km/h
1811 19-07-2003 15:14:02 31.7 C 6.64 g/m*3 31.7 C 0 km/h
1812 19-07-2003 15:24:02 31.9 C 6.72 g/m*3 31.9 C 0 km/h
1813 19-07-2003 15:34:02 32.6 C 6.97 g/m*3 32.6 C 0 km/h
1814 19-07-2003 15:44:02 32.7 C 7.01 g/m*3 32.7 C 0 km/h
1815 19-07-2003 15:54:02 33.1 C 7.16 g/m*3 33.1 C 0 km/h
1816 19-07-2003 16:04:02 32.5 C 6.93 g/m*3 32.5 C 0 km/h
1817 19-07-2003 16:14:02 32.8 C 7.04 g/m*3 32.8 C 0 km/h
1818 19-07-2003 16:24:02 33.3 C 7.23 g/m*3 33.3 C 0 km/h
1819 19-07-2003 16:34:01 33.3 C 7.23 g/m*3 33.3 C 0 km/h
1820 19-07-2003 16:44:01 33.7 C 7.39 g/m*3 33.7 C 0 km/h
1821 19-07-2003 16:54:01 34 C 7.5 g/m*3 34 C 0 km/h
1822 19-07-2003 17:04:02 33.8 C 7.43 g/m*3 33.8 C 0 km/h
1823 19-07-2003 17:14:02 33.4 C 7.27 g/m*3 33.4 C 0 km/h
1824 19-07-2003 17:24:02 33.8 C 7.43 g/m*3 33.8 C 0 km/h
1825 19-07-2003 17:34:01 33.8 C 7.43 g/m*3 33.8 C 0 km/h
Sensor: Nr:Datum:Temp:Abs-Feuchte:Windchill:Wind:
Aussen-T/F 1826 19-07-2003 17:44:01 34 C 7.5 g/m*3 34 C 0 km/h
1827 19-07-2003 17:54:01 34 C 7.5 g/m*3 34 C 0 km/h
1828 19-07-2003 18:04:02 34.1 C 7.54 g/m*3 34.1 C 0 km/h
1829 19-07-2003 18:14:02 34.1 C 7.54 g/m*3 34.1 C 0 km/h
1830 19-07-2003 18:24:02 34.2 C 7.58 g/m*3 34.2 C 0 km/h
1831 19-07-2003 18:34:02 33.9 C 7.46 g/m*3 33.9 C 0 km/h
1832 19-07-2003 18:44:02 33.7 C 7.39 g/m*3 33.7 C 0 km/h
1833 19-07-2003 18:54:02 33.7 C 7.39 g/m*3 33.7 C 0 km/h
1834 19-07-2003 19:04:02 33.5 C 7.31 g/m*3 33.5 C 0 km/h
1835 19-07-2003 19:14:02 33.7 C 7.39 g/m*3 33.7 C 0 km/h
1836 19-07-2003 19:24:02 33.3 C 7.23 g/m*3 33.3 C 0 km/h
1837 19-07-2003 19:34:02 33.6 C 7.35 g/m*3 33.6 C 0 km/h
1838 19-07-2003 19:44:02 33.5 C 7.31 g/m*3 33.5 C 0 km/h
1839 19-07-2003 19:54:02 33.8 C 7.43 g/m*3 33.8 C 0 km/h
1840 19-07-2003 20:04:01 33.3 C 7.23 g/m*3 33.3 C 0 km/h
1841 19-07-2003 20:14:01 33.3 C 7.23 g/m*3 33.3 C 0 km/h
1842 19-07-2003 20:24:01 33.2 C 7.2 g/m*3 33.2 C 0 km/h
1843 19-07-2003 20:34:01 32.8 C 7.04 g/m*3 32.8 C 0 km/h
1844 19-07-2003 20:44:01 32.2 C 6.82 g/m*3 32.2 C 0 km/h
1845 19-07-2003 20:54:01 31.4 C 7.52 g/m*3 31.4 C 0 km/h
1846 19-07-2003 21:04:01 30.6 C 7.83 g/m*3 30.6 C 0 km/h
1847 19-07-2003 21:14:01 29.9 C 8.14 g/m*3 29.9 C 0 km/h
1848 19-07-2003 21:24:01 29.1 C 7.8 g/m*3 29.1 C 0 km/h
1849 19-07-2003 21:34:01 28.1 C 7.66 g/m*3 28.1 C 0 km/h
1850 19-07-2003 21:44:01 27.5 C 7.67 g/m*3 27.5 C 0 km/h
Sensor: Nr:Datum:Temp:Abs-Feuchte:Windchill:Wind:
Aussen-T/F 1851 19-07-2003 21:54:01 27.1 C 7.5 g/m*3 27.1 C 0 km/h
1852 19-07-2003 22:05:03 26.9 C 7.93 g/m*3 26.9 C 0 km/h
1853 19-07-2003 22:15:03 26.8 C 7.89 g/m*3 26.8 C 0 km/h
1854 19-07-2003 22:25:03 26.2 C 7.63 g/m*3 26.2 C 0 km/h
1855 19-07-2003 22:35:03 26.3 C 7.67 g/m*3 26.3 C 0 km/h
1856 19-07-2003 22:45:03 26.2 C 7.88 g/m*3 26.2 C 0 km/h
1857 19-07-2003 22:55:03 25.8 C 8.19 g/m*3 25.8 C 0 km/h
1858 19-07-2003 23:05:03 25.7 C 8.38 g/m*3 25.7 C 0 km/h
1859 19-07-2003 23:15:03 25.2 C 8.38 g/m*3 25.2 C 0 km/h
1860 19-07-2003 23:25:03 25.1 C 8.33 g/m*3 25.1 C 0 km/h
1861 19-07-2003 23:35:03 25 C 8.29 g/m*3 25 C 0 km/h
1862 19-07-2003 23:45:03 24.7 C 8.37 g/m*3 24.7 C 0 km/h
1863 19-07-2003 23:55:03 24.5 C 8.28 g/m*3 24.5 C 0 km/h
1864 20-07-2003 00:05:03 24.2 C 8.36 g/m*3 24.2 C 0 km/h
1865 20-07-2003 00:15:03 23.9 C 8.65 g/m*3 23.9 C 0 km/h
1866 20-07-2003 00:25:03 23.7 C 8.56 g/m*3 23.7 C 0 km/h
1867 20-07-2003 00:35:03 23.4 C 8.83 g/m*3 23.4 C 0 km/h
1868 20-07-2003 00:45:03 23.3 C 8.99 g/m*3 23.3 C 0 km/h
1869 20-07-2003 00:55:03 23.1 C 8.89 g/m*3 23.1 C 0 km/h
1870 20-07-2003 01:05:03 22.7 C 9.09 g/m*3 22.7 C 0 km/h
1871 20-07-2003 01:15:03 22.4 C 9.14 g/m*3 22.4 C 0 km/h
1872 20-07-2003 01:25:03 22.1 C 9.17 g/m*3 22.1 C 0 km/h
1873 20-07-2003 01:35:03 21.9 C 9.46 g/m*3 21.9 C 0 km/h
1874 20-07-2003 01:45:03 21.7 C 9.35 g/m*3 21.7 C 0 km/h
1875 20-07-2003 01:55:03 21.6 C 9.48 g/m*3 21.6 C 0 km/h
Sensor: Nr:Datum:Temp:Abs-Feuchte:Windchill:Wind:
Aussen-T/F 1876 20-07-2003 02:05:03 21.4 C 9.37 g/m*3 21.4 C 0 km/h
1877 20-07-2003 02:15:03 21.3 C 9.32 g/m*3 21.3 C 0 km/h
1878 20-07-2003 02:25:03 21 C 9.34 g/m*3 21 C 0 km/h
1879 20-07-2003 02:35:03 20.7 C 9.36 g/m*3 20.7 C 0 km/h
1880 20-07-2003 02:45:03 20.5 C 9.43 g/m*3 20.5 C 0 km/h
1881 20-07-2003 02:55:03 20.3 C 9.32 g/m*3 20.3 C 0 km/h
1882 20-07-2003 03:05:03 20 C 9.33 g/m*3 20 C 0 km/h
1883 20-07-2003 03:15:03 19.7 C 9.51 g/m*3 19.7 C 0 km/h
1884 20-07-2003 03:25:03 19.6 C 9.45 g/m*3 19.6 C 0 km/h
1885 20-07-2003 03:35:03 19.3 C 9.45 g/m*3 19.3 C 0 km/h
1886 20-07-2003 03:45:03 19.2 C 9.4 g/m*3 19.2 C 0 km/h
1887 20-07-2003 03:55:03 19.1 C 9.34 g/m*3 19.1 C 0 km/h
1888 20-07-2003 04:05:03 18.9 C 9.4 g/m*3 18.9 C 0 km/h
1889 20-07-2003 04:15:03 18.8 C 9.5 g/m*3 18.8 C 0 km/h
1890 20-07-2003 04:25:03 18.6 C 9.55 g/m*3 18.6 C 0 km/h
1891 20-07-2003 04:35:03 18.5 C 9.49 g/m*3 18.5 C 0 km/h
1892 20-07-2003 04:45:03 18.3 C 9.22 g/m*3 18.3 C 0 km/h
1893 20-07-2003 04:55:03 18.2 C 9.33 g/m*3 18.2 C 0 km/h
1894 20-07-2003 05:05:03 18.1 C 9.27 g/m*3 18.1 C 0 km/h
1895 20-07-2003 05:15:03 17.8 C 9.41 g/m*3 17.8 C 0 km/h
1896 20-07-2003 05:25:03 17.7 C 9.35 g/m*3 17.7 C 0 km/h
1897 20-07-2003 05:35:03 17.6 C 9.3 g/m*3 17.6 C 0 km/h
1898 20-07-2003 05:45:03 17.6 C 9.3 g/m*3 17.6 C 0 km/h
1899 20-07-2003 05:55:03 17.6 C 9.3 g/m*3 17.6 C 0 km/h
1900 20-07-2003 06:05:03 17.4 C 9.34 g/m*3 17.4 C 0 km/h
Sensor: Nr:Datum:Temp:Abs-Feuchte:Windchill:Wind:
Aussen-T/F 1901 20-07-2003 06:15:03 17.5 C 9.39 g/m*3 17.5 C 0 km/h
1902 20-07-2003 06:25:03 17.5 C 9.54 g/m*3 17.5 C 0 km/h
1903 20-07-2003 06:35:03 17.5 C 9.69 g/m*3 17.5 C 0 km/h
1904 20-07-2003 06:45:03 17.6 C 9.6 g/m*3 17.6 C 0 km/h
1905 20-07-2003 06:55:03 17.7 C 9.66 g/m*3 17.7 C 0 km/h
1906 20-07-2003 07:05:03 17.5 C 9.54 g/m*3 17.5 C 0 km/h
1907 20-07-2003 07:15:03 17.6 C 9.45 g/m*3 17.6 C 0 km/h
1908 20-07-2003 07:25:03 17.8 C 9.71 g/m*3 17.8 C 0 km/h
1909 20-07-2003 07:35:03 17.9 C 9.77 g/m*3 17.9 C 0 km/h
1910 20-07-2003 07:45:03 18.2 C 9.48 g/m*3 18.2 C 0 km/h
1911 20-07-2003 07:55:03 18.5 C 9.81 g/m*3 18.5 C 0 km/h
1912 20-07-2003 08:05:03 18.6 C 9.71 g/m*3 18.6 C 0 km/h
1913 20-07-2003 08:15:03 18.8 C 9.82 g/m*3 18.8 C 0 km/h
1914 20-07-2003 08:25:03 19 C 9.94 g/m*3 19 C 0 km/h
1915 20-07-2003 08:35:03 19.6 C 9.96 g/m*3 19.6 C 0 km/h
1916 20-07-2003 08:45:03 19.9 C 10.31 g/m*3 19.9 C 0 km/h
1917 20-07-2003 08:55:03 20.4 C 10.44 g/m*3 20.4 C 0 km/h
1918 20-07-2003 09:05:02 21 C 10.62 g/m*3 21 C 0 km/h
1919 20-07-2003 09:15:02 21.7 C 10.68 g/m*3 21.7 C 0 km/h
1920 20-07-2003 09:25:02 22.7 C 10.51 g/m*3 22.7 C 0 km/h
1921 20-07-2003 09:35:02 23.2 C 10.39 g/m*3 23.2 C 0 km/h
1922 20-07-2003 09:45:02 23.8 C 10.54 g/m*3 23.8 C 0 km/h
1923 20-07-2003 09:55:02 24.7 C 10.64 g/m*3 24.7 C 0 km/h
1924 20-07-2003 10:05:02 25.3 C 10.53 g/m*3 25.3 C 0 km/h
1925 20-07-2003 10:15:02 25.9 C 10.65 g/m*3 25.9 C 0 km/h
Sensor: Nr:Datum:Temp:Abs-Feuchte:Windchill:Wind:
Aussen-T/F 1926 20-07-2003 10:25:02 26.7 C 9.62 g/m*3 26.7 C 0 km/h
1927 20-07-2003 10:35:01 27.6 C 9.84 g/m*3 27.6 C 0 km/h
1928 20-07-2003 10:45:01 28.1 C 9.3 g/m*3 28.1 C 0 km/h
1929 20-07-2003 10:55:01 28.5 C 9.22 g/m*3 28.5 C 0 km/h
1930 20-07-2003 11:05:01 28.9 C 9.14 g/m*3 28.9 C 0 km/h
1931 20-07-2003 11:15:01 29.3 C 9.34 g/m*3 29.3 C 0 km/h
1932 20-07-2003 11:25:01 29.6 C 8.9 g/m*3 29.6 C 0 km/h
1933 20-07-2003 11:35:43 30 C 9.1 g/m*3 30 C 0 km/h
1934 20-07-2003 11:45:43 30.7 C 8.19 g/m*3 30.7 C 0 km/h
1935 20-07-2003 11:55:43 31 C 8.32 g/m*3 31 C 0 km/h
1936 20-07-2003 12:05:43 31.4 C 7.85 g/m*3 31.4 C 0 km/h
1937 20-07-2003 12:15:43 31.7 C 7.31 g/m*3 31.7 C 0 km/h
1938 20-07-2003 12:25:43 32.1 C 7.47 g/m*3 32.1 C 0 km/h
1939 20-07-2003 12:35:43 32.3 C 6.86 g/m*3 32.3 C 0 km/h
1940 20-07-2003 12:45:43 32.5 C 6.93 g/m*3 32.5 C 0 km/h
1941 20-07-2003 12:55:43 32.8 C 7.04 g/m*3 32.8 C 0 km/h
1942 20-07-2003 13:05:43 33.1 C 7.16 g/m*3 33.1 C 0 km/h
1943 20-07-2003 13:15:43 33.1 C 7.16 g/m*3 33.1 C 0 km/h
1944 20-07-2003 13:25:43 33.8 C 7.43 g/m*3 33.8 C 0 km/h
1945 20-07-2003 13:35:43 33.8 C 7.43 g/m*3 33.8 C 0 km/h
1946 20-07-2003 13:45:43 34 C 7.5 g/m*3 34 C 0 km/h
1947 20-07-2003 13:55:43 34 C 7.5 g/m*3 34 C 0 km/h
1948 20-07-2003 14:05:43 33.7 C 7.39 g/m*3 33.7 C 0 km/h
1949 20-07-2003 14:15:43 33.4 C 7.27 g/m*3 33.4 C 0 km/h
1950 20-07-2003 14:25:43 33.4 C 7.27 g/m*3 33.4 C 0 km/h
Sensor: Nr:Datum:Temp:Abs-Feuchte:Windchill:Wind:
Aussen-T/F 1951 20-07-2003 14:35:43 33.7 C 7.39 g/m*3 33.7 C 0 km/h
1952 20-07-2003 14:45:43 33.9 C 7.46 g/m*3 33.9 C 0 km/h
1953 20-07-2003 14:55:43 33.9 C 7.46 g/m*3 33.9 C 0 km/h
1954 20-07-2003 15:05:43 34.2 C 7.58 g/m*3 34.2 C 0 km/h
1955 20-07-2003 15:15:43 33.9 C 7.46 g/m*3 33.9 C 0 km/h
1956 20-07-2003 15:25:43 34.3 C 7.62 g/m*3 34.3 C 0 km/h
1957 20-07-2003 15:35:43 34.5 C 7.7 g/m*3 34.5 C 0 km/h
1958 20-07-2003 15:45:43 34.6 C 7.74 g/m*3 34.6 C 0 km/h
1959 20-07-2003 15:55:43 35 C 7.91 g/m*3 35 C 0 km/h
1960 20-07-2003 16:05:43 34.6 C 7.74 g/m*3 34.6 C 0 km/h
1961 20-07-2003 16:15:43 32.7 C 9.11 g/m*3 32.7 C 0 km/h
1962 20-07-2003 16:25:43 27.6 C 6.92 g/m*3 27.6 C 0 km/h
1963 20-07-2003 16:35:43 24.7 C 6.34 g/m*3 24.7 C 0 km/h
1964 20-07-2003 16:45:43 25.1 C 6.94 g/m*3 25.1 C 0 km/h
1965 20-07-2003 16:55:43 25.7 C 7.66 g/m*3 25.7 C 0 km/h
1966 20-07-2003 17:05:43 26.2 C 8.37 g/m*3 26.2 C 0 km/h
1967 20-07-2003 17:15:43 26.6 C 9.06 g/m*3 26.6 C 0 km/h
1968 20-07-2003 17:25:43 26.6 C 9.57 g/m*3 26.6 C 0 km/h
1969 20-07-2003 17:35:43 27.3 C 14.39 g/m*3 27.3 C 0 km/h
1970 20-07-2003 17:45:43 27.1 C 14.23 g/m*3 27.1 C 0 km/h
1971 20-07-2003 17:55:43 26.8 C 14.51 g/m*3 26.8 C 0 km/h
1972 20-07-2003 18:05:43 27 C 13.38 g/m*3 27 C 0 km/h
1973 20-07-2003 18:15:43 27.8 C 13.72 g/m*3 27.8 C 0 km/h
1974 20-07-2003 18:25:43 30.5 C 14.33 g/m*3 30.5 C 0 km/h
1975 20-07-2003 18:35:43 30.3 C 12.64 g/m*3 30.3 C 0 km/h
Sensor: Nr:Datum:Temp:Abs-Feuchte:Windchill:Wind:
Aussen-T/F 1976 20-07-2003 18:45:03 30.1 C 12.5 g/m*3 30.1 C 0 km/h
1977 20-07-2003 18:55:03 29.8 C 13.5 g/m*3 29.8 C 0 km/h
1978 20-07-2003 19:05:01 29 C 12.93 g/m*3 29 C 0 km/h
1979 20-07-2003 19:15:01 27.8 C 13.99 g/m*3 27.8 C 0 km/h
1980 20-07-2003 19:25:01 27.7 C 12.3 g/m*3 27.7 C 0 km/h
1981 20-07-2003 19:35:01 27.6 C 13.04 g/m*3 27.6 C 0 km/h
1982 20-07-2003 19:45:01 28.3 C 10.78 g/m*3 28.3 C 0 km/h
1983 20-07-2003 19:55:01 28.1 C 11.48 g/m*3 28.1 C 0 km/h
1984 20-07-2003 20:05:00 28 C 11.69 g/m*3 28 C 0 km/h
1985 20-07-2003 20:15:00 28.1 C 10.94 g/m*3 28.1 C 0 km/h
1986 20-07-2003 20:25:00 27.9 C 11.63 g/m*3 27.9 C 0 km/h
1987 20-07-2003 20:35:02 27.6 C 11.97 g/m*3 27.6 C 0 km/h
1988 20-07-2003 20:45:02 27 C 12.61 g/m*3 27 C 0 km/h
1989 20-07-2003 20:55:02 26.4 C 12.94 g/m*3 26.4 C 0 km/h
1990 20-07-2003 21:05:01 25.7 C 12.45 g/m*3 25.7 C 0 km/h
1991 20-07-2003 21:15:01 25.5 C 12.31 g/m*3 25.5 C 0 km/h
1992 20-07-2003 21:25:01 25.9 C 12.59 g/m*3 25.9 C 0 km/h
1993 20-07-2003 21:35:01 25.8 C 13 g/m*3 25.8 C 0 km/h
1994 20-07-2003 21:45:01 25.3 C 12.64 g/m*3 25.3 C 0 km/h
1995 20-07-2003 21:55:01 25 C 12.2 g/m*3 25 C 0 km/h
1996 20-07-2003 22:05:01 24.9 C 12.13 g/m*3 24.9 C 0 km/h
1997 20-07-2003 22:15:01 24.4 C 12.24 g/m*3 24.4 C 0 km/h
1998 20-07-2003 22:25:01 24.3 C 12.17 g/m*3 24.3 C 0 km/h
1999 20-07-2003 22:36:02 24.2 C 12.32 g/m*3 24.2 C 0 km/h
2000 20-07-2003 22:46:02 23.5 C 12.48 g/m*3 23.5 C 0 km/h
Sensor: Nr:Datum:Temp:Abs-Feuchte:Windchill:Wind:
Aussen-T/F 2001 20-07-2003 22:56:02 23.6 C 12.55 g/m*3 23.6 C 0 km/h
2002 20-07-2003 23:06:02 23.7 C 12.62 g/m*3 23.7 C 0 km/h
2003 20-07-2003 23:16:02 23.9 C 12.55 g/m*3 23.9 C 0 km/h
2004 20-07-2003 23:26:02 23.8 C 12.91 g/m*3 23.8 C 0 km/h
2005 20-07-2003 23:36:02 23.6 C 12.55 g/m*3 23.6 C 0 km/h
2006 20-07-2003 23:46:02 23.5 C 12.48 g/m*3 23.5 C 0 km/h
2007 20-07-2003 23:56:02 23.7 C 12.83 g/m*3 23.7 C 0 km/h
2008 21-07-2003 00:06:02 23 C 14.8 g/m*3 23 C 0 km/h
2009 21-07-2003 00:16:02 22.4 C 13.7 g/m*3 22.4 C 0 km/h
2010 21-07-2003 00:26:02 21.4 C 13.87 g/m*3 21.4 C 0 km/h
2011 21-07-2003 00:36:02 21.5 C 14.52 g/m*3 21.5 C 0 km/h
2012 21-07-2003 00:46:02 21.5 C 14.52 g/m*3 21.5 C 0 km/h
2013 21-07-2003 00:56:02 21.7 C 13.93 g/m*3 21.7 C 0 km/h
2014 21-07-2003 01:06:02 21.8 C 13.81 g/m*3 21.8 C 0 km/h
2015 21-07-2003 01:16:02 21.9 C 13.89 g/m*3 21.9 C 0 km/h
2016 21-07-2003 01:26:02 22 C 13.39 g/m*3 22 C 0 km/h
2017 21-07-2003 01:36:02 22.5 C 13.18 g/m*3 22.5 C 0 km/h
2018 21-07-2003 01:46:02 22.2 C 13.55 g/m*3 22.2 C 0 km/h
2019 21-07-2003 01:56:02 20.9 C 14.02 g/m*3 20.9 C 0 km/h
2020 21-07-2003 02:06:02 20 C 14 g/m*3 20 C 0 km/h
2021 21-07-2003 02:16:02 20.2 C 14.51 g/m*3 20.2 C 0 km/h
2022 21-07-2003 02:26:02 20.3 C 14.6 g/m*3 20.3 C 0 km/h
2023 21-07-2003 02:36:02 20.1 C 14.43 g/m*3 20.1 C 0 km/h
2024 21-07-2003 02:46:02 19.8 C 14.35 g/m*3 19.8 C 0 km/h
2025 21-07-2003 02:56:02 19.7 C 14.26 g/m*3 19.7 C 0 km/h
Sensor: Nr:Datum:Temp:Abs-Feuchte:Windchill:Wind:
Aussen-T/F 2026 21-07-2003 03:06:02 19.6 C 14.18 g/m*3 19.6 C 0 km/h
2027 21-07-2003 03:16:02 19.3 C 13.93 g/m*3 19.3 C 0 km/h
2028 21-07-2003 03:26:02 19.2 C 13.85 g/m*3 19.2 C 0 km/h
2029 21-07-2003 03:36:02 19.1 C 13.93 g/m*3 19.1 C 0 km/h
2030 21-07-2003 03:46:02 19 C 13.85 g/m*3 19 C 0 km/h
2031 21-07-2003 03:56:02 19.1 C 13.93 g/m*3 19.1 C 0 km/h
2032 21-07-2003 04:16:02 19.1 C 13.93 g/m*3 19.1 C 0 km/h
2033 21-07-2003 04:26:02 19.1 C 13.93 g/m*3 19.1 C 0 km/h
2034 21-07-2003 04:36:02 19.1 C 13.77 g/m*3 19.1 C 0 km/h
2035 21-07-2003 04:46:02 19.1 C 13.77 g/m*3 19.1 C 0 km/h
2036 21-07-2003 04:56:02 18.9 C 13.93 g/m*3 18.9 C 0 km/h
2037 21-07-2003 05:06:02 18.8 C 13.53 g/m*3 18.8 C 0 km/h
2038 21-07-2003 05:16:02 18.8 C 13.37 g/m*3 18.8 C 0 km/h
2039 21-07-2003 05:26:02 18.7 C 13.29 g/m*3 18.7 C 0 km/h
2040 21-07-2003 05:36:02 18.5 C 13.13 g/m*3 18.5 C 0 km/h
2041 21-07-2003 05:46:02 18.5 C 13.29 g/m*3 18.5 C 0 km/h
2042 21-07-2003 05:56:02 18.4 C 13.05 g/m*3 18.4 C 0 km/h
2043 21-07-2003 06:06:02 18.3 C 13.13 g/m*3 18.3 C 0 km/h
2044 21-07-2003 06:16:02 18.2 C 13.06 g/m*3 18.2 C 0 km/h
2045 21-07-2003 06:26:02 18.3 C 13.13 g/m*3 18.3 C 0 km/h
2046 21-07-2003 06:36:02 18.5 C 13.29 g/m*3 18.5 C 0 km/h
2047 21-07-2003 06:46:02 18.5 C 13.29 g/m*3 18.5 C 0 km/h
2048 21-07-2003 06:56:02 18.8 C 13.53 g/m*3 18.8 C 0 km/h
2049 21-07-2003 07:06:02 19 C 13.36 g/m*3 19 C 0 km/h
2050 21-07-2003 07:16:02 19.2 C 13.52 g/m*3 19.2 C 0 km/h
Sensor: Nr:Datum:Temp:Abs-Feuchte:Windchill:Wind:
Aussen-T/F 2051 21-07-2003 07:26:02 19.2 C 13.52 g/m*3 19.2 C 0 km/h
2052 21-07-2003 07:36:02 19.3 C 13.44 g/m*3 19.3 C 0 km/h
2053 21-07-2003 07:46:02 19.5 C 13.76 g/m*3 19.5 C 0 km/h
2054 21-07-2003 07:56:02 19.7 C 13.41 g/m*3 19.7 C 0 km/h
2055 21-07-2003 08:06:02 20.3 C 13.54 g/m*3 20.3 C 0 km/h
2056 21-07-2003 08:16:02 20.6 C 13.42 g/m*3 20.6 C 0 km/h
2057 21-07-2003 08:26:02 21 C 13.74 g/m*3 21 C 0 km/h
2058 21-07-2003 08:36:02 21.2 C 13.34 g/m*3 21.2 C 0 km/h
2059 21-07-2003 08:46:02 21.7 C 13.73 g/m*3 21.7 C 0 km/h
2060 21-07-2003 08:56:02 22.2 C 13.74 g/m*3 22.2 C 0 km/h
2061 21-07-2003 09:06:02 22.6 C 13.66 g/m*3 22.6 C 0 km/h
2062 21-07-2003 09:16:02 23.1 C 13.64 g/m*3 23.1 C 0 km/h
2063 21-07-2003 09:26:02 23.2 C 13.51 g/m*3 23.2 C 0 km/h
2064 21-07-2003 09:36:02 23.3 C 13.59 g/m*3 23.3 C 0 km/h
2065 21-07-2003 09:46:02 23.7 C 13.69 g/m*3 23.7 C 0 km/h
2066 21-07-2003 09:56:02 24.1 C 13.57 g/m*3 24.1 C 0 km/h
2067 21-07-2003 10:06:02 24.3 C 13.72 g/m*3 24.3 C 0 km/h
2068 21-07-2003 10:16:02 24.3 C 13.72 g/m*3 24.3 C 0 km/h
2069 21-07-2003 10:26:02 24.7 C 13.81 g/m*3 24.7 C 0 km/h
2070 21-07-2003 10:36:02 24.7 C 13.81 g/m*3 24.7 C 0 km/h
2071 21-07-2003 10:46:02 24.8 C 13.88 g/m*3 24.8 C 0 km/h
2072 21-07-2003 10:56:02 24.7 C 13.58 g/m*3 24.7 C 0 km/h
2073 21-07-2003 11:06:02 24.8 C 13.43 g/m*3 24.8 C 0 km/h
2074 21-07-2003 11:16:02 24.7 C 13.35 g/m*3 24.7 C 0 km/h
2075 21-07-2003 11:26:02 24.9 C 13.51 g/m*3 24.9 C 0 km/h
Sensor: Nr:Datum:Temp:Abs-Feuchte:Windchill:Wind:
Aussen-T/F 2076 21-07-2003 11:36:02 25.1 C 13.2 g/m*3 25.1 C 0 km/h
2077 21-07-2003 11:46:02 25.3 C 13.34 g/m*3 25.3 C 0 km/h
2078 21-07-2003 11:56:02 25.4 C 13.42 g/m*3 25.4 C 0 km/h
2079 21-07-2003 12:06:02 25.2 C 13.27 g/m*3 25.2 C 0 km/h
2080 21-07-2003 12:16:02 25.3 C 13.34 g/m*3 25.3 C 0 km/h
2081 21-07-2003 12:26:02 25.6 C 13.33 g/m*3 25.6 C 0 km/h
2082 21-07-2003 12:36:02 26.5 C 13.52 g/m*3 26.5 C 0 km/h
2083 21-07-2003 12:46:02 27.4 C 13.68 g/m*3 27.4 C 0 km/h
2084 21-07-2003 12:56:02 27.9 C 13.25 g/m*3 27.9 C 0 km/h
2085 21-07-2003 13:06:01 28.3 C 13.27 g/m*3 28.3 C 0 km/h
2086 21-07-2003 13:16:01 28.7 C 13.28 g/m*3 28.7 C 0 km/h
2087 21-07-2003 13:26:01 28.6 C 12.37 g/m*3 28.6 C 0 km/h
2088 21-07-2003 13:36:00 30 C 11.52 g/m*3 30 C 0 km/h
2089 21-07-2003 13:46:00 29.9 C 11.46 g/m*3 29.9 C 0 km/h
2090 21-07-2003 13:56:00 29.1 C 11.26 g/m*3 29.1 C 0 km/h
2091 21-07-2003 14:06:01 30.3 C 11.1 g/m*3 30.3 C 0 km/h
2092 21-07-2003 14:16:01 30.4 C 11.47 g/m*3 30.4 C 0 km/h
2093 21-07-2003 14:26:01 29.8 C 11.1 g/m*3 29.8 C 0 km/h
2094 21-07-2003 14:36:01 30.2 C 11.34 g/m*3 30.2 C 0 km/h
2095 21-07-2003 14:46:01 30.7 C 11.65 g/m*3 30.7 C 0 km/h
2096 21-07-2003 14:56:01 31.4 C 10.79 g/m*3 31.4 C 0 km/h
2097 21-07-2003 15:06:02 31.2 C 10.35 g/m*3 31.2 C 0 km/h
2098 21-07-2003 15:16:02 31.3 C 11.06 g/m*3 31.3 C 0 km/h
2099 21-07-2003 15:26:02 31 C 11.2 g/m*3 31 C 0 km/h
2100 21-07-2003 15:36:01 30.5 C 11.53 g/m*3 30.5 C 0 km/h
Sensor: Nr:Datum:Temp:Abs-Feuchte:Windchill:Wind:
Aussen-T/F 2101 21-07-2003 15:46:01 31.2 C 11.32 g/m*3 31.2 C 0 km/h
2102 21-07-2003 15:56:01 31.6 C 10.24 g/m*3 31.6 C 0 km/h
2103 21-07-2003 16:06:01 31.3 C 10.08 g/m*3 31.3 C 0 km/h
2104 21-07-2003 16:16:01 31.5 C 10.19 g/m*3 31.5 C 0 km/h
2105 21-07-2003 16:26:01 31.3 C 9.76 g/m*3 31.3 C 0 km/h
2106 21-07-2003 16:36:02 31.2 C 10.03 g/m*3 31.2 C 0 km/h
2107 21-07-2003 16:46:02 31.3 C 9.76 g/m*3 31.3 C 0 km/h
2108 21-07-2003 16:56:02 31.2 C 9.38 g/m*3 31.2 C 0 km/h
2109 21-07-2003 17:06:01 31.8 C 9.02 g/m*3 31.8 C 0 km/h
2110 21-07-2003 17:16:01 31.8 C 8.68 g/m*3 31.8 C 0 km/h
2111 21-07-2003 17:26:01 31.5 C 9.53 g/m*3 31.5 C 0 km/h
2112 21-07-2003 17:36:01 31.5 C 10.19 g/m*3 31.5 C 0 km/h
2113 21-07-2003 17:46:01 31.4 C 10.46 g/m*3 31.4 C 0 km/h
2114 21-07-2003 17:56:01 31.4 C 10.46 g/m*3 31.4 C 0 km/h
2115 21-07-2003 18:06:01 32.1 C 10.18 g/m*3 32.1 C 0 km/h
2116 21-07-2003 18:16:01 32.4 C 10 g/m*3 32.4 C 0 km/h
2117 21-07-2003 18:26:01 32.3 C 9.95 g/m*3 32.3 C 0 km/h
2118 21-07-2003 18:36:02 31.6 C 10.24 g/m*3 31.6 C 0 km/h
2119 21-07-2003 18:46:02 31.6 C 9.91 g/m*3 31.6 C 0 km/h
2120 21-07-2003 18:56:02 31.6 C 9.25 g/m*3 31.6 C 0 km/h
2121 21-07-2003 19:06:02 31.2 C 9.7 g/m*3 31.2 C 0 km/h
2122 21-07-2003 19:16:02 30.3 C 10.48 g/m*3 30.3 C 0 km/h
2123 21-07-2003 19:26:02 29.7 C 10.44 g/m*3 29.7 C 0 km/h
2124 21-07-2003 19:36:02 28.8 C 10.51 g/m*3 28.8 C 0 km/h
2125 21-07-2003 19:46:02 28.6 C 10.4 g/m*3 28.6 C 0 km/h
Sensor: Nr:Datum:Temp:Abs-Feuchte:Windchill:Wind:
Aussen-T/F 2126 21-07-2003 19:56:02 28.5 C 10.9 g/m*3 28.5 C 0 km/h
2127 21-07-2003 20:06:02 28.4 C 10.84 g/m*3 28.4 C 0 km/h
2128 21-07-2003 20:16:02 28.4 C 11.4 g/m*3 28.4 C 0 km/h
2129 21-07-2003 20:26:02 28.3 C 11.61 g/m*3 28.3 C 0 km/h
2130 21-07-2003 20:36:01 28.1 C 11.21 g/m*3 28.1 C 0 km/h
2131 21-07-2003 20:46:01 27.7 C 11.77 g/m*3 27.7 C 0 km/h
2132 21-07-2003 20:56:01 27.4 C 11.84 g/m*3 27.4 C 0 km/h
2133 21-07-2003 21:06:01 27.2 C 12.23 g/m*3 27.2 C 0 km/h
2134 21-07-2003 21:16:01 27.1 C 12.16 g/m*3 27.1 C 0 km/h
2135 21-07-2003 21:26:01 26.8 C 12.22 g/m*3 26.8 C 0 km/h
2136 21-07-2003 21:36:01 26.4 C 12.7 g/m*3 26.4 C 0 km/h
2137 21-07-2003 21:46:01 26 C 12.66 g/m*3 26 C 0 km/h
2138 21-07-2003 21:56:01 25.8 C 13 g/m*3 25.8 C 0 km/h
2139 21-07-2003 22:07:01 24.9 C 14.42 g/m*3 24.9 C 0 km/h
2140 21-07-2003 22:17:01 23.7 C 14.12 g/m*3 23.7 C 0 km/h
2141 21-07-2003 22:27:01 23.9 C 14.49 g/m*3 23.9 C 0 km/h
2142 21-07-2003 22:37:01 23.6 C 14.46 g/m*3 23.6 C 0 km/h
2143 21-07-2003 22:47:01 23.5 C 14.17 g/m*3 23.5 C 0 km/h
2144 21-07-2003 22:57:01 23.3 C 14.01 g/m*3 23.3 C 0 km/h
2145 21-07-2003 23:07:01 23.5 C 13.96 g/m*3 23.5 C 0 km/h
2146 21-07-2003 23:17:01 23.5 C 13.75 g/m*3 23.5 C 0 km/h
2147 21-07-2003 23:27:01 23.2 C 13.51 g/m*3 23.2 C 0 km/h
2148 21-07-2003 23:37:01 23.3 C 13.38 g/m*3 23.3 C 0 km/h
2149 21-07-2003 23:47:01 23.3 C 12.96 g/m*3 23.3 C 0 km/h
2150 21-07-2003 23:57:01 23 C 12.74 g/m*3 23 C 0 km/h
Sensor: Nr:Datum:Temp:Abs-Feuchte:Windchill:Wind:
Aussen-T/F 2151 22-07-2003 00:07:01 23 C 12.54 g/m*3 23 C 0 km/h
2152 22-07-2003 00:17:01 22.8 C 13 g/m*3 22.8 C 0 km/h
2153 22-07-2003 00:27:01 22.9 C 12.88 g/m*3 22.9 C 0 km/h
2154 22-07-2003 00:37:01 22.8 C 12.8 g/m*3 22.8 C 0 km/h
2155 22-07-2003 00:47:01 22.9 C 12.67 g/m*3 22.9 C 0 km/h
2156 22-07-2003 00:57:01 22.9 C 12.67 g/m*3 22.9 C 0 km/h
2157 22-07-2003 01:07:01 23 C 12.74 g/m*3 23 C 0 km/h
2158 22-07-2003 01:17:01 23.1 C 12.82 g/m*3 23.1 C 0 km/h
2159 22-07-2003 01:27:01 22.8 C 13.61 g/m*3 22.8 C 0 km/h
2160 22-07-2003 01:37:01 21 C 13.92 g/m*3 21 C 0 km/h
2161 22-07-2003 01:47:01 20.5 C 14.77 g/m*3 20.5 C 0 km/h
2162 22-07-2003 01:57:01 20 C 15.21 g/m*3 20 C 0 km/h
2163 22-07-2003 02:07:01 19.9 C 15.81 g/m*3 19.9 C 0 km/h
2164 22-07-2003 02:17:01 19.9 C 15.81 g/m*3 19.9 C 0 km/h
2165 22-07-2003 02:27:01 19.9 C 15.81 g/m*3 19.9 C 0 km/h
2166 22-07-2003 02:37:01 19.6 C 15.53 g/m*3 19.6 C 0 km/h
2167 22-07-2003 02:47:01 19.7 C 15.45 g/m*3 19.7 C 0 km/h
2168 22-07-2003 02:57:01 19.6 C 15.36 g/m*3 19.6 C 0 km/h
2169 22-07-2003 03:07:01 19.1 C 14.92 g/m*3 19.1 C 0 km/h
2170 22-07-2003 03:17:01 19.2 C 15.17 g/m*3 19.2 C 0 km/h
2171 22-07-2003 03:27:01 18.9 C 15.07 g/m*3 18.9 C 0 km/h
2172 22-07-2003 03:37:01 19 C 14.83 g/m*3 19 C 0 km/h
2173 22-07-2003 03:47:01 18.9 C 14.74 g/m*3 18.9 C 0 km/h
2174 22-07-2003 03:57:01 18.9 C 14.74 g/m*3 18.9 C 0 km/h
2175 22-07-2003 04:07:01 18.9 C 14.74 g/m*3 18.9 C 0 km/h
Sensor: Nr:Datum:Temp:Abs-Feuchte:Windchill:Wind:
Aussen-T/F 2176 22-07-2003 04:17:01 18.9 C 14.74 g/m*3 18.9 C 0 km/h
2177 22-07-2003 04:27:01 18.8 C 14.49 g/m*3 18.8 C 0 km/h
2178 22-07-2003 04:37:01 18.9 C 14.58 g/m*3 18.9 C 0 km/h
2179 22-07-2003 04:47:01 18.9 C 14.58 g/m*3 18.9 C 0 km/h
2180 22-07-2003 04:57:01 18.7 C 14.25 g/m*3 18.7 C 0 km/h
2181 22-07-2003 05:07:01 18.5 C 14.24 g/m*3 18.5 C 0 km/h
2182 22-07-2003 05:17:01 18.4 C 14 g/m*3 18.4 C 0 km/h
2183 22-07-2003 05:27:01 18.4 C 14.16 g/m*3 18.4 C 0 km/h
2184 22-07-2003 05:37:01 18.4 C 14.16 g/m*3 18.4 C 0 km/h
2185 22-07-2003 05:47:01 18.4 C 14 g/m*3 18.4 C 0 km/h
2186 22-07-2003 05:57:01 18.3 C 13.92 g/m*3 18.3 C 0 km/h
2187 22-07-2003 06:07:01 18.1 C 13.91 g/m*3 18.1 C 0 km/h
2188 22-07-2003 06:17:01 18.1 C 13.91 g/m*3 18.1 C 0 km/h
2189 22-07-2003 06:27:01 18.3 C 14.07 g/m*3 18.3 C 0 km/h
2190 22-07-2003 06:37:01 18.6 C 14.32 g/m*3 18.6 C 0 km/h
2191 22-07-2003 06:47:01 18.8 C 14.33 g/m*3 18.8 C 0 km/h
2192 22-07-2003 06:57:01 19.1 C 14.43 g/m*3 19.1 C 0 km/h
2193 22-07-2003 07:07:01 19 C 14.18 g/m*3 19 C 0 km/h
2194 22-07-2003 07:17:01 19.1 C 14.26 g/m*3 19.1 C 0 km/h
2195 22-07-2003 07:27:01 19.3 C 14.43 g/m*3 19.3 C 0 km/h
2196 22-07-2003 07:37:01 19.5 C 14.43 g/m*3 19.5 C 0 km/h
2197 22-07-2003 07:47:01 19.5 C 14.43 g/m*3 19.5 C 0 km/h
2198 22-07-2003 07:57:01 19.9 C 14.78 g/m*3 19.9 C 0 km/h
2199 22-07-2003 08:07:01 19.9 C 14.43 g/m*3 19.9 C 0 km/h
2200 22-07-2003 08:17:01 20.1 C 14.43 g/m*3 20.1 C 0 km/h
Sensor: Nr:Datum:Temp:Abs-Feuchte:Windchill:Wind:
Aussen-T/F 2201 22-07-2003 08:27:01 20.4 C 14.51 g/m*3 20.4 C 0 km/h
2202 22-07-2003 08:37:01 20.4 C 13.98 g/m*3 20.4 C 0 km/h
2203 22-07-2003 08:47:01 20.5 C 14.41 g/m*3 20.5 C 0 km/h
2204 22-07-2003 08:57:01 20.9 C 14.57 g/m*3 20.9 C 0 km/h
2205 22-07-2003 09:07:02 20.9 C 14.02 g/m*3 20.9 C 0 km/h
2206 22-07-2003 09:17:02 21.2 C 14.27 g/m*3 21.2 C 0 km/h
2207 22-07-2003 09:27:02 21.6 C 14.41 g/m*3 21.6 C 0 km/h
2208 22-07-2003 09:37:00 21.8 C 13.81 g/m*3 21.8 C 0 km/h
2209 22-07-2003 09:47:00 22.3 C 13.82 g/m*3 22.3 C 0 km/h
2210 22-07-2003 09:57:00 21.8 C 13.81 g/m*3 21.8 C 0 km/h
2211 22-07-2003 10:07:01 21.5 C 13.77 g/m*3 21.5 C 0 km/h
2212 22-07-2003 10:17:01 21.6 C 13.85 g/m*3 21.6 C 0 km/h
2213 22-07-2003 10:27:01 22 C 13.78 g/m*3 22 C 0 km/h
2214 22-07-2003 10:37:01 22.1 C 14.25 g/m*3 22.1 C 0 km/h
2215 22-07-2003 10:47:01 22 C 14.36 g/m*3 22 C 0 km/h
2216 22-07-2003 10:57:01 22.1 C 14.05 g/m*3 22.1 C 0 km/h
2217 22-07-2003 11:07:00 22.7 C 14.55 g/m*3 22.7 C 0 km/h
2218 22-07-2003 11:17:00 23.2 C 14.14 g/m*3 23.2 C 0 km/h
2219 22-07-2003 11:27:00 23.4 C 13.04 g/m*3 23.4 C 0 km/h
2220 22-07-2003 11:37:02 24.5 C 13.88 g/m*3 24.5 C 0 km/h
2221 22-07-2003 11:47:02 24.7 C 13.13 g/m*3 24.7 C 0 km/h
2222 22-07-2003 11:57:02 24.5 C 13.65 g/m*3 24.5 C 0 km/h
2223 22-07-2003 12:07:02 25.6 C 13.09 g/m*3 25.6 C 0 km/h
2224 22-07-2003 12:17:02 25.8 C 13.72 g/m*3 25.8 C 0 km/h
2225 22-07-2003 12:27:02 26.4 C 13.19 g/m*3 26.4 C 0 km/h
Sensor: Nr:Datum:Temp:Abs-Feuchte:Windchill:Wind:
Aussen-T/F 2226 22-07-2003 12:37:01 26.8 C 13.24 g/m*3 26.8 C 0 km/h
2227 22-07-2003 12:47:01 27.4 C 12.89 g/m*3 27.4 C 0 km/h
2228 22-07-2003 12:57:01 28.1 C 11.76 g/m*3 28.1 C 0 km/h
2229 22-07-2003 13:07:01 28.7 C 12.72 g/m*3 28.7 C 0 km/h
2230 22-07-2003 13:17:01 28.3 C 12.16 g/m*3 28.3 C 0 km/h
2231 22-07-2003 13:27:01 26.8 C 11.96 g/m*3 26.8 C 0 km/h
2232 22-07-2003 13:37:02 25.7 C 13.17 g/m*3 25.7 C 0 km/h
2233 22-07-2003 13:47:02 24.8 C 13.88 g/m*3 24.8 C 0 km/h
2234 22-07-2003 13:57:02 25.1 C 12.96 g/m*3 25.1 C 0 km/h
2235 22-07-2003 14:07:02 26.3 C 11.88 g/m*3 26.3 C 0 km/h
2236 22-07-2003 14:17:02 27.6 C 12.24 g/m*3 27.6 C 0 km/h
2237 22-07-2003 14:27:02 28 C 11.97 g/m*3 28 C 0 km/h
2238 22-07-2003 14:37:01 28.9 C 11.71 g/m*3 28.9 C 0 km/h
2239 22-07-2003 14:47:01 29.7 C 11.93 g/m*3 29.7 C 0 km/h
2240 22-07-2003 14:57:01 30.3 C 11.1 g/m*3 30.3 C 0 km/h
2241 22-07-2003 15:07:01 30.6 C 10.02 g/m*3 30.6 C 0 km/h
2242 22-07-2003 15:17:01 31 C 10.56 g/m*3 31 C 0 km/h
2243 22-07-2003 15:27:01 30 C 10.01 g/m*3 30 C 0 km/h
2244 22-07-2003 15:37:02 29.1 C 10.11 g/m*3 29.1 C 0 km/h
2245 22-07-2003 15:47:02 29.4 C 10.57 g/m*3 29.4 C 0 km/h
2246 22-07-2003 15:57:02 29.8 C 10.8 g/m*3 29.8 C 0 km/h
2247 22-07-2003 16:07:01 30.3 C 10.17 g/m*3 30.3 C 0 km/h
2248 22-07-2003 16:17:01 30.4 C 10.23 g/m*3 30.4 C 0 km/h
2249 22-07-2003 16:27:01 31 C 10.24 g/m*3 31 C 0 km/h
2250 22-07-2003 16:37:02 30.9 C 9.87 g/m*3 30.9 C 0 km/h
Sensor: Nr:Datum:Temp:Abs-Feuchte:Windchill:Wind:
Aussen-T/F 2251 22-07-2003 16:47:02 30.6 C 9.71 g/m*3 30.6 C 0 km/h
2252 22-07-2003 16:57:02 30.7 C 10.08 g/m*3 30.7 C 0 km/h
2253 22-07-2003 17:07:02 30.9 C 10.19 g/m*3 30.9 C 0 km/h
2254 22-07-2003 17:17:02 31 C 9.6 g/m*3 31 C 0 km/h
2255 22-07-2003 17:27:02 31.2 C 9.06 g/m*3 31.2 C 0 km/h
2256 22-07-2003 17:37:01 30.7 C 9.13 g/m*3 30.7 C 0 km/h
2257 22-07-2003 17:47:01 30.6 C 9.71 g/m*3 30.6 C 0 km/h
2258 22-07-2003 17:57:01 30.4 C 9.92 g/m*3 30.4 C 0 km/h
2259 22-07-2003 18:07:01 30 C 10.61 g/m*3 30 C 0 km/h
2260 22-07-2003 18:17:01 29.2 C 11.32 g/m*3 29.2 C 0 km/h
2261 22-07-2003 18:27:01 28.6 C 12.37 g/m*3 28.6 C 0 km/h
2262 22-07-2003 18:37:01 28.2 C 10.45 g/m*3 28.2 C 0 km/h
2263 22-07-2003 18:47:01 28.8 C 9.94 g/m*3 28.8 C 0 km/h
2264 22-07-2003 18:57:01 30.2 C 9.81 g/m*3 30.2 C 0 km/h
2265 22-07-2003 19:07:01 30.6 C 9.4 g/m*3 30.6 C 0 km/h
2266 22-07-2003 19:17:01 30.2 C 9.5 g/m*3 30.2 C 0 km/h
2267 22-07-2003 19:27:01 30.6 C 9.71 g/m*3 30.6 C 0 km/h
2268 22-07-2003 19:37:01 30.6 C 9.4 g/m*3 30.6 C 0 km/h
2269 22-07-2003 19:47:01 30 C 9.4 g/m*3 30 C 0 km/h
2270 22-07-2003 19:57:01 29.4 C 9.39 g/m*3 29.4 C 0 km/h
2271 22-07-2003 20:07:03 28.8 C 9.66 g/m*3 28.8 C 0 km/h
2272 22-07-2003 20:17:03 28.4 C 9.73 g/m*3 28.4 C 0 km/h
2273 22-07-2003 20:27:03 28.1 C 10.94 g/m*3 28.1 C 0 km/h
2274 22-07-2003 20:37:01 26.8 C 11.2 g/m*3 26.8 C 0 km/h
2275 22-07-2003 20:47:01 26.4 C 11.2 g/m*3 26.4 C 0 km/h
Sensor: Nr:Datum:Temp:Abs-Feuchte:Windchill:Wind:
Aussen-T/F 2276 22-07-2003 20:57:01 25.8 C 11.32 g/m*3 25.8 C 0 km/h
2277 22-07-2003 21:07:01 25.1 C 10.88 g/m*3 25.1 C 0 km/h
2278 22-07-2003 21:17:01 24.4 C 10.68 g/m*3 24.4 C 0 km/h
2279 22-07-2003 21:27:01 24 C 10.88 g/m*3 24 C 0 km/h
2280 22-07-2003 21:37:01 23.8 C 10.97 g/m*3 23.8 C 0 km/h
2281 22-07-2003 21:47:01 23.7 C 10.91 g/m*3 23.7 C 0 km/h
2282 22-07-2003 21:57:01 23.2 C 10.81 g/m*3 23.2 C 0 km/h
2283 22-07-2003 22:08:01 23 C 10.89 g/m*3 23 C 0 km/h
2284 22-07-2003 22:18:01 22.7 C 11.11 g/m*3 22.7 C 0 km/h
2285 22-07-2003 22:28:01 22.4 C 11.32 g/m*3 22.4 C 0 km/h
2286 22-07-2003 22:38:01 22.1 C 11.32 g/m*3 22.1 C 0 km/h
2287 22-07-2003 22:58:01 22 C 11.26 g/m*3 22 C 0 km/h
2288 22-07-2003 23:08:01 21.8 C 11.32 g/m*3 21.8 C 0 km/h
2289 22-07-2003 23:18:01 21.6 C 11.57 g/m*3 21.6 C 0 km/h
2290 22-07-2003 23:28:01 21.4 C 11.44 g/m*3 21.4 C 0 km/h
2291 22-07-2003 23:38:01 21.5 C 11.5 g/m*3 21.5 C 0 km/h
2292 22-07-2003 23:48:01 21.3 C 11.56 g/m*3 21.3 C 0 km/h
2293 22-07-2003 23:58:01 21.4 C 11.62 g/m*3 21.4 C 0 km/h
2294 23-07-2003 00:08:01 21.3 C 11.74 g/m*3 21.3 C 0 km/h
2295 23-07-2003 00:18:01 21.2 C 11.68 g/m*3 21.2 C 0 km/h
2296 23-07-2003 00:28:01 21 C 11.54 g/m*3 21 C 0 km/h
2297 23-07-2003 00:38:01 20.9 C 11.66 g/m*3 20.9 C 0 km/h
2298 23-07-2003 00:48:01 20.7 C 11.34 g/m*3 20.7 C 0 km/h
2299 23-07-2003 00:58:01 20.6 C 11.1 g/m*3 20.6 C 0 km/h
2300 23-07-2003 01:08:01 20.6 C 11.28 g/m*3 20.6 C 0 km/h
Sensor: Nr:Datum:Temp:Abs-Feuchte:Windchill:Wind:
Aussen-T/F 2301 23-07-2003 01:18:01 20.6 C 11.28 g/m*3 20.6 C 0 km/h
2302 23-07-2003 01:28:01 20.3 C 11.43 g/m*3 20.3 C 0 km/h
2303 23-07-2003 01:38:01 20.1 C 11.13 g/m*3 20.1 C 0 km/h
2304 23-07-2003 01:48:01 20 C 10.89 g/m*3 20 C 0 km/h
2305 23-07-2003 01:58:01 20 C 11.06 g/m*3 20 C 0 km/h
2306 23-07-2003 02:08:01 19.7 C 11.38 g/m*3 19.7 C 0 km/h
2307 23-07-2003 02:18:01 19.5 C 10.91 g/m*3 19.5 C 0 km/h
2308 23-07-2003 02:28:01 19.4 C 11.01 g/m*3 19.4 C 0 km/h
2309 23-07-2003 02:38:01 19.5 C 11.08 g/m*3 19.5 C 0 km/h
2310 23-07-2003 02:48:01 19.4 C 11.35 g/m*3 19.4 C 0 km/h
2311 23-07-2003 02:58:01 19.3 C 10.95 g/m*3 19.3 C 0 km/h
2312 23-07-2003 03:08:01 19.1 C 11.15 g/m*3 19.1 C 0 km/h
2313 23-07-2003 03:18:01 19.1 C 11.31 g/m*3 19.1 C 0 km/h
2314 23-07-2003 03:28:01 18.7 C 11.21 g/m*3 18.7 C 0 km/h
2315 23-07-2003 03:38:01 18.6 C 11.46 g/m*3 18.6 C 0 km/h
2316 23-07-2003 03:48:01 18.4 C 11.32 g/m*3 18.4 C 0 km/h
2317 23-07-2003 03:58:01 18.4 C 11.17 g/m*3 18.4 C 0 km/h
2318 23-07-2003 04:08:01 18.3 C 11.41 g/m*3 18.3 C 0 km/h
2319 23-07-2003 04:18:01 17.9 C 11.6 g/m*3 17.9 C 0 km/h
2320 23-07-2003 04:28:01 17.7 C 11.47 g/m*3 17.7 C 0 km/h
2321 23-07-2003 04:38:01 17.5 C 11.33 g/m*3 17.5 C 0 km/h
2322 23-07-2003 04:48:01 17.4 C 11.41 g/m*3 17.4 C 0 km/h
2323 23-07-2003 04:58:01 17.2 C 11.42 g/m*3 17.2 C 0 km/h
2324 23-07-2003 05:08:01 17 C 11.29 g/m*3 17 C 0 km/h
2325 23-07-2003 05:18:01 17 C 11.29 g/m*3 17 C 0 km/h
Sensor: Nr:Datum:Temp:Abs-Feuchte:Windchill:Wind:
Aussen-T/F 2326 23-07-2003 05:28:01 16.8 C 11.15 g/m*3 16.8 C 0 km/h
2327 23-07-2003 05:38:01 16.8 C 11.15 g/m*3 16.8 C 0 km/h
2328 23-07-2003 05:48:01 16.7 C 11.23 g/m*3 16.7 C 0 km/h
2329 23-07-2003 05:58:01 16.6 C 11.3 g/m*3 16.6 C 0 km/h
2330 23-07-2003 06:08:01 16.6 C 11.3 g/m*3 16.6 C 0 km/h
2331 23-07-2003 06:18:01 16.4 C 11.31 g/m*3 16.4 C 0 km/h
2332 23-07-2003 06:28:01 16.3 C 11.24 g/m*3 16.3 C 0 km/h
2333 23-07-2003 06:38:01 16.4 C 11.17 g/m*3 16.4 C 0 km/h
2334 23-07-2003 06:48:01 16.5 C 11.37 g/m*3 16.5 C 0 km/h
2335 23-07-2003 06:58:01 16.5 C 11.37 g/m*3 16.5 C 0 km/h
2336 23-07-2003 07:08:01 16.6 C 11.3 g/m*3 16.6 C 0 km/h
2337 23-07-2003 07:18:01 16.7 C 11.51 g/m*3 16.7 C 0 km/h
2338 23-07-2003 07:28:01 16.7 C 11.37 g/m*3 16.7 C 0 km/h
2339 23-07-2003 07:38:01 16.8 C 11.29 g/m*3 16.8 C 0 km/h
2340 23-07-2003 07:48:01 17 C 11.29 g/m*3 17 C 0 km/h
2341 23-07-2003 07:58:01 17.3 C 11.49 g/m*3 17.3 C 0 km/h
2342 23-07-2003 08:08:02 16.8 C 11.29 g/m*3 16.8 C 0 km/h
2343 23-07-2003 08:18:02 17.6 C 11.55 g/m*3 17.6 C 0 km/h
2344 23-07-2003 08:28:02 17.8 C 11.54 g/m*3 17.8 C 0 km/h
2345 23-07-2003 08:38:01 17.9 C 11.6 g/m*3 17.9 C 0 km/h
2346 23-07-2003 08:48:01 18.1 C 11.43 g/m*3 18.1 C 0 km/h
2347 23-07-2003 08:58:01 18.5 C 11.55 g/m*3 18.5 C 0 km/h
2348 23-07-2003 09:08:01 19 C 11.41 g/m*3 19 C 0 km/h
2349 23-07-2003 09:18:01 19.6 C 11.48 g/m*3 19.6 C 0 km/h
2350 23-07-2003 09:28:01 20 C 11.23 g/m*3 20 C 0 km/h
Sensor: Nr:Datum:Temp:Abs-Feuchte:Windchill:Wind:
Aussen-T/F 2351 23-07-2003 09:38:01 20.6 C 11.45 g/m*3 20.6 C 0 km/h
2352 23-07-2003 09:48:01 21.2 C 11.12 g/m*3 21.2 C 0 km/h
2353 23-07-2003 09:58:01 21.8 C 11.32 g/m*3 21.8 C 0 km/h
2354 23-07-2003 10:08:01 22.3 C 10.86 g/m*3 22.3 C 0 km/h
2355 23-07-2003 10:18:01 23 C 10.89 g/m*3 23 C 0 km/h
2356 23-07-2003 10:28:01 23.3 C 10.45 g/m*3 23.3 C 0 km/h
2357 23-07-2003 10:38:01 24.3 C 11.29 g/m*3 24.3 C 0 km/h
2358 23-07-2003 10:48:01 24.5 C 10.3 g/m*3 24.5 C 0 km/h
2359 23-07-2003 10:58:01 25.3 C 10.53 g/m*3 25.3 C 0 km/h
2360 23-07-2003 11:08:01 26.2 C 10.34 g/m*3 26.2 C 0 km/h
2361 23-07-2003 11:18:01 27.6 C 9.58 g/m*3 27.6 C 0 km/h
2362 23-07-2003 11:28:01 28 C 9.52 g/m*3 28 C 0 km/h
2363 23-07-2003 11:38:01 25.4 C 9.89 g/m*3 25.4 C 0 km/h
2364 23-07-2003 11:48:01 24.1 C 9.85 g/m*3 24.1 C 0 km/h
2365 23-07-2003 11:58:01 23.6 C 10.63 g/m*3 23.6 C 0 km/h
2366 23-07-2003 12:08:01 23.3 C 10.66 g/m*3 23.3 C 0 km/h
2367 23-07-2003 12:18:01 23.2 C 10.19 g/m*3 23.2 C 0 km/h
2368 23-07-2003 12:28:01 23.1 C 9.92 g/m*3 23.1 C 0 km/h
2369 23-07-2003 12:38:01 23.7 C 10.05 g/m*3 23.7 C 0 km/h
2370 23-07-2003 12:48:01 25.8 C 9.63 g/m*3 25.8 C 0 km/h
2371 23-07-2003 12:58:01 26.8 C 9.67 g/m*3 26.8 C 0 km/h
2372 23-07-2003 13:08:01 26.4 C 9.46 g/m*3 26.4 C 0 km/h
2373 23-07-2003 13:18:01 26.9 C 9.98 g/m*3 26.9 C 0 km/h
2374 23-07-2003 13:28:01 28.5 C 9.5 g/m*3 28.5 C 0 km/h
2375 23-07-2003 13:38:00 29.5 C 8.85 g/m*3 29.5 C 0 km/h
Sensor: Nr:Datum:Temp:Abs-Feuchte:Windchill:Wind:
Aussen-T/F 2376 23-07-2003 13:48:00 29.1 C 9.53 g/m*3 29.1 C 0 km/h
2377 23-07-2003 13:58:00 30.3 C 9.25 g/m*3 30.3 C 0 km/h
2378 23-07-2003 14:08:01 30.2 C 9.2 g/m*3 30.2 C 0 km/h
2379 23-07-2003 14:18:01 30.6 C 9.08 g/m*3 30.6 C 0 km/h
2380 23-07-2003 14:28:01 30.9 C 9.23 g/m*3 30.9 C 0 km/h
2381 23-07-2003 14:38:01 30.1 C 9.15 g/m*3 30.1 C 0 km/h
2382 23-07-2003 14:48:01 30.5 C 9.35 g/m*3 30.5 C 0 km/h
2383 23-07-2003 14:58:01 30.6 C 9.08 g/m*3 30.6 C 0 km/h
2384 23-07-2003 15:08:02 30.6 C 9.4 g/m*3 30.6 C 0 km/h
2385 23-07-2003 15:18:02 31.2 C 9.06 g/m*3 31.2 C 0 km/h
2386 23-07-2003 15:28:02 31.2 C 8.41 g/m*3 31.2 C 0 km/h
2387 23-07-2003 15:38:00 31.4 C 8.5 g/m*3 31.4 C 0 km/h
2388 23-07-2003 15:48:00 30.9 C 8.28 g/m*3 30.9 C 0 km/h
2389 23-07-2003 15:58:00 30.7 C 8.5 g/m*3 30.7 C 0 km/h
2390 23-07-2003 16:08:01 30.8 C 8.55 g/m*3 30.8 C 0 km/h
2391 23-07-2003 16:18:01 30.5 C 8.72 g/m*3 30.5 C 0 km/h
2392 23-07-2003 16:28:01 30.3 C 8.63 g/m*3 30.3 C 0 km/h
2393 23-07-2003 16:38:01 30.1 C 8.84 g/m*3 30.1 C 0 km/h
2394 23-07-2003 16:48:01 30.3 C 8.63 g/m*3 30.3 C 0 km/h
2395 23-07-2003 16:58:01 30.6 C 8.46 g/m*3 30.6 C 0 km/h
2396 23-07-2003 17:08:01 30.8 C 8.55 g/m*3 30.8 C 0 km/h
2397 23-07-2003 17:18:01 30.9 C 8.59 g/m*3 30.9 C 0 km/h
2398 23-07-2003 17:28:01 30.6 C 9.08 g/m*3 30.6 C 0 km/h
2399 23-07-2003 17:38:01 30.2 C 8.89 g/m*3 30.2 C 0 km/h
2400 23-07-2003 17:48:01 30 C 9.1 g/m*3 30 C 0 km/h
Sensor: Nr:Datum:Temp:Abs-Feuchte:Windchill:Wind:
Aussen-T/F 2401 23-07-2003 17:58:01 30.1 C 8.84 g/m*3 30.1 C 0 km/h
2402 23-07-2003 18:08:02 30 C 9.1 g/m*3 30 C 0 km/h
2403 23-07-2003 18:18:02 29.5 C 9.15 g/m*3 29.5 C 0 km/h
2404 23-07-2003 18:28:02 29.3 C 9.05 g/m*3 29.3 C 0 km/h
2405 23-07-2003 18:38:01 29.8 C 9 g/m*3 29.8 C 0 km/h
2406 23-07-2003 18:48:01 30.4 C 8.99 g/m*3 30.4 C 0 km/h
2407 23-07-2003 18:58:01 29.9 C 9.35 g/m*3 29.9 C 0 km/h
2408 23-07-2003 19:08:01 28.8 C 9.09 g/m*3 28.8 C 0 km/h
2409 23-07-2003 19:18:01 28.1 C 9.02 g/m*3 28.1 C 0 km/h
2410 23-07-2003 19:28:01 27.8 C 9.68 g/m*3 27.8 C 0 km/h
2411 23-07-2003 19:38:01 27.6 C 9.58 g/m*3 27.6 C 0 km/h
2412 23-07-2003 19:48:01 27.7 C 9.63 g/m*3 27.7 C 0 km/h
2413 23-07-2003 19:58:01 27.5 C 9.52 g/m*3 27.5 C 0 km/h
2414 23-07-2003 20:08:02 27.1 C 10.87 g/m*3 27.1 C 0 km/h
2415 23-07-2003 20:18:02 26.7 C 11.14 g/m*3 26.7 C 0 km/h
2416 23-07-2003 20:28:02 26.4 C 10.46 g/m*3 26.4 C 0 km/h
2417 23-07-2003 20:38:02 25.7 C 10.53 g/m*3 25.7 C 0 km/h
2418 23-07-2003 20:48:02 25.4 C 10.12 g/m*3 25.4 C 0 km/h
2419 23-07-2003 20:58:02 24.7 C 10.19 g/m*3 24.7 C 0 km/h
2420 23-07-2003 21:08:01 24.2 C 9.9 g/m*3 24.2 C 0 km/h
2421 23-07-2003 21:18:01 23.8 C 10.33 g/m*3 23.8 C 0 km/h
2422 23-07-2003 21:28:01 23.6 C 10.21 g/m*3 23.6 C 0 km/h
2423 23-07-2003 21:38:01 23.3 C 10.04 g/m*3 23.3 C 0 km/h
2424 23-07-2003 21:48:01 22.9 C 10.01 g/m*3 22.9 C 0 km/h
2425 23-07-2003 21:58:01 23 C 10.07 g/m*3 23 C 0 km/h
Sensor: Nr:Datum:Temp:Abs-Feuchte:Windchill:Wind:
Aussen-T/F 2426 23-07-2003 22:09:00 22.9 C 10.42 g/m*3 22.9 C 0 km/h
2427 23-07-2003 22:19:00 22.5 C 10.19 g/m*3 22.5 C 0 km/h
2428 23-07-2003 22:29:00 22.2 C 10.21 g/m*3 22.2 C 0 km/h
2429 23-07-2003 22:39:00 22 C 10.29 g/m*3 22 C 0 km/h
2430 23-07-2003 22:49:00 21.8 C 10.36 g/m*3 21.8 C 0 km/h
2431 23-07-2003 22:59:00 21.7 C 10.49 g/m*3 21.7 C 0 km/h
2432 23-07-2003 23:09:00 21.6 C 10.62 g/m*3 21.6 C 0 km/h
2433 23-07-2003 23:19:00 21.3 C 10.62 g/m*3 21.3 C 0 km/h
2434 23-07-2003 23:29:00 20.9 C 10.56 g/m*3 20.9 C 0 km/h
2435 23-07-2003 23:39:00 20.9 C 10.75 g/m*3 20.9 C 0 km/h
2436 23-07-2003 23:49:00 20.8 C 10.68 g/m*3 20.8 C 0 km/h
2437 23-07-2003 23:59:00 20.6 C 10.74 g/m*3 20.6 C 0 km/h
2438 24-07-2003 00:09:00 20.4 C 10.61 g/m*3 20.4 C 0 km/h
2439 24-07-2003 00:19:00 20 C 10.54 g/m*3 20 C 0 km/h
2440 24-07-2003 00:29:00 20 C 10.71 g/m*3 20 C 0 km/h
2441 24-07-2003 00:39:00 19.8 C 10.76 g/m*3 19.8 C 0 km/h
2442 24-07-2003 00:49:00 19.7 C 10.7 g/m*3 19.7 C 0 km/h
2443 24-07-2003 00:59:00 19.5 C 10.74 g/m*3 19.5 C 0 km/h
2444 24-07-2003 01:09:00 19.3 C 10.78 g/m*3 19.3 C 0 km/h
2445 24-07-2003 01:19:00 19.3 C 10.78 g/m*3 19.3 C 0 km/h
2446 24-07-2003 01:29:00 19.1 C 10.82 g/m*3 19.1 C 0 km/h
2447 24-07-2003 01:39:00 19 C 10.76 g/m*3 19 C 0 km/h
2448 24-07-2003 01:49:00 18.9 C 11.02 g/m*3 18.9 C 0 km/h
2449 24-07-2003 01:59:00 18.7 C 10.89 g/m*3 18.7 C 0 km/h
2450 24-07-2003 02:09:00 18.4 C 10.85 g/m*3 18.4 C 0 km/h
Sensor: Nr:Datum:Temp:Abs-Feuchte:Windchill:Wind:
Aussen-T/F 2451 24-07-2003 02:19:00 18.3 C 10.94 g/m*3 18.3 C 0 km/h
2452 24-07-2003 02:29:00 18.1 C 10.97 g/m*3 18.1 C 0 km/h
2453 24-07-2003 02:39:00 18 C 11.06 g/m*3 18 C 0 km/h
2454 24-07-2003 02:49:00 17.9 C 10.99 g/m*3 17.9 C 0 km/h
2455 24-07-2003 02:59:00 17.8 C 10.93 g/m*3 17.8 C 0 km/h
2456 24-07-2003 03:09:00 17.7 C 11.01 g/m*3 17.7 C 0 km/h
2457 24-07-2003 03:19:00 17.6 C 11.1 g/m*3 17.6 C 0 km/h
2458 24-07-2003 03:29:00 17.6 C 10.95 g/m*3 17.6 C 0 km/h
2459 24-07-2003 03:39:00 17.7 C 11.01 g/m*3 17.7 C 0 km/h
2460 24-07-2003 03:49:00 17.6 C 10.95 g/m*3 17.6 C 0 km/h
2461 24-07-2003 03:59:00 17.6 C 11.1 g/m*3 17.6 C 0 km/h
2462 24-07-2003 04:09:00 17.8 C 11.23 g/m*3 17.8 C 0 km/h
2463 24-07-2003 04:19:00 17.9 C 11.15 g/m*3 17.9 C 0 km/h
2464 24-07-2003 04:29:00 17.6 C 11.1 g/m*3 17.6 C 0 km/h
2465 24-07-2003 04:39:00 17.5 C 11.18 g/m*3 17.5 C 0 km/h
2466 24-07-2003 04:49:00 17.6 C 11.25 g/m*3 17.6 C 0 km/h
2467 24-07-2003 04:59:00 17.8 C 11.38 g/m*3 17.8 C 0 km/h
2468 24-07-2003 05:09:00 17.7 C 11.32 g/m*3 17.7 C 0 km/h
2469 24-07-2003 05:19:00 17.6 C 11.25 g/m*3 17.6 C 0 km/h
2470 24-07-2003 05:29:00 17.6 C 11.25 g/m*3 17.6 C 0 km/h
2471 24-07-2003 05:39:00 17.5 C 11.33 g/m*3 17.5 C 0 km/h
2472 24-07-2003 05:49:00 17.5 C 11.18 g/m*3 17.5 C 0 km/h
2473 24-07-2003 05:59:00 17.5 C 11.33 g/m*3 17.5 C 0 km/h
2474 24-07-2003 06:09:00 17.5 C 11.33 g/m*3 17.5 C 0 km/h
2475 24-07-2003 06:19:00 17.6 C 11.4 g/m*3 17.6 C 0 km/h
Sensor: Nr:Datum:Temp:Abs-Feuchte:Windchill:Wind:
Aussen-T/F 2476 24-07-2003 06:29:00 17.7 C 11.32 g/m*3 17.7 C 0 km/h
2477 24-07-2003 06:39:00 17.5 C 11.33 g/m*3 17.5 C 0 km/h
2478 24-07-2003 06:49:00 17.6 C 11.4 g/m*3 17.6 C 0 km/h
2479 24-07-2003 06:59:00 17.7 C 11.47 g/m*3 17.7 C 0 km/h
2480 24-07-2003 07:09:00 17.7 C 11.32 g/m*3 17.7 C 0 km/h
2481 24-07-2003 07:19:00 17.9 C 11.3 g/m*3 17.9 C 0 km/h
2482 24-07-2003 07:29:00 18.3 C 11.41 g/m*3 18.3 C 0 km/h
2483 24-07-2003 07:39:00 18.6 C 11.46 g/m*3 18.6 C 0 km/h
2484 24-07-2003 07:49:00 18.7 C 11.37 g/m*3 18.7 C 0 km/h
2485 24-07-2003 07:59:00 18.8 C 11.6 g/m*3 18.8 C 0 km/h
2486 24-07-2003 08:09:01 18.8 C 11.6 g/m*3 18.8 C 0 km/h
2487 24-07-2003 08:19:01 19.2 C 11.54 g/m*3 19.2 C 0 km/h
2488 24-07-2003 08:29:01 19.2 C 11.54 g/m*3 19.2 C 0 km/h
2489 24-07-2003 08:39:01 19.2 C 11.71 g/m*3 19.2 C 0 km/h
2490 24-07-2003 08:49:01 19.5 C 11.58 g/m*3 19.5 C 0 km/h
2491 24-07-2003 08:59:01 19.9 C 11.68 g/m*3 19.9 C 0 km/h
2492 24-07-2003 09:09:01 20.2 C 11.37 g/m*3 20.2 C 0 km/h
2493 24-07-2003 09:19:01 20.5 C 11.39 g/m*3 20.5 C 0 km/h
2494 24-07-2003 09:29:01 20.4 C 11.32 g/m*3 20.4 C 0 km/h
2495 24-07-2003 09:39:02 20.5 C 11.57 g/m*3 20.5 C 0 km/h
2496 24-07-2003 09:49:02 21.2 C 11.86 g/m*3 21.2 C 0 km/h
2497 24-07-2003 09:59:02 22.2 C 11.78 g/m*3 22.2 C 0 km/h
2498 24-07-2003 10:09:01 22.3 C 11.65 g/m*3 22.3 C 0 km/h
2499 24-07-2003 10:19:01 22.8 C 11.79 g/m*3 22.8 C 0 km/h
2500 24-07-2003 10:29:01 23.1 C 11.37 g/m*3 23.1 C 0 km/h
Sensor: Nr:Datum:Temp:Abs-Feuchte:Windchill:Wind:
Aussen-T/F 2501 24-07-2003 10:39:00 23.3 C 11.29 g/m*3 23.3 C 0 km/h
2502 24-07-2003 10:49:00 23.6 C 11.27 g/m*3 23.6 C 0 km/h
2503 24-07-2003 10:59:00 23.7 C 11.55 g/m*3 23.7 C 0 km/h
2504 24-07-2003 11:09:01 23.3 C 11.29 g/m*3 23.3 C 0 km/h
2505 24-07-2003 11:19:01 23.5 C 11 g/m*3 23.5 C 0 km/h
2506 24-07-2003 11:29:01 23.8 C 10.33 g/m*3 23.8 C 0 km/h
2507 24-07-2003 11:39:02 24.5 C 10.3 g/m*3 24.5 C 0 km/h
2508 24-07-2003 11:49:02 25.8 C 10.83 g/m*3 25.8 C 0 km/h
2509 24-07-2003 11:59:02 25.9 C 10.65 g/m*3 25.9 C 0 km/h
2510 24-07-2003 12:09:02 26.5 C 11.01 g/m*3 26.5 C 0 km/h
2511 24-07-2003 12:19:02 26.5 C 11.01 g/m*3 26.5 C 0 km/h
2512 24-07-2003 12:29:02 26.6 C 11.08 g/m*3 26.6 C 0 km/h
2513 24-07-2003 12:39:01 27.1 C 10.61 g/m*3 27.1 C 0 km/h
2514 24-07-2003 12:49:01 26.8 C 10.69 g/m*3 26.8 C 0 km/h
2515 24-07-2003 12:59:01 26.8 C 10.94 g/m*3 26.8 C 0 km/h
2516 24-07-2003 13:09:02 27.5 C 10.85 g/m*3 27.5 C 0 km/h
2517 24-07-2003 13:19:02 28.1 C 10.66 g/m*3 28.1 C 0 km/h
2518 24-07-2003 13:29:02 28.3 C 9.95 g/m*3 28.3 C 0 km/h
2519 24-07-2003 13:39:01 29.5 C 10.63 g/m*3 29.5 C 0 km/h
2520 24-07-2003 13:49:01 30.1 C 10.37 g/m*3 30.1 C 0 km/h
2521 24-07-2003 13:59:01 30 C 10.01 g/m*3 30 C 0 km/h
2522 24-07-2003 14:09:02 29.4 C 10.27 g/m*3 29.4 C 0 km/h
2523 24-07-2003 14:19:02 29 C 10.34 g/m*3 29 C 0 km/h
2524 24-07-2003 14:29:02 28.8 C 10.51 g/m*3 28.8 C 0 km/h
2525 24-07-2003 14:39:01 28.5 C 10.62 g/m*3 28.5 C 0 km/h
Sensor: Nr:Datum:Temp:Abs-Feuchte:Windchill:Wind:
Aussen-T/F 2526 24-07-2003 14:49:01 29 C 10.05 g/m*3 29 C 0 km/h
2527 24-07-2003 14:59:01 29.5 C 9.74 g/m*3 29.5 C 0 km/h
2528 24-07-2003 15:09:01 29.3 C 9.05 g/m*3 29.3 C 0 km/h
2529 24-07-2003 15:19:01 28.7 C 8.19 g/m*3 28.7 C 0 km/h
2530 24-07-2003 15:29:01 27.7 C 8.29 g/m*3 27.7 C 0 km/h
2531 24-07-2003 15:39:01 27.6 C 7.98 g/m*3 27.6 C 0 km/h
2532 24-07-2003 15:49:01 27.5 C 7.94 g/m*3 27.5 C 0 km/h
2533 24-07-2003 15:59:01 26.1 C 9.06 g/m*3 26.1 C 0 km/h
2534 24-07-2003 16:09:01 25.6 C 9.52 g/m*3 25.6 C 0 km/h
2535 24-07-2003 16:19:01 26.7 C 9.11 g/m*3 26.7 C 0 km/h
2536 24-07-2003 16:29:01 27.3 C 9.16 g/m*3 27.3 C 0 km/h
2537 24-07-2003 16:39:01 26.7 C 9.11 g/m*3 26.7 C 0 km/h
2538 24-07-2003 16:49:01 26.9 C 9.47 g/m*3 26.9 C 0 km/h
2539 24-07-2003 16:59:01 27 C 9.26 g/m*3 27 C 0 km/h
2540 24-07-2003 17:09:01 25.9 C 9.68 g/m*3 25.9 C 0 km/h
2541 24-07-2003 17:19:01 24.8 C 10.02 g/m*3 24.8 C 0 km/h
2542 24-07-2003 17:39:01 22.9 C 11.65 g/m*3 22.9 C 0 km/h
2543 24-07-2003 17:49:01 23.3 C 10.87 g/m*3 23.3 C 0 km/h
2544 24-07-2003 17:59:01 23.6 C 10.63 g/m*3 23.6 C 0 km/h
2545 24-07-2003 18:09:42 22.1 C 11.32 g/m*3 22.1 C 0 km/h
2546 24-07-2003 18:19:42 20.7 C 12.78 g/m*3 20.7 C 0 km/h
2547 24-07-2003 18:29:01 19.8 C 13.32 g/m*3 19.8 C 0 km/h
2548 24-07-2003 18:39:01 19.8 C 12.98 g/m*3 19.8 C 0 km/h
2549 24-07-2003 18:49:01 20.7 C 11.7 g/m*3 20.7 C 0 km/h
2550 24-07-2003 18:59:01 22.2 C 12.17 g/m*3 22.2 C 0 km/h
Sensor: Nr:Datum:Temp:Abs-Feuchte:Windchill:Wind:
Aussen-T/F 2551 24-07-2003 19:09:01 22.4 C 12.31 g/m*3 22.4 C 0 km/h
2552 24-07-2003 19:19:01 21.6 C 11.95 g/m*3 21.6 C 0 km/h
2553 24-07-2003 19:29:01 21.6 C 12.52 g/m*3 21.6 C 0 km/h
2554 24-07-2003 19:39:01 21.8 C 12.47 g/m*3 21.8 C 0 km/h
2555 24-07-2003 19:49:01 21.5 C 12.26 g/m*3 21.5 C 0 km/h
2556 24-07-2003 19:59:01 20.9 C 12.02 g/m*3 20.9 C 0 km/h
2557 24-07-2003 20:09:01 21 C 12.46 g/m*3 21 C 0 km/h
2558 24-07-2003 20:19:01 20.7 C 13.14 g/m*3 20.7 C 0 km/h
2559 24-07-2003 20:29:01 19.3 C 12.94 g/m*3 19.3 C 0 km/h
2560 24-07-2003 20:39:02 19.3 C 13.77 g/m*3 19.3 C 0 km/h
2561 24-07-2003 20:49:02 19 C 14.01 g/m*3 19 C 0 km/h
2562 24-07-2003 20:59:02 18.6 C 13.85 g/m*3 18.6 C 0 km/h
2563 24-07-2003 21:09:01 18.6 C 14.01 g/m*3 18.6 C 0 km/h
2564 24-07-2003 21:19:01 18.1 C 13.6 g/m*3 18.1 C 0 km/h
2565 24-07-2003 21:29:01 17.7 C 13.43 g/m*3 17.7 C 0 km/h
2566 24-07-2003 21:39:02 17.7 C 13.58 g/m*3 17.7 C 0 km/h
2567 24-07-2003 21:49:02 17.8 C 13.51 g/m*3 17.8 C 0 km/h
2568 24-07-2003 21:59:02 17.5 C 13.12 g/m*3 17.5 C 0 km/h
2569 24-07-2003 22:10:02 17.6 C 13.05 g/m*3 17.6 C 0 km/h
2570 24-07-2003 22:20:02 17.5 C 12.97 g/m*3 17.5 C 0 km/h
2571 24-07-2003 22:30:02 17.5 C 12.82 g/m*3 17.5 C 0 km/h
2572 24-07-2003 22:40:02 17.5 C 12.97 g/m*3 17.5 C 0 km/h
2573 24-07-2003 22:50:02 17.5 C 12.82 g/m*3 17.5 C 0 km/h
2574 24-07-2003 23:00:02 17.2 C 12.45 g/m*3 17.2 C 0 km/h
2575 24-07-2003 23:10:02 17.1 C 12.52 g/m*3 17.1 C 0 km/h
Sensor: Nr:Datum:Temp:Abs-Feuchte:Windchill:Wind:
Aussen-T/F 2576 24-07-2003 23:20:02 17 C 12.59 g/m*3 17 C 0 km/h
2577 24-07-2003 23:30:02 16.8 C 12.58 g/m*3 16.8 C 0 km/h
2578 24-07-2003 23:40:02 16.7 C 12.36 g/m*3 16.7 C 0 km/h
2579 24-07-2003 23:50:02 16.8 C 12.58 g/m*3 16.8 C 0 km/h
2580 25-07-2003 00:00:02 16.8 C 12.44 g/m*3 16.8 C 0 km/h
2581 25-07-2003 00:10:02 16.7 C 12.36 g/m*3 16.7 C 0 km/h
2582 25-07-2003 00:20:02 16.6 C 12.29 g/m*3 16.6 C 0 km/h
2583 25-07-2003 00:30:02 16.6 C 12.29 g/m*3 16.6 C 0 km/h
2584 25-07-2003 00:40:02 16.3 C 12.21 g/m*3 16.3 C 0 km/h
2585 25-07-2003 00:50:02 16.2 C 12.14 g/m*3 16.2 C 0 km/h
2586 25-07-2003 01:00:02 16.1 C 12.06 g/m*3 16.1 C 0 km/h
2587 25-07-2003 01:10:02 16 C 11.99 g/m*3 16 C 0 km/h
2588 25-07-2003 01:20:02 15.9 C 12.05 g/m*3 15.9 C 0 km/h
2589 25-07-2003 01:30:02 15.8 C 11.98 g/m*3 15.8 C 0 km/h
2590 25-07-2003 01:40:02 15.7 C 12.04 g/m*3 15.7 C 0 km/h
2591 25-07-2003 01:50:02 15.5 C 11.76 g/m*3 15.5 C 0 km/h
2592 25-07-2003 02:00:02 15.4 C 11.69 g/m*3 15.4 C 0 km/h
2593 25-07-2003 02:10:02 15.4 C 11.69 g/m*3 15.4 C 0 km/h
2594 25-07-2003 02:20:02 15.4 C 11.82 g/m*3 15.4 C 0 km/h
2595 25-07-2003 02:30:02 15.3 C 11.75 g/m*3 15.3 C 0 km/h
2596 25-07-2003 02:40:02 15.2 C 11.68 g/m*3 15.2 C 0 km/h
2597 25-07-2003 02:50:02 15.2 C 11.68 g/m*3 15.2 C 0 km/h
2598 25-07-2003 03:00:02 15.2 C 11.68 g/m*3 15.2 C 0 km/h
2599 25-07-2003 03:10:02 15.2 C 11.68 g/m*3 15.2 C 0 km/h
2600 25-07-2003 03:20:02 15.2 C 11.68 g/m*3 15.2 C 0 km/h
Sensor: Nr:Datum:Temp:Abs-Feuchte:Windchill:Wind:
Aussen-T/F 2601 25-07-2003 03:30:02 15.1 C 11.61 g/m*3 15.1 C 0 km/h
2602 25-07-2003 03:40:02 15 C 11.41 g/m*3 15 C 0 km/h
2603 25-07-2003 03:50:02 14.9 C 11.47 g/m*3 14.9 C 0 km/h
2604 25-07-2003 04:00:02 15 C 11.54 g/m*3 15 C 0 km/h
2605 25-07-2003 04:10:02 14.8 C 11.4 g/m*3 14.8 C 0 km/h
2606 25-07-2003 04:20:02 14.8 C 11.4 g/m*3 14.8 C 0 km/h
2607 25-07-2003 04:30:02 15 C 11.54 g/m*3 15 C 0 km/h
2608 25-07-2003 04:40:02 15.2 C 11.68 g/m*3 15.2 C 0 km/h
2609 25-07-2003 04:50:02 15.2 C 11.68 g/m*3 15.2 C 0 km/h
2610 25-07-2003 05:00:02 15.3 C 11.75 g/m*3 15.3 C 0 km/h
2611 25-07-2003 05:10:02 15.4 C 11.82 g/m*3 15.4 C 0 km/h
2612 25-07-2003 05:20:02 15.4 C 11.69 g/m*3 15.4 C 0 km/h
2613 25-07-2003 05:30:02 15.3 C 11.62 g/m*3 15.3 C 0 km/h
2614 25-07-2003 05:40:02 15.3 C 11.62 g/m*3 15.3 C 0 km/h
2615 25-07-2003 05:50:02 15.1 C 11.48 g/m*3 15.1 C 0 km/h
2616 25-07-2003 06:00:02 15.1 C 11.48 g/m*3 15.1 C 0 km/h
2617 25-07-2003 06:10:02 15.2 C 11.42 g/m*3 15.2 C 0 km/h
2618 25-07-2003 06:20:02 15.3 C 11.36 g/m*3 15.3 C 0 km/h
2619 25-07-2003 06:30:02 15.4 C 11.56 g/m*3 15.4 C 0 km/h
2620 25-07-2003 06:40:02 15.5 C 11.5 g/m*3 15.5 C 0 km/h
2621 25-07-2003 06:50:02 15.3 C 11.49 g/m*3 15.3 C 0 km/h
2622 25-07-2003 07:00:02 15.4 C 11.56 g/m*3 15.4 C 0 km/h
2623 25-07-2003 07:10:02 15.5 C 11.5 g/m*3 15.5 C 0 km/h
2624 25-07-2003 07:20:02 15.8 C 11.71 g/m*3 15.8 C 0 km/h
2625 25-07-2003 07:30:02 16 C 11.58 g/m*3 16 C 0 km/h
Sensor: Nr:Datum:Temp:Abs-Feuchte:Windchill:Wind:
Aussen-T/F 2626 25-07-2003 07:40:02 16.2 C 11.45 g/m*3 16.2 C 0 km/h
2627 25-07-2003 07:50:02 16.2 C 11.45 g/m*3 16.2 C 0 km/h
2628 25-07-2003 08:00:02 16.1 C 11.51 g/m*3 16.1 C 0 km/h
2629 25-07-2003 08:10:02 15.8 C 11.58 g/m*3 15.8 C 0 km/h
2630 25-07-2003 08:20:02 16.1 C 11.79 g/m*3 16.1 C 0 km/h
2631 25-07-2003 08:30:02 16.1 C 11.65 g/m*3 16.1 C 0 km/h
2632 25-07-2003 08:40:00 16.1 C 11.65 g/m*3 16.1 C 0 km/h
2633 25-07-2003 08:50:00 16.5 C 11.8 g/m*3 16.5 C 0 km/h
2634 25-07-2003 09:00:00 16.9 C 11.79 g/m*3 16.9 C 0 km/h
2635 25-07-2003 09:10:01 17.5 C 12.08 g/m*3 17.5 C 0 km/h
2636 25-07-2003 09:20:01 17.8 C 11.84 g/m*3 17.8 C 0 km/h
2637 25-07-2003 09:30:01 18.1 C 11.74 g/m*3 18.1 C 0 km/h
2638 25-07-2003 09:40:01 18.4 C 11.95 g/m*3 18.4 C 0 km/h
2639 25-07-2003 09:50:01 18.9 C 12.15 g/m*3 18.9 C 0 km/h
2640 25-07-2003 10:00:01 19.3 C 12.11 g/m*3 19.3 C 0 km/h
2641 25-07-2003 10:10:01 19.4 C 12.51 g/m*3 19.4 C 0 km/h
2642 25-07-2003 10:20:01 19.7 C 12.23 g/m*3 19.7 C 0 km/h
2643 25-07-2003 10:30:01 20 C 12.27 g/m*3 20 C 0 km/h
2644 25-07-2003 10:40:01 20.3 C 12.31 g/m*3 20.3 C 0 km/h
2645 25-07-2003 10:50:01 20.7 C 12.42 g/m*3 20.7 C 0 km/h
2646 25-07-2003 11:00:01 21.1 C 12.53 g/m*3 21.1 C 0 km/h
2647 25-07-2003 11:10:00 21.4 C 12.75 g/m*3 21.4 C 0 km/h
2648 25-07-2003 11:20:00 21.6 C 12.71 g/m*3 21.6 C 0 km/h
2649 25-07-2003 11:30:00 22 C 12.62 g/m*3 22 C 0 km/h
2650 25-07-2003 11:40:02 22.9 C 12.88 g/m*3 22.9 C 0 km/h
Sensor: Nr:Datum:Temp:Abs-Feuchte:Windchill:Wind:
Aussen-T/F 2651 25-07-2003 11:50:02 23 C 12.74 g/m*3 23 C 0 km/h
2652 25-07-2003 12:00:02 23.2 C 12.89 g/m*3 23.2 C 0 km/h
2653 25-07-2003 12:10:01 23 C 12.74 g/m*3 23 C 0 km/h
2654 25-07-2003 12:20:01 23.4 C 12.41 g/m*3 23.4 C 0 km/h
2655 25-07-2003 12:30:01 24 C 11.53 g/m*3 24 C 0 km/h
2656 25-07-2003 12:40:01 24.5 C 11.41 g/m*3 24.5 C 0 km/h
2657 25-07-2003 12:50:01 25.1 C 10.88 g/m*3 25.1 C 0 km/h
2658 25-07-2003 13:00:01 25.4 C 10.83 g/m*3 25.4 C 0 km/h
2659 25-07-2003 13:10:01 24.8 C 11.38 g/m*3 24.8 C 0 km/h
2660 25-07-2003 13:20:01 24.2 C 12.32 g/m*3 24.2 C 0 km/h
2661 25-07-2003 13:30:01 25.2 C 11.41 g/m*3 25.2 C 0 km/h
2662 25-07-2003 13:40:01 27.7 C 9.36 g/m*3 27.7 C 0 km/h
2663 25-07-2003 13:50:01 28.4 C 9.17 g/m*3 28.4 C 0 km/h
2664 25-07-2003 14:00:01 28.2 C 9.62 g/m*3 28.2 C 0 km/h
2665 25-07-2003 14:10:00 27 C 8.75 g/m*3 27 C 0 km/h
2666 25-07-2003 14:20:00 27.6 C 8.78 g/m*3 27.6 C 0 km/h
2667 25-07-2003 14:30:00 28 C 8.97 g/m*3 28 C 0 km/h
2668 25-07-2003 14:40:02 28.1 C 9.57 g/m*3 28.1 C 0 km/h
2669 25-07-2003 14:50:02 27.6 C 9.31 g/m*3 27.6 C 0 km/h
2670 25-07-2003 15:00:02 27.8 C 10.22 g/m*3 27.8 C 0 km/h
2671 25-07-2003 15:10:01 27.4 C 9.21 g/m*3 27.4 C 0 km/h
2672 25-07-2003 15:20:01 27.7 C 9.63 g/m*3 27.7 C 0 km/h
2673 25-07-2003 15:30:01 28.5 C 8.94 g/m*3 28.5 C 0 km/h
2674 25-07-2003 15:40:01 28.1 C 10.39 g/m*3 28.1 C 0 km/h
2675 25-07-2003 15:50:01 28.8 C 9.09 g/m*3 28.8 C 0 km/h
Sensor: Nr:Datum:Temp:Abs-Feuchte:Windchill:Wind:
Aussen-T/F 2676 25-07-2003 16:00:01 29.3 C 9.05 g/m*3 29.3 C 0 km/h
2677 25-07-2003 16:10:00 30.2 C 8.89 g/m*3 30.2 C 0 km/h
2678 25-07-2003 16:20:00 30.1 C 8.54 g/m*3 30.1 C 0 km/h
2679 25-07-2003 16:30:00 29.5 C 7.97 g/m*3 29.5 C 0 km/h
2680 25-07-2003 16:50:01 30.1 C 8.23 g/m*3 30.1 C 0 km/h
2681 25-07-2003 17:00:01 29.9 C 8.75 g/m*3 29.9 C 0 km/h
2682 25-07-2003 17:10:01 30 C 7.88 g/m*3 30 C 0 km/h
2683 25-07-2003 17:20:01 29.4 C 7.93 g/m*3 29.4 C 0 km/h
2684 25-07-2003 17:20:02 29.4 C 7.93 g/m*3 29.4 C 0 km/h
2685 25-07-2003 17:30:02 30.1 C 7.62 g/m*3 30.1 C 0 km/h
2686 25-07-2003 17:40:02 29.9 C 7.54 g/m*3 29.9 C 0 km/h
2687 25-07-2003 17:50:02 29.1 C 7.51 g/m*3 29.1 C 0 km/h
2688 25-07-2003 18:00:02 28.4 C 7.51 g/m*3 28.4 C 0 km/h
2689 25-07-2003 18:10:01 27.8 C 7.8 g/m*3 27.8 C 0 km/h
2690 25-07-2003 18:20:01 27.3 C 7.85 g/m*3 27.3 C 0 km/h
2691 25-07-2003 18:30:01 27.1 C 8.02 g/m*3 27.1 C 0 km/h
2692 25-07-2003 18:40:01 27.3 C 8.11 g/m*3 27.3 C 0 km/h
2693 25-07-2003 18:50:01 27.6 C 7.98 g/m*3 27.6 C 0 km/h
2694 25-07-2003 19:00:01 27.8 C 8.07 g/m*3 27.8 C 0 km/h
2695 25-07-2003 19:10:01 27.5 C 7.94 g/m*3 27.5 C 0 km/h
2696 25-07-2003 19:20:01 28.2 C 7.7 g/m*3 28.2 C 0 km/h
2697 25-07-2003 19:30:01 27.8 C 7.53 g/m*3 27.8 C 0 km/h
2698 25-07-2003 20:10:42 25.5 C 8.76 g/m*3 25.5 C 0 km/h
2699 25-07-2003 20:20:01 25 C 8.75 g/m*3 25 C 0 km/h
2700 25-07-2003 20:30:01 24.6 C 8.78 g/m*3 24.6 C 0 km/h
Sensor: Nr:Datum:Temp:Abs-Feuchte:Windchill:Wind:
Aussen-T/F 2701 25-07-2003 20:40:02 24.4 C 8.68 g/m*3 24.4 C 0 km/h
2702 25-07-2003 20:50:02 24.3 C 8.41 g/m*3 24.3 C 0 km/h
2703 25-07-2003 21:00:02 24.2 C 8.36 g/m*3 24.2 C 0 km/h
2704 25-07-2003 21:10:01 24.1 C 8.75 g/m*3 24.1 C 0 km/h
2705 25-07-2003 21:20:01 22.5 C 10.39 g/m*3 22.5 C 0 km/h
2706 25-07-2003 21:30:01 21.6 C 11.38 g/m*3 21.6 C 0 km/h
2707 25-07-2003 21:40:01 20.4 C 12.03 g/m*3 20.4 C 0 km/h
2708 25-07-2003 21:50:01 20.1 C 11.13 g/m*3 20.1 C 0 km/h
2709 25-07-2003 22:00:01 20.4 C 10.97 g/m*3 20.4 C 0 km/h
2710 25-07-2003 22:10:02 20.7 C 10.98 g/m*3 20.7 C 0 km/h
2711 25-07-2003 22:20:02 21.3 C 10.62 g/m*3 21.3 C 0 km/h
2712 25-07-2003 22:30:02 21.4 C 10.31 g/m*3 21.4 C 0 km/h
2713 25-07-2003 22:41:01 21.4 C 10.5 g/m*3 21.4 C 0 km/h
2714 25-07-2003 22:51:01 21.4 C 10.5 g/m*3 21.4 C 0 km/h
2715 25-07-2003 23:01:01 21.3 C 10.25 g/m*3 21.3 C 0 km/h
2716 25-07-2003 23:11:01 21.3 C 10.07 g/m*3 21.3 C 0 km/h
2717 25-07-2003 23:21:01 21.4 C 10.12 g/m*3 21.4 C 0 km/h
2718 25-07-2003 23:31:01 20.6 C 10.92 g/m*3 20.6 C 0 km/h
2719 25-07-2003 23:41:01 20.1 C 11.13 g/m*3 20.1 C 0 km/h
2720 25-07-2003 23:51:01 20 C 11.41 g/m*3 20 C 0 km/h
2721 26-07-2003 00:01:01 19.5 C 11.75 g/m*3 19.5 C 0 km/h
2722 26-07-2003 00:11:01 19.3 C 11.94 g/m*3 19.3 C 0 km/h
2723 26-07-2003 00:21:01 19.1 C 12.29 g/m*3 19.1 C 0 km/h
2724 26-07-2003 00:31:01 19.1 C 12.46 g/m*3 19.1 C 0 km/h
2725 26-07-2003 00:41:01 18.7 C 12.49 g/m*3 18.7 C 0 km/h
Sensor: Nr:Datum:Temp:Abs-Feuchte:Windchill:Wind:
Aussen-T/F 2726 26-07-2003 00:51:01 18.6 C 12.57 g/m*3 18.6 C 0 km/h
2727 26-07-2003 01:01:01 18.4 C 12.58 g/m*3 18.4 C 0 km/h
2728 26-07-2003 01:11:01 18.5 C 12.34 g/m*3 18.5 C 0 km/h
2729 26-07-2003 01:21:01 18.6 C 12.26 g/m*3 18.6 C 0 km/h
2730 26-07-2003 01:31:01 18.8 C 12.4 g/m*3 18.8 C 0 km/h
2731 26-07-2003 01:41:01 18.5 C 12.02 g/m*3 18.5 C 0 km/h
2732 26-07-2003 01:51:01 18.5 C 12.18 g/m*3 18.5 C 0 km/h
2733 26-07-2003 02:01:01 18.6 C 12.26 g/m*3 18.6 C 0 km/h
2734 26-07-2003 02:11:01 18.8 C 12.24 g/m*3 18.8 C 0 km/h
2735 26-07-2003 02:21:01 18.9 C 12.31 g/m*3 18.9 C 0 km/h
2736 26-07-2003 02:31:01 18.9 C 11.99 g/m*3 18.9 C 0 km/h
2737 26-07-2003 02:41:01 19.1 C 11.47 g/m*3 19.1 C 0 km/h
2738 26-07-2003 02:51:01 19.2 C 11.38 g/m*3 19.2 C 0 km/h
2739 26-07-2003 03:01:01 19.4 C 11.35 g/m*3 19.4 C 0 km/h
2740 26-07-2003 03:11:01 19.6 C 11.14 g/m*3 19.6 C 0 km/h
2741 26-07-2003 03:21:01 19.6 C 11.14 g/m*3 19.6 C 0 km/h
2742 26-07-2003 03:31:01 19.5 C 11.58 g/m*3 19.5 C 0 km/h
2743 26-07-2003 03:41:01 19.2 C 11.38 g/m*3 19.2 C 0 km/h
2744 26-07-2003 03:51:01 19.3 C 11.44 g/m*3 19.3 C 0 km/h
2745 26-07-2003 04:01:01 19.3 C 11.44 g/m*3 19.3 C 0 km/h
2746 26-07-2003 04:11:01 19.5 C 11.24 g/m*3 19.5 C 0 km/h
2747 26-07-2003 04:21:01 19.7 C 11.38 g/m*3 19.7 C 0 km/h
2748 26-07-2003 04:31:01 19.8 C 11.44 g/m*3 19.8 C 0 km/h
2749 26-07-2003 04:41:01 19.8 C 11.44 g/m*3 19.8 C 0 km/h
2750 26-07-2003 04:51:01 19.8 C 11.61 g/m*3 19.8 C 0 km/h
Sensor: Nr:Datum:Temp:Abs-Feuchte:Windchill:Wind:
Aussen-T/F 2751 26-07-2003 05:01:01 19.8 C 11.61 g/m*3 19.8 C 0 km/h
2752 26-07-2003 05:11:01 19.7 C 11.72 g/m*3 19.7 C 0 km/h
2753 26-07-2003 05:21:01 19.7 C 11.89 g/m*3 19.7 C 0 km/h
2754 26-07-2003 05:31:01 19.7 C 11.89 g/m*3 19.7 C 0 km/h
2755 26-07-2003 05:41:01 19.7 C 11.89 g/m*3 19.7 C 0 km/h
2756 26-07-2003 05:51:01 19.7 C 11.89 g/m*3 19.7 C 0 km/h
2757 26-07-2003 06:01:01 19.6 C 11.99 g/m*3 19.6 C 0 km/h
2758 26-07-2003 06:11:01 19.7 C 12.06 g/m*3 19.7 C 0 km/h
2759 26-07-2003 06:21:01 19.7 C 12.06 g/m*3 19.7 C 0 km/h
2760 26-07-2003 06:31:01 19.8 C 11.96 g/m*3 19.8 C 0 km/h
2761 26-07-2003 06:41:01 19.8 C 11.96 g/m*3 19.8 C 0 km/h
2762 26-07-2003 06:51:01 19.9 C 12.03 g/m*3 19.9 C 0 km/h
2763 26-07-2003 07:01:01 19.9 C 12.03 g/m*3 19.9 C 0 km/h
2764 26-07-2003 07:11:01 20.1 C 11.99 g/m*3 20.1 C 0 km/h
2765 26-07-2003 07:21:01 20.1 C 11.82 g/m*3 20.1 C 0 km/h
2766 26-07-2003 07:31:01 20 C 11.92 g/m*3 20 C 0 km/h
2767 26-07-2003 07:41:01 18.9 C 12.8 g/m*3 18.9 C 0 km/h
2768 26-07-2003 07:51:01 18.5 C 12.97 g/m*3 18.5 C 0 km/h
2769 26-07-2003 08:01:01 18.5 C 13.61 g/m*3 18.5 C 0 km/h
2770 26-07-2003 08:11:01 18.6 C 13.85 g/m*3 18.6 C 0 km/h
2771 26-07-2003 08:21:01 18.5 C 13.45 g/m*3 18.5 C 0 km/h
2772 26-07-2003 08:31:01 18.7 C 13.77 g/m*3 18.7 C 0 km/h
2773 26-07-2003 08:41:01 18.8 C 13.69 g/m*3 18.8 C 0 km/h
2774 26-07-2003 08:51:01 19.1 C 13.77 g/m*3 19.1 C 0 km/h
2775 26-07-2003 09:01:01 19.7 C 14.26 g/m*3 19.7 C 0 km/h
Sensor: Nr:Datum:Temp:Abs-Feuchte:Windchill:Wind:
Aussen-T/F 2776 26-07-2003 09:11:01 20.5 C 13.7 g/m*3 20.5 C 0 km/h
2777 26-07-2003 09:21:01 20.4 C 13.09 g/m*3 20.4 C 0 km/h
2778 26-07-2003 09:31:01 20.5 C 12.99 g/m*3 20.5 C 0 km/h
2779 26-07-2003 09:41:03 20.2 C 12.76 g/m*3 20.2 C 0 km/h
2780 26-07-2003 09:51:03 20.1 C 12.69 g/m*3 20.1 C 0 km/h
2781 26-07-2003 10:01:03 20.1 C 12.86 g/m*3 20.1 C 0 km/h
2782 26-07-2003 10:11:01 19.6 C 13 g/m*3 19.6 C 0 km/h
2783 26-07-2003 10:21:01 19.7 C 13.25 g/m*3 19.7 C 0 km/h
2784 26-07-2003 10:31:01 19.5 C 13.59 g/m*3 19.5 C 0 km/h
2785 26-07-2003 10:41:01 19.8 C 13.84 g/m*3 19.8 C 0 km/h
2786 26-07-2003 10:51:01 20 C 13.83 g/m*3 20 C 0 km/h
2787 26-07-2003 11:01:01 20.4 C 13.44 g/m*3 20.4 C 0 km/h
2788 26-07-2003 11:11:00 20.8 C 13.4 g/m*3 20.8 C 0 km/h
2789 26-07-2003 11:21:00 21.1 C 13.27 g/m*3 21.1 C 0 km/h
2790 26-07-2003 11:31:00 21.4 C 13.12 g/m*3 21.4 C 0 km/h
2791 26-07-2003 11:41:00 21.7 C 12.59 g/m*3 21.7 C 0 km/h
2792 26-07-2003 11:51:00 21.7 C 12.21 g/m*3 21.7 C 0 km/h
2793 26-07-2003 12:01:00 22.2 C 12.37 g/m*3 22.2 C 0 km/h
2794 26-07-2003 12:11:02 22.9 C 12.47 g/m*3 22.9 C 0 km/h
2795 26-07-2003 12:21:02 22.9 C 11.85 g/m*3 22.9 C 0 km/h
2796 26-07-2003 12:31:02 23.4 C 11.99 g/m*3 23.4 C 0 km/h
2797 26-07-2003 12:41:02 24.2 C 11.44 g/m*3 24.2 C 0 km/h
2798 26-07-2003 12:51:02 24.5 C 10.97 g/m*3 24.5 C 0 km/h
2799 26-07-2003 13:01:02 25.1 C 11.11 g/m*3 25.1 C 0 km/h
2800 26-07-2003 13:11:01 25 C 10.59 g/m*3 25 C 0 km/h
Sensor: Nr:Datum:Temp:Abs-Feuchte:Windchill:Wind:
Aussen-T/F 2801 26-07-2003 13:21:01 25.8 C 10.59 g/m*3 25.8 C 0 km/h
2802 26-07-2003 13:31:01 24.8 C 10.47 g/m*3 24.8 C 0 km/h
2803 26-07-2003 13:41:01 24.8 C 10.47 g/m*3 24.8 C 0 km/h
2804 26-07-2003 13:51:01 24.6 C 10.8 g/m*3 24.6 C 0 km/h
2805 26-07-2003 14:01:01 24.6 C 10.35 g/m*3 24.6 C 0 km/h
2806 26-07-2003 14:11:01 25.1 C 10.42 g/m*3 25.1 C 0 km/h
2807 26-07-2003 14:21:01 26.4 C 10.21 g/m*3 26.4 C 0 km/h
2808 26-07-2003 14:31:01 26.6 C 10.32 g/m*3 26.6 C 0 km/h
2809 26-07-2003 14:41:01 26.3 C 10.15 g/m*3 26.3 C 0 km/h
2810 26-07-2003 14:51:01 26 C 10.23 g/m*3 26 C 0 km/h
2811 26-07-2003 15:01:01 25.6 C 10.24 g/m*3 25.6 C 0 km/h
2812 26-07-2003 15:11:01 24.8 C 10.47 g/m*3 24.8 C 0 km/h
2813 26-07-2003 15:21:01 24.7 C 10.41 g/m*3 24.7 C 0 km/h
2814 26-07-2003 15:31:01 25.8 C 10.59 g/m*3 25.8 C 0 km/h
2815 26-07-2003 15:41:02 26.1 C 10.28 g/m*3 26.1 C 0 km/h
2816 26-07-2003 15:51:02 25.9 C 10.41 g/m*3 25.9 C 0 km/h
2817 26-07-2003 16:01:02 25.5 C 10.42 g/m*3 25.5 C 0 km/h
2818 26-07-2003 16:11:02 25 C 10.36 g/m*3 25 C 0 km/h
2819 26-07-2003 16:21:02 24.8 C 10.7 g/m*3 24.8 C 0 km/h
2820 26-07-2003 16:31:02 25.1 C 10.42 g/m*3 25.1 C 0 km/h
2821 26-07-2003 16:41:02 24.9 C 10.53 g/m*3 24.9 C 0 km/h
2822 26-07-2003 16:51:02 24.8 C 10.47 g/m*3 24.8 C 0 km/h
2823 26-07-2003 17:01:02 24.9 C 10.53 g/m*3 24.9 C 0 km/h
2824 26-07-2003 17:11:02 25.3 C 11 g/m*3 25.3 C 0 km/h
2825 26-07-2003 17:21:02 25.5 C 10.65 g/m*3 25.5 C 0 km/h
Sensor: Nr:Datum:Temp:Abs-Feuchte:Windchill:Wind:
Aussen-T/F 2826 26-07-2003 17:31:02 25.4 C 11.06 g/m*3 25.4 C 0 km/h
2827 26-07-2003 17:41:03 25.4 C 11.06 g/m*3 25.4 C 0 km/h
2828 26-07-2003 17:51:03 25.2 C 10.71 g/m*3 25.2 C 0 km/h
2829 26-07-2003 18:01:03 24.9 C 10.99 g/m*3 24.9 C 0 km/h
2830 26-07-2003 18:11:06 24.8 C 10.47 g/m*3 24.8 C 0 km/h
2831 26-07-2003 18:21:06 24.8 C 10.47 g/m*3 24.8 C 0 km/h
2832 26-07-2003 18:31:06 24.7 C 10.41 g/m*3 24.7 C 0 km/h
2833 26-07-2003 18:41:01 24 C 11.1 g/m*3 24 C 0 km/h
2834 26-07-2003 18:51:01 23.6 C 11.48 g/m*3 23.6 C 0 km/h
2835 26-07-2003 19:01:01 22.7 C 11.92 g/m*3 22.7 C 0 km/h
2836 26-07-2003 19:11:00 21.8 C 12.85 g/m*3 21.8 C 0 km/h
2837 26-07-2003 19:21:00 22 C 12.81 g/m*3 22 C 0 km/h
2838 26-07-2003 19:31:00 22 C 12.62 g/m*3 22 C 0 km/h
2839 26-07-2003 19:41:02 22.1 C 12.69 g/m*3 22.1 C 0 km/h
2840 26-07-2003 19:51:02 22.1 C 12.3 g/m*3 22.1 C 0 km/h
2841 26-07-2003 20:01:02 22.2 C 12.37 g/m*3 22.2 C 0 km/h
2842 26-07-2003 20:11:02 22.3 C 12.64 g/m*3 22.3 C 0 km/h
2843 26-07-2003 20:21:02 22.4 C 12.71 g/m*3 22.4 C 0 km/h
2844 26-07-2003 20:31:02 22.3 C 12.83 g/m*3 22.3 C 0 km/h
2845 26-07-2003 20:41:02 22.2 C 12.57 g/m*3 22.2 C 0 km/h
2846 26-07-2003 20:51:02 21.6 C 13.09 g/m*3 21.6 C 0 km/h
2847 26-07-2003 21:01:02 20.8 C 13.94 g/m*3 20.8 C 0 km/h
2848 26-07-2003 21:11:01 20.1 C 14.08 g/m*3 20.1 C 0 km/h
2849 26-07-2003 21:21:01 20 C 14.17 g/m*3 20 C 0 km/h
2850 26-07-2003 21:31:01 19.8 C 14.35 g/m*3 19.8 C 0 km/h
Sensor: Nr:Datum:Temp:Abs-Feuchte:Windchill:Wind:
Aussen-T/F 2851 26-07-2003 21:42:06 19.6 C 14.52 g/m*3 19.6 C 0 km/h
2852 26-07-2003 21:52:06 19.5 C 14.43 g/m*3 19.5 C 0 km/h
2853 26-07-2003 22:02:06 19.5 C 14.43 g/m*3 19.5 C 0 km/h
2854 26-07-2003 22:12:06 19.6 C 14.86 g/m*3 19.6 C 0 km/h
2855 26-07-2003 22:22:06 19.5 C 14.77 g/m*3 19.5 C 0 km/h
2856 26-07-2003 22:32:06 19.4 C 14.68 g/m*3 19.4 C 0 km/h
2857 26-07-2003 22:42:06 19.4 C 14.52 g/m*3 19.4 C 0 km/h
2858 26-07-2003 22:52:06 19.3 C 14.6 g/m*3 19.3 C 0 km/h
2859 26-07-2003 23:02:06 19.4 C 14.68 g/m*3 19.4 C 0 km/h
2860 26-07-2003 23:12:06 19.5 C 14.94 g/m*3 19.5 C 0 km/h
2861 26-07-2003 23:22:06 19.3 C 14.76 g/m*3 19.3 C 0 km/h
2862 26-07-2003 23:32:06 19.3 C 14.76 g/m*3 19.3 C 0 km/h
2863 26-07-2003 23:42:06 19.2 C 14.84 g/m*3 19.2 C 0 km/h
2864 26-07-2003 23:52:06 19.1 C 14.92 g/m*3 19.1 C 0 km/h
2865 27-07-2003 00:02:06 19.3 C 15.09 g/m*3 19.3 C 0 km/h
2866 27-07-2003 00:12:06 19.2 C 15.17 g/m*3 19.2 C 0 km/h
2867 27-07-2003 00:22:06 19.3 C 15.26 g/m*3 19.3 C 0 km/h
2868 27-07-2003 00:32:06 19.1 C 15.08 g/m*3 19.1 C 0 km/h
2869 27-07-2003 00:42:06 18.9 C 15.07 g/m*3 18.9 C 0 km/h
2870 27-07-2003 00:52:06 19.1 C 15.08 g/m*3 19.1 C 0 km/h
2871 27-07-2003 01:02:06 19.4 C 15.18 g/m*3 19.4 C 0 km/h
2872 27-07-2003 01:12:06 19.4 C 15.02 g/m*3 19.4 C 0 km/h
2873 27-07-2003 01:22:06 19.4 C 14.85 g/m*3 19.4 C 0 km/h
2874 27-07-2003 01:32:06 19.3 C 14.76 g/m*3 19.3 C 0 km/h
2875 27-07-2003 01:42:06 19.3 C 14.76 g/m*3 19.3 C 0 km/h
Sensor: Nr:Datum:Temp:Abs-Feuchte:Windchill:Wind:
Aussen-T/F 2876 27-07-2003 01:52:06 19.3 C 14.76 g/m*3 19.3 C 0 km/h
2877 27-07-2003 02:02:06 18.9 C 14.74 g/m*3 18.9 C 0 km/h
2878 27-07-2003 02:12:06 18.9 C 14.74 g/m*3 18.9 C 0 km/h
2879 27-07-2003 02:22:06 18.9 C 14.74 g/m*3 18.9 C 0 km/h
2880 27-07-2003 02:32:06 18.9 C 14.74 g/m*3 18.9 C 0 km/h
2881 27-07-2003 02:42:06 18.9 C 14.74 g/m*3 18.9 C 0 km/h
2882 27-07-2003 02:52:06 18.9 C 14.74 g/m*3 18.9 C 0 km/h
2883 27-07-2003 03:02:06 18.8 C 14.66 g/m*3 18.8 C 0 km/h
2884 27-07-2003 03:12:06 18.7 C 14.57 g/m*3 18.7 C 0 km/h
2885 27-07-2003 03:22:06 18.7 C 14.57 g/m*3 18.7 C 0 km/h
2886 27-07-2003 03:32:06 18.6 C 14.48 g/m*3 18.6 C 0 km/h
2887 27-07-2003 03:42:06 18.5 C 14.4 g/m*3 18.5 C 0 km/h
2888 27-07-2003 03:52:06 18.5 C 14.4 g/m*3 18.5 C 0 km/h
2889 27-07-2003 04:02:06 18.5 C 14.4 g/m*3 18.5 C 0 km/h
2890 27-07-2003 04:12:06 18.5 C 14.4 g/m*3 18.5 C 0 km/h
2891 27-07-2003 04:22:06 18.5 C 14.56 g/m*3 18.5 C 0 km/h
2892 27-07-2003 04:32:06 18.5 C 14.4 g/m*3 18.5 C 0 km/h
2893 27-07-2003 04:42:06 18.5 C 14.56 g/m*3 18.5 C 0 km/h
2894 27-07-2003 04:52:06 18.5 C 14.4 g/m*3 18.5 C 0 km/h
2895 27-07-2003 05:02:06 18.5 C 14.56 g/m*3 18.5 C 0 km/h
2896 27-07-2003 05:12:06 18.5 C 14.56 g/m*3 18.5 C 0 km/h
2897 27-07-2003 05:22:06 18.6 C 14.64 g/m*3 18.6 C 0 km/h
2898 27-07-2003 05:32:06 18.6 C 14.64 g/m*3 18.6 C 0 km/h
2899 27-07-2003 05:42:06 18.5 C 14.4 g/m*3 18.5 C 0 km/h
2900 27-07-2003 05:52:06 18.5 C 14.4 g/m*3 18.5 C 0 km/h
Sensor: Nr:Datum:Temp:Abs-Feuchte:Windchill:Wind:
Aussen-T/F 2901 27-07-2003 06:02:06 18.4 C 14.31 g/m*3 18.4 C 0 km/h
2902 27-07-2003 06:12:06 18.5 C 14.4 g/m*3 18.5 C 0 km/h
2903 27-07-2003 06:22:06 18.6 C 14.64 g/m*3 18.6 C 0 km/h
2904 27-07-2003 06:32:06 18.7 C 14.73 g/m*3 18.7 C 0 km/h
2905 27-07-2003 06:42:06 18.7 C 14.57 g/m*3 18.7 C 0 km/h
2906 27-07-2003 06:52:06 18.8 C 14.66 g/m*3 18.8 C 0 km/h
2907 27-07-2003 07:02:06 19 C 14.67 g/m*3 19 C 0 km/h
2908 27-07-2003 07:12:06 19.3 C 14.93 g/m*3 19.3 C 0 km/h
2909 27-07-2003 07:22:06 19.8 C 15.37 g/m*3 19.8 C 0 km/h
2910 27-07-2003 07:32:06 19.9 C 15.29 g/m*3 19.9 C 0 km/h
2911 27-07-2003 07:42:06 20 C 15.21 g/m*3 20 C 0 km/h
2912 27-07-2003 07:52:06 20.2 C 15.21 g/m*3 20.2 C 0 km/h
2913 27-07-2003 08:02:06 20.4 C 15.21 g/m*3 20.4 C 0 km/h
2914 27-07-2003 08:12:06 20.7 C 15.12 g/m*3 20.7 C 0 km/h
2915 27-07-2003 08:22:06 21 C 15.2 g/m*3 21 C 0 km/h
2916 27-07-2003 08:32:06 21.2 C 15.38 g/m*3 21.2 C 0 km/h
2917 27-07-2003 08:42:06 21.2 C 15.38 g/m*3 21.2 C 0 km/h
2918 27-07-2003 08:52:06 21.2 C 15.38 g/m*3 21.2 C 0 km/h
2919 27-07-2003 09:02:06 21.6 C 14.79 g/m*3 21.6 C 0 km/h
2920 27-07-2003 09:12:06 22.3 C 14.22 g/m*3 22.3 C 0 km/h
2921 27-07-2003 09:22:06 22.6 C 13.66 g/m*3 22.6 C 0 km/h
2922 27-07-2003 09:32:06 23.2 C 13.72 g/m*3 23.2 C 0 km/h
2923 27-07-2003 09:42:06 23.6 C 13.61 g/m*3 23.6 C 0 km/h
2924 27-07-2003 09:52:06 23.4 C 13.67 g/m*3 23.4 C 0 km/h
2925 27-07-2003 10:02:06 23.2 C 13.51 g/m*3 23.2 C 0 km/h
Sensor: Nr:Datum:Temp:Abs-Feuchte:Windchill:Wind:
Aussen-T/F 2926 27-07-2003 10:12:06 23 C 13.36 g/m*3 23 C 0 km/h
2927 27-07-2003 10:22:06 23.3 C 13.38 g/m*3 23.3 C 0 km/h
2928 27-07-2003 10:32:06 23.4 C 13.46 g/m*3 23.4 C 0 km/h
2929 27-07-2003 10:42:06 23.1 C 13.23 g/m*3 23.1 C 0 km/h
2930 27-07-2003 10:52:02 23.2 C 13.1 g/m*3 23.2 C 0 km/h
2931 27-07-2003 11:02:00 22.8 C 13.21 g/m*3 22.8 C 0 km/h
2932 27-07-2003 11:12:00 22.1 C 13.47 g/m*3 22.1 C 0 km/h
2933 27-07-2003 11:22:00 21.4 C 13.69 g/m*3 21.4 C 0 km/h
2934 27-07-2003 11:32:22 20.7 C 14.04 g/m*3 20.7 C 0 km/h
2935 27-07-2003 11:42:22 20.2 C 14.51 g/m*3 20.2 C 0 km/h
2936 27-07-2003 11:52:01 20.2 C 14.69 g/m*3 20.2 C 0 km/h
2937 27-07-2003 12:02:08 20.7 C 15.48 g/m*3 20.7 C 0 km/h
2938 27-07-2003 12:12:08 20.6 C 15.03 g/m*3 20.6 C 0 km/h
2939 27-07-2003 12:22:08 20.9 C 14.93 g/m*3 20.9 C 0 km/h
2940 27-07-2003 12:32:00 21 C 14.47 g/m*3 21 C 0 km/h
2941 27-07-2003 12:42:00 20.8 C 14.49 g/m*3 20.8 C 0 km/h
2942 27-07-2003 12:52:00 20.9 C 14.93 g/m*3 20.9 C 0 km/h
2943 27-07-2003 13:02:01 21.1 C 14.74 g/m*3 21.1 C 0 km/h
2944 27-07-2003 13:12:01 21.4 C 14.81 g/m*3 21.4 C 0 km/h
2945 27-07-2003 13:22:01 21.7 C 14.69 g/m*3 21.7 C 0 km/h
2946 27-07-2003 13:32:02 21.7 C 14.12 g/m*3 21.7 C 0 km/h
2947 27-07-2003 13:42:02 21.6 C 14.03 g/m*3 21.6 C 0 km/h
2948 27-07-2003 13:52:02 22.8 C 13.82 g/m*3 22.8 C 0 km/h
2949 27-07-2003 14:02:02 23.5 C 13.53 g/m*3 23.5 C 0 km/h
2950 27-07-2003 14:12:02 24.1 C 12.91 g/m*3 24.1 C 0 km/h
Sensor: Nr:Datum:Temp:Abs-Feuchte:Windchill:Wind:
Aussen-T/F 2951 27-07-2003 14:22:02 24.6 C 13.05 g/m*3 24.6 C 0 km/h
2952 27-07-2003 14:32:01 25.4 C 13.18 g/m*3 25.4 C 0 km/h
2953 27-07-2003 14:42:01 26.2 C 12.56 g/m*3 26.2 C 0 km/h
2954 27-07-2003 14:52:01 25.9 C 12.59 g/m*3 25.9 C 0 km/h
2955 27-07-2003 15:02:02 25.6 C 11.9 g/m*3 25.6 C 0 km/h
2956 27-07-2003 15:12:02 24.7 C 12 g/m*3 24.7 C 0 km/h
2957 27-07-2003 15:22:02 24.4 C 12.02 g/m*3 24.4 C 0 km/h
2958 27-07-2003 15:32:01 24.6 C 12.38 g/m*3 24.6 C 0 km/h
2959 27-07-2003 15:42:01 25.3 C 12.17 g/m*3 25.3 C 0 km/h
2960 27-07-2003 15:52:01 25.2 C 12.34 g/m*3 25.2 C 0 km/h
2961 27-07-2003 16:02:11 24.5 C 11.86 g/m*3 24.5 C 0 km/h
2962 27-07-2003 16:12:11 24.6 C 12.38 g/m*3 24.6 C 0 km/h
2963 27-07-2003 16:22:11 24.3 C 12.17 g/m*3 24.3 C 0 km/h
2964 27-07-2003 16:32:02 24.1 C 11.82 g/m*3 24.1 C 0 km/h
2965 27-07-2003 16:42:02 23.1 C 11.37 g/m*3 23.1 C 0 km/h
2966 27-07-2003 16:52:02 22.8 C 11.79 g/m*3 22.8 C 0 km/h
2967 27-07-2003 17:02:01 21.3 C 12.86 g/m*3 21.3 C 0 km/h
2968 27-07-2003 17:12:01 20.2 C 13.64 g/m*3 20.2 C 0 km/h
2969 27-07-2003 17:22:01 20.4 C 13.98 g/m*3 20.4 C 0 km/h
2970 27-07-2003 17:32:02 20.7 C 13.86 g/m*3 20.7 C 0 km/h
2971 27-07-2003 17:42:02 21.1 C 13.82 g/m*3 21.1 C 0 km/h
2972 27-07-2003 17:52:02 21.1 C 13.82 g/m*3 21.1 C 0 km/h
2973 27-07-2003 18:02:01 22.3 C 13.43 g/m*3 22.3 C 0 km/h
2974 27-07-2003 18:12:01 22.6 C 13.46 g/m*3 22.6 C 0 km/h
2975 27-07-2003 18:22:01 22.9 C 13.49 g/m*3 22.9 C 0 km/h
Sensor: Nr:Datum:Temp:Abs-Feuchte:Windchill:Wind:
Aussen-T/F 2976 27-07-2003 18:32:01 23.2 C 13.31 g/m*3 23.2 C 0 km/h
2977 27-07-2003 18:42:01 23.2 C 13.1 g/m*3 23.2 C 0 km/h
2978 27-07-2003 18:52:01 23.2 C 13.1 g/m*3 23.2 C 0 km/h
2979 27-07-2003 19:02:01 23.3 C 13.17 g/m*3 23.3 C 0 km/h
2980 27-07-2003 19:12:01 23.3 C 13.17 g/m*3 23.3 C 0 km/h
2981 27-07-2003 19:22:01 23.2 C 13.51 g/m*3 23.2 C 0 km/h
2982 27-07-2003 19:32:01 23.2 C 13.51 g/m*3 23.2 C 0 km/h
2983 27-07-2003 19:42:01 22.8 C 14.43 g/m*3 22.8 C 0 km/h
2984 27-07-2003 19:52:01 22.7 C 14.55 g/m*3 22.7 C 0 km/h
2985 27-07-2003 20:02:02 22.5 C 14.38 g/m*3 22.5 C 0 km/h
2986 27-07-2003 20:12:02 22.3 C 14.02 g/m*3 22.3 C 0 km/h
2987 27-07-2003 20:22:02 22.1 C 14.05 g/m*3 22.1 C 0 km/h
2988 27-07-2003 20:32:02 21.9 C 14.09 g/m*3 21.9 C 0 km/h
2989 27-07-2003 20:42:02 21.6 C 14.03 g/m*3 21.6 C 0 km/h
2990 27-07-2003 20:52:02 21.5 C 13.95 g/m*3 21.5 C 0 km/h
2991 27-07-2003 21:02:02 21.5 C 13.77 g/m*3 21.5 C 0 km/h
2992 27-07-2003 21:12:02 21.2 C 13.71 g/m*3 21.2 C 0 km/h
2993 27-07-2003 21:22:02 21.2 C 13.53 g/m*3 21.2 C 0 km/h
2994 27-07-2003 21:32:01 21.2 C 13.34 g/m*3 21.2 C 0 km/h
2995 27-07-2003 21:42:01 21.2 C 13.53 g/m*3 21.2 C 0 km/h
2996 27-07-2003 21:52:01 21.2 C 13.53 g/m*3 21.2 C 0 km/h
2997 27-07-2003 22:02:13 20.3 C 13.89 g/m*3 20.3 C 0 km/h
2998 27-07-2003 22:13:02 19.3 C 13.93 g/m*3 19.3 C 0 km/h
2999 27-07-2003 22:23:02 18.9 C 14.26 g/m*3 18.9 C 0 km/h
3000 27-07-2003 22:33:02 18.7 C 14.25 g/m*3 18.7 C 0 km/h
Sensor: Nr:Datum:Temp:Abs-Feuchte:Windchill:Wind:
Aussen-T/F 3001 27-07-2003 22:43:02 18.8 C 14.49 g/m*3 18.8 C 0 km/h
3002 27-07-2003 22:53:02 18.9 C 14.74 g/m*3 18.9 C 0 km/h
3003 27-07-2003 23:03:02 18.9 C 14.58 g/m*3 18.9 C 0 km/h
3004 27-07-2003 23:13:02 18.9 C 14.42 g/m*3 18.9 C 0 km/h
3005 27-07-2003 23:23:02 18.9 C 14.42 g/m*3 18.9 C 0 km/h
3006 27-07-2003 23:33:02 18.9 C 14.42 g/m*3 18.9 C 0 km/h
3007 27-07-2003 23:43:02 18.9 C 14.42 g/m*3 18.9 C 0 km/h
3008 27-07-2003 23:53:02 18.9 C 14.42 g/m*3 18.9 C 0 km/h
3009 28-07-2003 00:03:02 18.7 C 14.25 g/m*3 18.7 C 0 km/h
3010 28-07-2003 00:13:02 18.8 C 14.33 g/m*3 18.8 C 0 km/h
3011 28-07-2003 00:23:02 18.7 C 14.25 g/m*3 18.7 C 0 km/h
3012 28-07-2003 00:33:02 18.8 C 14.17 g/m*3 18.8 C 0 km/h
3013 28-07-2003 00:43:02 18.8 C 14.17 g/m*3 18.8 C 0 km/h
3014 28-07-2003 00:53:02 18.6 C 14.01 g/m*3 18.6 C 0 km/h
3015 28-07-2003 01:03:02 18.6 C 14.01 g/m*3 18.6 C 0 km/h
3016 28-07-2003 01:13:02 18.6 C 13.85 g/m*3 18.6 C 0 km/h
3017 28-07-2003 01:23:02 18.7 C 13.61 g/m*3 18.7 C 0 km/h
3018 28-07-2003 01:33:02 18.5 C 13.61 g/m*3 18.5 C 0 km/h
3019 28-07-2003 01:43:02 18.3 C 13.13 g/m*3 18.3 C 0 km/h
3020 28-07-2003 01:53:02 18.3 C 12.98 g/m*3 18.3 C 0 km/h
3021 28-07-2003 02:03:02 18.2 C 12.9 g/m*3 18.2 C 0 km/h
3022 28-07-2003 02:13:02 17.9 C 12.98 g/m*3 17.9 C 0 km/h
3023 28-07-2003 02:23:02 17.9 C 13.13 g/m*3 17.9 C 0 km/h
3024 28-07-2003 02:33:02 17.9 C 13.13 g/m*3 17.9 C 0 km/h
3025 28-07-2003 02:43:02 17.8 C 12.75 g/m*3 17.8 C 0 km/h
Sensor: Nr:Datum:Temp:Abs-Feuchte:Windchill:Wind:
Aussen-T/F 3026 28-07-2003 02:53:02 17.8 C 12.75 g/m*3 17.8 C 0 km/h
3027 28-07-2003 03:03:02 17.8 C 12.9 g/m*3 17.8 C 0 km/h
3028 28-07-2003 03:13:02 17.8 C 12.75 g/m*3 17.8 C 0 km/h
3029 28-07-2003 03:23:02 17.7 C 12.52 g/m*3 17.7 C 0 km/h
3030 28-07-2003 03:33:02 17.6 C 12.6 g/m*3 17.6 C 0 km/h
3031 28-07-2003 03:43:02 17.5 C 12.37 g/m*3 17.5 C 0 km/h
3032 28-07-2003 03:53:02 17.7 C 12.22 g/m*3 17.7 C 0 km/h
3033 28-07-2003 04:03:02 17.6 C 12.3 g/m*3 17.6 C 0 km/h
3034 28-07-2003 04:13:02 17.4 C 12.3 g/m*3 17.4 C 0 km/h
3035 28-07-2003 04:23:02 17.4 C 11.71 g/m*3 17.4 C 0 km/h
3036 28-07-2003 04:33:02 17.3 C 11.49 g/m*3 17.3 C 0 km/h
3037 28-07-2003 04:43:02 17.3 C 11.49 g/m*3 17.3 C 0 km/h
3038 28-07-2003 04:53:02 17.2 C 11.28 g/m*3 17.2 C 0 km/h
3039 28-07-2003 05:03:02 17 C 11 g/m*3 17 C 0 km/h
3040 28-07-2003 05:13:02 16.8 C 11.01 g/m*3 16.8 C 0 km/h
3041 28-07-2003 05:23:02 16.6 C 11.02 g/m*3 16.6 C 0 km/h
3042 28-07-2003 05:33:02 16.2 C 11.03 g/m*3 16.2 C 0 km/h
3043 28-07-2003 05:43:02 16.1 C 10.97 g/m*3 16.1 C 0 km/h
3044 28-07-2003 05:53:02 16 C 11.04 g/m*3 16 C 0 km/h
3045 28-07-2003 06:03:02 16.1 C 11.1 g/m*3 16.1 C 0 km/h
3046 28-07-2003 06:13:02 16 C 10.9 g/m*3 16 C 0 km/h
3047 28-07-2003 06:23:02 16 C 10.76 g/m*3 16 C 0 km/h
3048 28-07-2003 06:33:02 16 C 10.63 g/m*3 16 C 0 km/h
3049 28-07-2003 06:43:02 16.2 C 10.62 g/m*3 16.2 C 0 km/h
3050 28-07-2003 06:53:02 16.2 C 10.48 g/m*3 16.2 C 0 km/h
Sensor: Nr:Datum:Temp:Abs-Feuchte:Windchill:Wind:
Aussen-T/F 3051 28-07-2003 07:03:02 16.1 C 10.42 g/m*3 16.1 C 0 km/h
3052 28-07-2003 07:13:02 16 C 10.35 g/m*3 16 C 0 km/h
3053 28-07-2003 07:23:02 16.1 C 10.42 g/m*3 16.1 C 0 km/h
3054 28-07-2003 07:33:01 16.2 C 10.48 g/m*3 16.2 C 0 km/h
3055 28-07-2003 07:43:01 16.1 C 10.42 g/m*3 16.1 C 0 km/h
3056 28-07-2003 07:53:01 16.1 C 10.14 g/m*3 16.1 C 0 km/h
3057 28-07-2003 08:03:02 16.1 C 10.01 g/m*3 16.1 C 0 km/h
3058 28-07-2003 08:13:02 16.4 C 9.91 g/m*3 16.4 C 0 km/h
3059 28-07-2003 08:23:02 16.7 C 10.09 g/m*3 16.7 C 0 km/h
3060 28-07-2003 08:33:00 16.8 C 9.58 g/m*3 16.8 C 0 km/h
3061 28-07-2003 08:43:00 16.9 C 9.64 g/m*3 16.9 C 0 km/h
3062 28-07-2003 08:53:00 17 C 9.69 g/m*3 17 C 0 km/h
3063 28-07-2003 09:03:01 17 C 9.69 g/m*3 17 C 0 km/h
3064 28-07-2003 09:13:01 17 C 9.41 g/m*3 17 C 0 km/h
3065 28-07-2003 09:23:01 17 C 9.69 g/m*3 17 C 0 km/h
3066 28-07-2003 09:33:01 17 C 9.69 g/m*3 17 C 0 km/h
3067 28-07-2003 09:43:01 17.3 C 9.28 g/m*3 17.3 C 0 km/h
3068 28-07-2003 09:53:01 17.4 C 9.48 g/m*3 17.4 C 0 km/h
3069 28-07-2003 10:03:01 17.7 C 9.35 g/m*3 17.7 C 0 km/h
3070 28-07-2003 10:13:01 18.4 C 9.28 g/m*3 18.4 C 0 km/h
3071 28-07-2003 10:23:01 18.6 C 9.23 g/m*3 18.6 C 0 km/h
3072 28-07-2003 10:33:02 19.9 C 9.62 g/m*3 19.9 C 0 km/h
3073 28-07-2003 10:43:02 20.1 C 8.87 g/m*3 20.1 C 0 km/h
3074 28-07-2003 10:53:02 20.2 C 8.74 g/m*3 20.2 C 0 km/h
3075 28-07-2003 11:03:02 20.3 C 9.15 g/m*3 20.3 C 0 km/h
Sensor: Nr:Datum:Temp:Abs-Feuchte:Windchill:Wind:
Aussen-T/F 3076 28-07-2003 11:13:02 20.3 C 8.62 g/m*3 20.3 C 0 km/h
3077 28-07-2003 11:23:02 20.3 C 8.79 g/m*3 20.3 C 0 km/h
3078 28-07-2003 11:33:02 21.1 C 8.48 g/m*3 21.1 C 0 km/h
3079 28-07-2003 11:43:02 21.5 C 8.3 g/m*3 21.5 C 0 km/h
3080 28-07-2003 11:53:02 20.9 C 8.38 g/m*3 20.9 C 0 km/h
3081 28-07-2003 12:03:02 21.5 C 8.49 g/m*3 21.5 C 0 km/h
3082 28-07-2003 12:13:02 22 C 8.54 g/m*3 22 C 0 km/h
3083 28-07-2003 12:23:02 22.7 C 8.28 g/m*3 22.7 C 0 km/h
3084 28-07-2003 12:33:02 22.9 C 8.17 g/m*3 22.9 C 0 km/h
3085 28-07-2003 12:43:02 22.6 C 8.44 g/m*3 22.6 C 0 km/h
3086 28-07-2003 12:53:02 22.6 C 8.44 g/m*3 22.6 C 0 km/h
3087 28-07-2003 13:03:02 24.1 C 7.88 g/m*3 24.1 C 0 km/h
3088 28-07-2003 13:13:02 24.7 C 7.92 g/m*3 24.7 C 0 km/h
3089 28-07-2003 13:23:02 25.3 C 7.96 g/m*3 25.3 C 0 km/h
3090 28-07-2003 13:33:02 25.6 C 7.38 g/m*3 25.6 C 0 km/h
3091 28-07-2003 13:43:02 24.6 C 6.75 g/m*3 24.6 C 0 km/h
3092 28-07-2003 13:53:02 23.7 C 6.84 g/m*3 23.7 C 0 km/h
3093 28-07-2003 14:03:01 24 C 6.53 g/m*3 24 C 0 km/h
3094 28-07-2003 14:13:01 24.5 C 6.27 g/m*3 24.5 C 0 km/h
3095 28-07-2003 14:23:01 24.1 C 6.35 g/m*3 24.1 C 0 km/h
3096 28-07-2003 14:33:02 25.4 C 7.06 g/m*3 25.4 C 0 km/h
3097 28-07-2003 14:43:02 25.8 C 6.26 g/m*3 25.8 C 0 km/h
3098 28-07-2003 14:53:02 27.1 C 5.69 g/m*3 27.1 C 0 km/h
3099 28-07-2003 15:03:02 25.1 C 5.79 g/m*3 25.1 C 0 km/h
3100 28-07-2003 15:13:02 24.9 C 5.95 g/m*3 24.9 C 0 km/h
Sensor: Nr:Datum:Temp:Abs-Feuchte:Windchill:Wind:
Aussen-T/F 3101 28-07-2003 15:23:02 24.7 C 6.34 g/m*3 24.7 C 0 km/h
3102 28-07-2003 15:33:01 24.3 C 6.2 g/m*3 24.3 C 0 km/h
3103 28-07-2003 15:43:01 24.3 C 6.64 g/m*3 24.3 C 0 km/h
3104 28-07-2003 15:53:01 25.5 C 6.39 g/m*3 25.5 C 0 km/h
3105 28-07-2003 16:03:01 25.5 C 6.16 g/m*3 25.5 C 0 km/h
3106 28-07-2003 16:13:01 24.7 C 6.11 g/m*3 24.7 C 0 km/h
3107 28-07-2003 16:23:01 24.4 C 6.23 g/m*3 24.4 C 0 km/h
3108 28-07-2003 16:33:00 25.3 C 6.32 g/m*3 25.3 C 0 km/h
3109 28-07-2003 16:43:00 25.6 C 6.19 g/m*3 25.6 C 0 km/h
3110 28-07-2003 16:53:00 25.5 C 6.16 g/m*3 25.5 C 0 km/h
3111 28-07-2003 17:03:00 26.9 C 6.4 g/m*3 26.9 C 0 km/h
3112 28-07-2003 17:13:00 26.6 C 6.54 g/m*3 26.6 C 0 km/h
3113 28-07-2003 17:23:00 26.4 C 6.72 g/m*3 26.4 C 0 km/h
3114 28-07-2003 17:33:01 26.4 C 6.72 g/m*3 26.4 C 0 km/h
3115 28-07-2003 17:43:01 25.3 C 6.79 g/m*3 25.3 C 0 km/h
3116 28-07-2003 17:53:01 26.6 C 6.54 g/m*3 26.6 C 0 km/h
3117 28-07-2003 18:03:01 27.8 C 7.26 g/m*3 27.8 C 0 km/h
3118 28-07-2003 18:13:01 29.2 C 6.39 g/m*3 29.2 C 0 km/h
3119 28-07-2003 18:23:01 30.1 C 7.01 g/m*3 30.1 C 0 km/h
3120 28-07-2003 18:33:02 29 C 5.74 g/m*3 29 C 0 km/h
3121 28-07-2003 18:43:02 27 C 5.15 g/m*3 27 C 0 km/h
3122 28-07-2003 18:53:02 27.6 C 5.59 g/m*3 27.6 C 0 km/h
3123 28-07-2003 19:03:03 27.8 C 6.46 g/m*3 27.8 C 0 km/h
3124 28-07-2003 19:13:03 28.3 C 6.36 g/m*3 28.3 C 0 km/h
3125 28-07-2003 19:23:03 27.6 C 5.85 g/m*3 27.6 C 0 km/h
Sensor: Nr:Datum:Temp:Abs-Feuchte:Windchill:Wind:
Aussen-T/F 3126 28-07-2003 19:33:01 27.6 C 5.85 g/m*3 27.6 C 0 km/h
3127 28-07-2003 19:43:01 27.6 C 5.85 g/m*3 27.6 C 0 km/h
3128 28-07-2003 19:53:01 27.4 C 5.79 g/m*3 27.4 C 0 km/h
3129 28-07-2003 20:03:02 27.4 C 5.79 g/m*3 27.4 C 0 km/h
3130 28-07-2003 20:13:02 27.4 C 5.79 g/m*3 27.4 C 0 km/h
3131 28-07-2003 20:23:02 27.4 C 5.79 g/m*3 27.4 C 0 km/h
3132 28-07-2003 20:33:01 27.4 C 5.79 g/m*3 27.4 C 0 km/h
3133 28-07-2003 20:43:01 27.4 C 5.79 g/m*3 27.4 C 0 km/h
3134 28-07-2003 20:53:01 24.2 C 6.82 g/m*3 24.2 C 0 km/h
3135 28-07-2003 21:03:01 23.3 C 7.32 g/m*3 23.3 C 0 km/h
3136 28-07-2003 21:13:01 22.6 C 7.23 g/m*3 22.6 C 0 km/h
3137 28-07-2003 21:23:01 20.9 C 7.29 g/m*3 20.9 C 0 km/h
3138 28-07-2003 21:33:01 20.5 C 7.3 g/m*3 20.5 C 0 km/h
3139 28-07-2003 21:43:01 20.3 C 7.39 g/m*3 20.3 C 0 km/h
3140 28-07-2003 21:53:01 20.1 C 7.47 g/m*3 20.1 C 0 km/h
3141 28-07-2003 22:03:34 20.2 C 7.34 g/m*3 20.2 C 0 km/h
3142 28-07-2003 22:13:34 19.8 C 8.03 g/m*3 19.8 C 0 km/h
3143 28-07-2003 22:23:34 19.5 C 7.89 g/m*3 19.5 C 0 km/h
3144 28-07-2003 22:34:01 19.5 C 7.89 g/m*3 19.5 C 0 km/h
3145 28-07-2003 22:44:01 18.7 C 7.84 g/m*3 18.7 C 0 km/h
3146 28-07-2003 22:54:01 18.5 C 8.23 g/m*3 18.5 C 0 km/h
3147 28-07-2003 23:04:01 18.5 C 8.23 g/m*3 18.5 C 0 km/h
3148 28-07-2003 23:14:01 18.5 C 8.23 g/m*3 18.5 C 0 km/h
3149 28-07-2003 23:24:01 18.5 C 8.23 g/m*3 18.5 C 0 km/h
3150 28-07-2003 23:34:01 18.5 C 8.23 g/m*3 18.5 C 0 km/h
Sensor: Nr:Datum:Temp:Abs-Feuchte:Windchill:Wind:
Aussen-T/F 3151 28-07-2003 23:44:01 18.5 C 8.23 g/m*3 18.5 C 0 km/h
3152 28-07-2003 23:54:01 18.5 C 8.23 g/m*3 18.5 C 0 km/h
3153 29-07-2003 00:04:01 18.5 C 8.23 g/m*3 18.5 C 0 km/h
3154 29-07-2003 00:14:01 16.7 C 8.1 g/m*3 16.7 C 0 km/h
3155 29-07-2003 00:24:01 16.7 C 8.1 g/m*3 16.7 C 0 km/h
3156 29-07-2003 00:34:01 16.7 C 8.1 g/m*3 16.7 C 0 km/h
3157 29-07-2003 00:44:01 16.7 C 8.1 g/m*3 16.7 C 0 km/h
3158 29-07-2003 00:54:01 16.7 C 8.1 g/m*3 16.7 C 0 km/h
3159 29-07-2003 01:04:01 16.7 C 8.1 g/m*3 16.7 C 0 km/h
3160 29-07-2003 01:14:01 16.7 C 8.1 g/m*3 16.7 C 0 km/h
3161 29-07-2003 01:24:01 16.7 C 8.1 g/m*3 16.7 C 0 km/h
3162 29-07-2003 01:34:01 15.3 C 8.49 g/m*3 15.3 C 0 km/h
3163 29-07-2003 01:44:01 15.2 C 8.44 g/m*3 15.2 C 0 km/h
3164 29-07-2003 01:54:01 15.2 C 8.44 g/m*3 15.2 C 0 km/h
3165 29-07-2003 02:04:01 14.7 C 8.44 g/m*3 14.7 C 0 km/h
3166 29-07-2003 02:14:01 14.6 C 8.63 g/m*3 14.6 C 0 km/h
3167 29-07-2003 02:24:01 14.5 C 8.58 g/m*3 14.5 C 0 km/h
3168 29-07-2003 02:34:01 14.4 C 8.65 g/m*3 14.4 C 0 km/h
3169 29-07-2003 02:44:01 14.1 C 8.5 g/m*3 14.1 C 0 km/h
3170 29-07-2003 02:54:01 14.2 C 8.67 g/m*3 14.2 C 0 km/h
3171 29-07-2003 03:04:01 14 C 8.56 g/m*3 14 C 0 km/h
3172 29-07-2003 03:14:01 14 C 8.56 g/m*3 14 C 0 km/h
3173 29-07-2003 03:24:01 14 C 8.56 g/m*3 14 C 0 km/h
3174 29-07-2003 03:34:01 14 C 8.56 g/m*3 14 C 0 km/h
3175 29-07-2003 03:44:01 14 C 8.56 g/m*3 14 C 0 km/h
Sensor: Nr:Datum:Temp:Abs-Feuchte:Windchill:Wind:
Aussen-T/F 3176 29-07-2003 03:54:01 14 C 8.56 g/m*3 14 C 0 km/h
3177 29-07-2003 04:04:01 13.4 C 8.6 g/m*3 13.4 C 0 km/h
3178 29-07-2003 04:14:01 13.4 C 8.6 g/m*3 13.4 C 0 km/h
3179 29-07-2003 04:24:01 13 C 8.51 g/m*3 13 C 0 km/h
3180 29-07-2003 04:34:01 12.9 C 8.68 g/m*3 12.9 C 0 km/h
3181 29-07-2003 04:44:01 12.7 C 8.57 g/m*3 12.7 C 0 km/h
3182 29-07-2003 04:54:01 12.7 C 8.68 g/m*3 12.7 C 0 km/h
3183 29-07-2003 05:04:01 12.6 C 8.63 g/m*3 12.6 C 0 km/h
3184 29-07-2003 05:14:01 12.6 C 8.63 g/m*3 12.6 C 0 km/h
3185 29-07-2003 05:24:01 12.6 C 8.63 g/m*3 12.6 C 0 km/h
3186 29-07-2003 05:34:01 12.6 C 8.63 g/m*3 12.6 C 0 km/h
3187 29-07-2003 05:44:01 12.1 C 8.47 g/m*3 12.1 C 0 km/h
3188 29-07-2003 05:54:01 12.1 C 8.47 g/m*3 12.1 C 0 km/h
3189 29-07-2003 06:04:01 12 C 8.53 g/m*3 12 C 0 km/h
3190 29-07-2003 06:14:01 11.9 C 8.68 g/m*3 11.9 C 0 km/h
3191 29-07-2003 06:24:01 11.8 C 8.63 g/m*3 11.8 C 0 km/h
3192 29-07-2003 06:34:01 11.9 C 8.58 g/m*3 11.9 C 0 km/h
3193 29-07-2003 06:44:01 12 C 8.53 g/m*3 12 C 0 km/h
3194 29-07-2003 06:54:01 12.1 C 8.58 g/m*3 12.1 C 0 km/h
3195 29-07-2003 07:04:01 12.2 C 8.63 g/m*3 12.2 C 0 km/h
3196 29-07-2003 07:14:01 12.3 C 8.8 g/m*3 12.3 C 0 km/h
3197 29-07-2003 07:24:01 12.4 C 8.85 g/m*3 12.4 C 0 km/h
3198 29-07-2003 07:34:01 12.5 C 8.91 g/m*3 12.5 C 0 km/h
3199 29-07-2003 07:44:01 12.5 C 8.91 g/m*3 12.5 C 0 km/h
3200 29-07-2003 07:54:01 12.5 C 8.91 g/m*3 12.5 C 0 km/h
Sensor: Nr:Datum:Temp:Abs-Feuchte:Windchill:Wind:
Aussen-T/F 3201 29-07-2003 08:04:01 12.5 C 8.91 g/m*3 12.5 C 0 km/h
3202 29-07-2003 08:14:01 12.5 C 8.91 g/m*3 12.5 C 0 km/h
3203 29-07-2003 08:24:01 12.5 C 8.91 g/m*3 12.5 C 0 km/h
3204 29-07-2003 08:34:01 13.4 C 8.95 g/m*3 13.4 C 0 km/h
3205 29-07-2003 08:44:01 14 C 8.68 g/m*3 14 C 0 km/h
3206 29-07-2003 08:54:01 14.2 C 8.67 g/m*3 14.2 C 0 km/h
3207 29-07-2003 09:04:01 14.5 C 8.58 g/m*3 14.5 C 0 km/h
3208 29-07-2003 09:14:01 14.5 C 8.58 g/m*3 14.5 C 0 km/h
3209 29-07-2003 09:24:01 15.6 C 8.51 g/m*3 15.6 C 0 km/h
3210 29-07-2003 09:34:01 15.9 C 8.67 g/m*3 15.9 C 0 km/h
3211 29-07-2003 09:44:01 15.9 C 8.67 g/m*3 15.9 C 0 km/h
3212 29-07-2003 09:54:01 17.3 C 8.99 g/m*3 17.3 C 0 km/h
3213 29-07-2003 10:04:01 17.8 C 9.26 g/m*3 17.8 C 0 km/h
3214 29-07-2003 10:14:01 18.1 C 9.12 g/m*3 18.1 C 0 km/h
3215 29-07-2003 10:24:01 19.1 C 9.34 g/m*3 19.1 C 0 km/h
3216 29-07-2003 10:34:01 19.5 C 9.4 g/m*3 19.5 C 0 km/h
3217 29-07-2003 10:44:01 20.2 C 9.62 g/m*3 20.2 C 0 km/h
3218 29-07-2003 10:54:01 21 C 9.53 g/m*3 21 C 0 km/h
3219 29-07-2003 11:04:00 21.5 C 9.99 g/m*3 21.5 C 0 km/h
3220 29-07-2003 11:14:00 22.3 C 9.48 g/m*3 22.3 C 0 km/h
3221 29-07-2003 11:24:00 22.8 C 9.35 g/m*3 22.8 C 0 km/h
3222 29-07-2003 11:34:01 23.3 C 9.2 g/m*3 23.3 C 0 km/h
3223 29-07-2003 11:44:01 23.6 C 7.44 g/m*3 23.6 C 0 km/h
3224 29-07-2003 11:54:01 24.2 C 7.7 g/m*3 24.2 C 0 km/h
3225 29-07-2003 12:04:02 25 C 7.6 g/m*3 25 C 0 km/h
Sensor: Nr:Datum:Temp:Abs-Feuchte:Windchill:Wind:
Aussen-T/F 3226 29-07-2003 12:14:02 25.7 C 7.66 g/m*3 25.7 C 0 km/h
3227 29-07-2003 12:24:02 26.1 C 7.1 g/m*3 26.1 C 0 km/h
3228 29-07-2003 12:34:00 26.7 C 7.09 g/m*3 26.7 C 0 km/h </